Aviation Digital Data Service (ADDS)

Output produced by METARs form (1653 UTC 30 July 2016)
found at http://aviationweather.gov/adds/metars/
 
K04V 301636Z AUTO 18005KT 10SM CLR 22/06 A3033 RMK AO2
K04W 301634Z AUTO 00000KT 10SM SCT021 SCT029 BKN070 23/18 A3006 RMK AO2
K06D 301635Z AUTO 20006KT 10SM 23/18 A2993 RMK AO2
K08D 301635Z AUTO 00000KT 10SM CLR 24/19 A2992 RMK AO2
K0CO 301639Z AUTO 35022G37KT 10SM CLR 12/03 A3062 RMK AO2
K0E0 301635Z AUTO 20006KT 10SM CLR 24/11 A3025 RMK AO2 T02430107
K0F2 301635Z AUTO 20008KT 10SM CLR 34/21 A3001 RMK AO2 T03350210
K0J4 301558Z AUTO VRB04KT 10SM SCT026 32/23 A3008 RMK AO2 SLP183 T03170228
K0S9 301635Z AUTO 14007G12KT 10SM OVC041 19/14 A2995 RMK AO2
K0V4 301635Z AUTO 00000KT 10SM SCT027 SCT032 SCT110 31/24 A2998 RMK AO1 T03120241
K0VG 301630Z AUTO 00000KT 10SM BKN016 BKN026 25/22 A3009 RMK AO2
K11R 301635Z AUTO 21005KT 10SM SCT034 33/23 A3004 RMK AO2 T03280230
K12N 301554Z AUTO 35004KT 27/21 A3003 RMK AO1 SLP161 T02670211
K14Y 301637Z AUTO 08005KT 10SM CLR 22/13 A3006 RMK AO2
K18A 301635Z AUTO 30004KT 10SM SCT037 32/23 A3005 RMK AO2 LTG DSNT SE T03170229
K1A5 301640Z AUTO 00000KT 10SM SCT040 SCT049 28/19 A3009 RMK AO2 T02800190
K1A6 301635Z AUTO 00000KT 10SM SCT026 BKN032 BKN041 27/22 A3005 RMK AO2 T02660222
K1A9 301635Z AUTO 27005KT 10SM SCT036 BKN046 34/23 A3005 RMK AO2 T03360232
K1B7 301630Z 28010KT 10SM BKN025 32/26 A3003
K1F0 301635Z AUTO 25006KT 10SM CLR 33/17 A2999 RMK AO2
K1H2 301635Z AUTO 28007KT 10SM SCT036 SCT041 SCT050 26/20 A3001 RMK AO2 T02600204
K1J0 301558Z AUTO VRB03KT 10SM CLR 32/24 A3007 RMK AO2 SLP139 T03220239 $
K1K1 301635Z AUTO 17010G15KT 10SM CLR 25/19 A3003 RMK AO2 T02450193
K1L0 301635Z AUTO 27005KT 10SM SCT037 SCT044 BKN060 33/23 A3006 RMK AO2 T03260229
K1M4 301646Z AUTO VRB03KT 6SM VCTS +RA BR SCT008 BKN028 OVC055 25/24 A3008 RMK AO2 LTG DSNT ALQDS P0017
K1P1 301635Z AUTO 26005KT 10SM CLR 25/12 A3004 RMK AO2 T02490118
K1R7 301635Z AUTO 25004KT 10SM FEW038 FEW044 A3008 RMK AO2
K1S5 301655Z AUTO 00000KT 10SM CLR 26/14 A2977 RMK AO2 T02600136
K1V4 301554Z AUTO 23/11 A3006 RMK AO1 SLP170 T02330106
K1V6 301630Z AUTO 27014G22KT 10SM CLR 30/13 A3006 RMK AO2
K1YT 301558Z AUTO 03003KT 10SM M 26/09 A2978 RMK AO2 SLPNO T02640090 $
K20U 301635Z AUTO 09006KT 10SM CLR 26/11 A2993 RMK AO2
K20V 301636Z AUTO 00000KT 10SM CLR 22/01 A3027 RMK AO2
K21D 301633Z AUTO 15004KT 10SM BKN030 BKN035 23/17 A3005 RMK AO2
K22N 301635Z AUTO 14003KT 10SM SCT110 28/20 A3001 RMK AO2
K24J 301635Z AUTO 00000KT FEW040 SCT080 34/23 A3008 RMK AO1 LTG DSNT S
K2C8 301635Z AUTO 18008G14KT 10SM CLR 23/18 A2991 RMK AO2
K2DP 301645Z AUTO 09007KT 4SM -TSRA SCT021 BKN026 BKN100 28/24 A3000 RMK AO2 LTG DSNT N AND SW-W RAB43 TSB45 $
K2G4 301630Z AUTO 22004KT 10SM SCT024 SCT032 BKN041 22/17 A3008 RMK AO1
K2G9 301635Z AUTO 31012KT 10SM RA SCT009 BKN019 OVC031 21/19 A3005 RMK AO2
K2I0 301635Z AUTO 27004KT 10SM SCT023 SCT034 BKN050 29/22 A3001 RMK AO2 T02860219
K2J9 301635Z AUTO 00000KT SCT037 32/23 A3007 RMK AO1
K2V5 301635Z AUTO 14005KT 10SM CLR 27/16 A3001 RMK AO2
K2W6 301632Z AUTO 14006KT 10SM BKN025 BKN035 BKN046 28/22 A3001 RMK AO1
K2WX 301556Z AUTO VRB05KT 27/14 A2986 RMK AO1 SLP086 T02670144
K33V 301635Z AUTO 17003KT 10SM CLR 21/01 A3030 RMK AO2
K36U 301635Z AUTO 00000KT 10SM CLR 25/05 A3010 RMK AO2
K3AU 301635Z AUTO 17007KT 10SM CLR 25/20 A3003 RMK AO2
K3D2 301635Z AUTO 08009G16KT 050V110 10SM CLR 23/13 A3008 RMK AO2 T02290129
K3J7 301635Z AUTO 30005KT 10SM -DZ SCT026 SCT043 BKN080 31/23 A3003 RMK AO2 LTG DSNT NE
K3K3 301635Z AUTO 20011G20KT 10SM CLR 30/16 A2998 RMK AO2
K3N8 301635Z AUTO 15008KT 10SM BKN050 BKN080 23/17 A3001 RMK AO2 T02270172
K3R7 301635Z AUTO 19003KT 10SM CLR 32/24 A3004 RMK AO2
K3T5 301630Z AUTO 24004KT 7SM 33/25 A3002 RMK AO2 T03270247
K40B 301616Z AUTO VRB05G11KT 21/09 A3002 RMK AO1 SLP165 T02090093 58002
K40J 301635Z AUTO 36003KT SCT055 33/23 A3007 RMK AO2 LTG DSNT SE AND S T03340225 PWINO
K42J 301635Z AUTO 29006KT 10SM FEW060 FEW110 32/23 A3007 RMK AO1 TSNO
K46D 301635Z AUTO 17007KT 10SM BKN090 21/17 A2995 RMK AO2
K49A 301635Z AUTO 00000KT 10SM SCT060 A3011 RMK AO2 LTG DSNT NE
K4A6 301635Z AUTO 25003KT 10SM BKN025 29/23 A3005 RMK AO2
K4A7 301635Z AUTO 30004KT 10SM SCT032 SCT040 BKN090 31/25 A3007 RMK AO2 T03140249
K4A9 301635Z AUTO 00000KT 10SM SCT025 SCT030 27/21 A3005 RMK AO2 P0004
K4BM 301636Z AUTO 27006KT 10SM CLR 16/05 A3056 RMK AO2
K4I3 301625Z AUTO 20004KT 10SM SCT024 27/21 A2999 RMK AO2
K4I7 301635Z AUTO 28004KT 10SM SCT030 26/21 A2999 RMK AO2
K4M9 301635Z AUTO 27003KT 10SM 28/25 A3002 RMK AO2 PWINO PNO
K4MR 301558Z AUTO 20012G18KT 10SM CLR 27/16 A3015 RMK AO2 SLP149 T02650159 $
K4O4 301635Z AUTO 22005KT 10SM CLR 30/22 A3002 RMK AO2
K4V0 301635Z AUTO 00000KT 10SM CLR 29/03 A3008 RMK AO2 T02860032
K54J 301635Z AUTO 31004KT 10SM BKN034 BKN046 BKN070 31/23 A3007 RMK AO2 LTG DSNT SE T03050230
K5A6 301635Z AUTO 26005KT 10SM SCT027 30/24 A3004 RMK AO2 T03000240
K5C1 301635Z AUTO 17011G14KT 10SM SCT032 28/20 A3008 RMK AO1
K5H4 301635Z AUTO 14007KT 10SM CLR 24/19 A2992 RMK AO2 P0033 PWINO PNO
K5M9 301635Z AUTO 29006KT 10SM SCT018 BKN026 OVC030 27/23 A3002 RMK AO2 T02660226
K5R8 301635Z AUTO 27005KT 10SM BKN030 BKN037 BKN043 31/24 A3005 RMK AO2 T03140235
K5SM 301631Z AUTO 10SM SCT080 20/01 A3057 RMK AO2 TSNO
K66R 301635Z AUTO 23006KT 10SM SCT033 SCT039 BKN060 32/24 A3003 RMK AO2 T03160235
K6A2 301635Z AUTO 32005KT 10SM SCT032 SCT039 BKN055 32/25 A3008 RMK AO2
K6B0 301635Z AUTO 35007KT 10SM CLR 25/12 A3007 RMK AO2 T02450123
K6L4 301635Z AUTO 00000KT 10SM BKN031 BKN040 OVC046 24/22 A3004 RMK AO2
K6R3 301635Z AUTO 20004KT 10SM CLR 32/26 A3005 RMK AO2 T03180255
K6R6 301553Z AUTO 10004KT 28/19 A3004 RMK AO1 SLP135 T02830189
K79J 301556Z AUTO VRB04KT 10SM FEW031 FEW065 FEW080 34/23 A3007 RMK AO2 SLP176 T03440233
K7BM 301635Z AUTO 09004KT 10SM CLR 21/07 A3044 RMK AO2
K7L2 301635Z AUTO 11006KT 10SM FEW080 23/19 A2995 RMK AO2
K7N0 301556Z AUTO 30006KT 10SM SCT030 BKN043 31/24 A3007 RMK AO2 SLP181 T03110244 PNO $
K7W4 301635Z AUTO 13003KT 10SM BKN012 BKN075 27/24 A3000 RMK AO1 T02740244
K7W6 301640Z AUTO 14005KT 10SM -RA SCT020 SCT050 OVC100 28/26 A3000 RMK AO2 P0001 T02760261
K82C 301635Z AUTO 13006KT 10SM SCT060 24/17 A3004 RMK AO2 T02400169
K82V 301635Z AUTO 22007KT 10SM CLR 25/14 A3007 RMK AO2
K8A0 301635Z AUTO 30003KT 10SM SCT033 29/25 A3006 RMK AO2 LTG DSNT W
K8D3 301556Z AUTO 19008KT 24/16 A2999 RMK AO1 SLP138 T02440156
K8W2 301635Z AUTO 20006KT 10SM CLR 29/21 A2995 RMK AO1 T02930211
K96D 301635Z AUTO 19009KT 10SM CLR 24/22 A2991 RMK AO2
K9A5 301635Z AUTO 00000KT 10SM SCT031 SCT060 SCT080 30/19 A3006 RMK AO2 T03000194
K9D7 301615Z AUTO 25004KT 10SM SCT065 SCT080 OVC100 24/18 A2994 RMK AO2
K9L2 301556Z AUTO 19009KT 10SM CLR 33/06 A2990 RMK AO2 SLP098 T03330061 $
K9MN 301634Z AUTO 11003KT 10SM SCT025 SCT035 SCT046 24/16 A3005 RMK AO1 T02410163
K9V9 301635Z AUTO 18009KT 10SM CLR 27/19 A2995 RMK AO2 T02680190
KA08 301635Z AUTO 28008G16KT 10SM SCT040 31/23 A3004 RMK AO2 T03130231
KAAA 301635Z AUTO 00000KT 10SM SCT024 SCT047 SCT055 26/21 A2998 RMK AO2 T02600209
KAAF 301649Z AUTO 29008KT 10SM SCT035 28/26 A3007 RMK AO2 LTG DSNT N RAB1559E12 P0000
KAAO 301554Z AUTO 15007KT 10SM CLR 24/21 A3002 RMK AO2 SLP153 T02440206
KAAT 301555Z AUTO 00000KT 10SM CLR 24/10 A3003 RMK AO2 SLP110 T02440100
KABE 301559Z VRB04KT 10SM SCT025 BKN110 29/22 A3000 RMK AO2
KABI 301552Z 19007KT 10SM CLR 31/20 A3005 RMK AO2 SLP148 T03060200
KABQ 301552Z 00000KT 10SM FEW150 SCT250 24/12 A3020 RMK AO2 SLP144 T02440117
KABR 301553Z AUTO 17011KT 10SM CLR 24/16 A2997 RMK AO2 SLP144 T02440161 TSNO
KABY 301553Z VRB03KT 10SM BKN036 32/22 A3009 RMK AO2 SLP185 T03170222
KACB 301633Z AUTO 04008KT 10SM SCT055 26/09 A3006 RMK AO2 T02580091
KACJ 301635Z AUTO 24004KT 10SM SCT037 SCT060 SCT085 31/20 A3008 RMK AO2
KACK 301640Z VRB05KT 10SM FEW008 SCT014 25/21 A3004 RMK AO2 T02500206
KACP 301635Z AUTO 00000KT 10SM SCT034 32/24 A3005 RMK AO2 T03190240
KACQ 301635Z AUTO 00000KT 10SM SCT023 BKN080 OVC100 22/17 A3006 RMK AO2
KACT 301551Z 23009G16KT 10SM CLR 33/21 A3002 RMK AO2 SLP156 T03280211
KACV 301553Z AUTO 00000KT 1/4SM R32/1200V1600FT FG VV002 13/13 A2983 RMK AO2 SLP106 T01280128
KACY 301554Z 15009KT 10SM CLR 28/19 A3002 RMK AO2 SLP163 T02830189
KADC 301635Z AUTO 15005KT 10SM SCT041 SCT085 23/14 A3004 RMK AO2
KADF 301556Z AUTO VRB04KT 10SM CLR 27/23 A3003 RMK AO2 SLP169 T02720233
KADG 301553Z AUTO 02008KT 10SM OVC017 21/19 A3000 RMK AO2 SLP156 T02110194
KADH 301635Z AUTO 29003KT 10SM CLR 32/21 A3000 RMK AO2
KADM 301555Z 24007KT 10SM SKC 33/22 A2998
KADS 301647Z AUTO 25010KT 13SM SKC 33/22 A3002
KADW 301558Z AUTO 17012KT 10SM FEW030 SCT210 30/23 A2998 RMK AO2 SLP156 T03000227
KAEG 301648Z 15005G15KT 10SM SCT140 26/11 A3022
KAEJ 301635Z AUTO 14006KT 10SM CLR 22/06 A3030 RMK AO2 T02210064
KAEL 301636Z AUTO 18003KT 10SM SCT024 SCT055 BKN070 23/18 A3005 RMK AO2
KAEX 301553Z 28006KT 10SM CLR 31/24 A3003 RMK AO2 SLP170 T03110244
KAFF 301558Z VRB04KT 10SM CLR 21/14 A3014 RMK AO2A SLP115 T02130142
KAFJ 301635Z AUTO 30008KT 10SM VCTS FEW011 SCT020 BKN033 23/20 A3000 RMK AO1 LTG DSNT W TSE29B30
KAFK 301635Z AUTO 05003KT 10SM CLR 23/19 A3004 RMK AO2 LTG DSNT W T02300188
KAFN 301552Z AUTO 00000KT 10SM CLR 26/12 A3008 RMK AO2 SLP184 T02560117
KAFO 301635Z AUTO 35003KT 10SM OVC110 17/08 A3014 RMK AO2 TSNO
KAFP 301640Z AUTO 24004KT 7SM SCT050 SCT110 34/20 A2999 RMK AO2 T03360200
KAFW 301553Z 23008KT 10SM FEW300 33/21 A3000 RMK AO2 SLP142 T03280211
KAGC 301604Z 00000KT 2SM R28/5500VP6000FT -RA BR BKN009 BKN038 OVC070 22/19 A2999 RMK AO2 RAB1558 P0002 T02170194
KAGS 301553Z 29007KT 10SM SCT046 BKN100 33/21 A3002 RMK AO2 SLP164 T03330211
KAHN 301551Z 31009KT 10SM FEW031 32/22 A3006 RMK AO2 SLP169 T03220222
KAHQ 301635Z AUTO 12006KT 10SM OVC050 21/18 A3004 RMK AO2 T02100181
KAIA 301553Z AUTO 14004KT 10SM CLR 24/17 A3000 RMK AO2 SLP120 T02390167
KAIB 301655Z AUTO 34003KT 10SM CLR A3022 RMK AO2
KAID 301554Z 28005KT 10SM BKN022 26/21 A2997
KAIG 301635Z AUTO 08008KT 1 1/4SM HZ SCT031 22/15 A3010 RMK AO2 T02190147
KAIK 301635Z AUTO 21009KT 10SM CLR 33/20 A3006 RMK AO2 LTG DSNT NW
KAIO 301635Z AUTO 00000KT 10SM CLR 24/17 A3005 RMK AO2
KAIT 301633Z AUTO 13003KT 10SM CLR 25/11 A3004 RMK AO2
KAIZ 301556Z AUTO VRB04KT 10SM CLR 26/21 A3004 RMK AO2 SLP181 T02610211
KAJG 301635Z AUTO 30004KT 10SM SCT026 SCT036 27/20 A2999 RMK AO2 T02680200
KAJO 301634Z AUTO 28006KT 10SM OVC029 27/19 A2987 RMK AO2 $
KAJR 301635Z AUTO 30006KT 10SM SCT034 SCT048 29/21 A3008 RMK AO2 T02910214
KAJZ 301535Z AUTO 08004KT 5SM HZ CLR 25/04 A3012 RMK AO2 T02540041
KAKH 301554Z AUTO VRB03KT 10SM BKN110 29/22 A3004 RMK AO2 SLP163 T02890217 TSNO
KAKO 301553Z AUTO 14006KT 10SM CLR 24/14 A3004 RMK AO2 SLP113 T02440144
KAKQ 301649Z AUTO 17004KT 9SM SCT028 BKN060 30/23 A2998 RMK AO2 RAE1559 P0000 TSNO
KAKR 301633Z AUTO 00000KT 10SM BKN028 BKN038 BKN110 28/20 A2996 RMK AO2 T02830200
KALB 301551Z VRB03KT 10SM FEW045 FEW090 SCT140 SCT180 BKN260 25/17 A3006
KALI 301553Z AUTO 19010G18KT 10SM BKN032 33/22 A3001 RMK AO2 SLP158 T03330217
KALK 301556Z AUTO 11006KT 10SM CLR 26/13 A3015 RMK AO2 SLP117 T02610128 $
KALM 301635Z AUTO 00000KT 10SM CLR 28/13 A3012 RMK AO2
KALN 301650Z 30010KT 10SM BKN037 27/19 A3000
KALO 301628Z VRB03KT 10SM SCT024 BKN032 BKN040 24/18 A3002 RMK AO2 T02440178
KALS 301552Z AUTO VRB03KT 10SM CLR 21/07 A3030 RMK AO2 SLP154 T02060072 $
KALW 301553Z 22009KT 10SM CLR 27/09 A2981 RMK AO2 SLP082 T02720089
KALX 301635Z AUTO 26006KT 10SM SCT030 SCT036 SCT043 31/27 A3008 RMK AO2 LTG DSNT N AND NW T03100267
KAMA 301553Z 19011KT 10SM CLR 26/17 A3011 RMK AO2 SLP150 T02560172
KAMG 301553Z AUTO 27005KT 10SM FEW045 33/22 A3006 RMK AO2 SLP176 T03330217
KAMN 301631Z AUTO 06011G15KT 10SM BKN015 BKN020 OVC043 23/19 A3004 RMK AO2 T02280193
KAMW 301553Z AUTO 03004KT 10SM FEW013 BKN042 OVC055 23/20 A3004 RMK AO2 SLP166 T02280200
KANB 301643Z AUTO VRB06KT 10SM VCTS SCT028 BKN037 BKN047 30/23 A3005 RMK AO2 LTG DSNT W T03000228 PNO $
KAND 301556Z AUTO 27008KT 10SM SCT090 31/22 A3003 RMK AO2 LTG DSNT S SLP159 T03110217
KANE 301645Z 10006KT 10SM SCT020 BKN080 24/18 A3004
KANJ 301555Z AUTO VRB03KT 10SM CLR 24/13 A3010 RMK AO2 SLP189 T02440133
KANK 301635Z AUTO 00000KT 10SM CLR 24/08 A3033 RMK AO1 T02420075
KANQ 301735Z AUTO 03003KT 5SM OVC008 20/15 A2999 RMK
KANW 301635Z AUTO 19012KT 10SM SCT025 24/19 A2999 RMK AO2 T02430185
KAOH 301615Z AUTO 28007KT 8SM BKN015 24/22 A2998 RMK AO2 T02390217
KAOO 301616Z AUTO 02006KT 9SM BKN008 BKN014 OVC035 23/21 A3002 RMK AO2 LTG DSNT N AND W CIG 006V010 T02330211
KAPA 301553Z 01010KT 10SM FEW120 23/14 A3009 RMK AO2 SLP115 T02280139
KAPC 301554Z 00000KT 10SM FEW006 14/12 A2983 RMK AO2 SLP092 T01440117
KAPF 301553Z 25009KT 10SM SCT028 32/24 A3007 RMK AO2 SLP182 T03170239
KAPN 301554Z AUTO 06013G18KT 10SM CLR 24/10 A3011 RMK AO2 SLP193 T02390100 $
KAPY 301635Z AUTO 14010G16KT 10SM CLR 33/17 A2999 RMK AO2 T03410178
KAQO 301635Z AUTO 00000KT 10SM CLR 33/21 A3007 RMK AO2
KAQP 301635Z AUTO 00000KT 10SM CLR 24/14 A3002 RMK AO2
KAQR 301635Z AUTO 24005KT 10SM CLR 32/21 A2999 RMK AO2
KAQV 301556Z AUTO VRB04KT 10SM FEW110 32/22 A3003 RMK AO2 SLP166 T03170222
KAQW 301552Z AUTO VRB03KT 10SM CLR 26/14 A3005 RMK AO2 SLP175 T02560139
KAQX 301635Z AUTO VRB04G10KT 10SM SCT050 SCT080 SCT100 34/21 A3002 RMK AO2
KARA 301553Z 26003KT 10SM FEW029 FEW038 31/24 A3006 RMK AO2 SLP178 T03110239
KARB 301647Z 02009KT 10SM BKN009 BKN012 OVC049 21/19 A2999 RMK AO2 LTG DSNT NE AND SE CIG 007V012
KARG 301635Z AUTO 00000KT 10SM FEW023 28/21 A3001 RMK AO1
KARM 301635Z AUTO 19008KT 10SM 33/23 RMK AO2 T03280227 TSNO
KARR 301644Z 05011KT 9SM FEW019 SCT030 OVC036 25/19 A2999 RMK AO2 T02500194
KART 301556Z AUTO 36009KT 10SM CLR 27/12 A3006 RMK AO2 SLP176 T02670117
KARV 301635Z AUTO 11007KT 10SM SCT046 25/13 A3010 RMK AO2 T02500134
KARW 301615Z AUTO 28005KT 7SM CLR 35/22 A3003 RMK AO2
KASD 301553Z AUTO 35004KT 10SM FEW028 FEW080 SCT090 32/26 A3006 RMK AO2 SLP179 T03170256
KASE 301553Z 01004KT 10SM CLR 23/04 A3028 RMK AO2 SLP118 T02280039
KASG 301648Z 27005KT 10SM SCT030 BKN037 BKN043 28/22 A3007
KASH 301556Z 31009G14KT 280V340 10SM CLR 28/12 A3004 RMK AO2 SLP179 T02780122
KASJ 301640Z AUTO 11003KT 10SM SCT070 28/26 A2998 RMK AO2 P0001 T02820259
KASL 301635Z AUTO 25005KT 10SM CLR 30/21 A3005 RMK AO1 T02960211
KASN 301635Z AUTO 00000KT 10SM SCT030 SCT039 BKN050 31/24 A3005 RMK AO2 LTG DSNT N S AND NW T03050239
KAST 301555Z AUTO 26006KT 8SM OVC025 17/13 A3002 RMK AO2 VIS 1 1/2 RWY 08 SLP166 T01670128
KASW 301635Z AUTO 05003KT 7SM OVC013 23/20 A2998 RMK AO2
KASX 301553Z AUTO VRB03KT 10SM CLR 24/15 A3007 RMK AO2 SLP182 T02390150
KATL 301552Z VRB06KT 10SM BKN034TCU BKN090 30/23 A3007 RMK AO2 SLP171 TCU NW T03000228
KATS 301655Z AUTO 11005G13KT 10SM CLR 29/16 A3010 RMK AO2
KATT 301551Z AUTO 21005KT 10SM SCT027 SCT032 30/23 A3005 RMK AO2 SLP160 T03000228
KATW 301645Z 06009G14KT 10SM BKN038 24/11 A3004
KATY 301553Z AUTO 16011KT 10SM CLR 24/16 A3002 RMK AO2 SLP156 T02390156
KAUG 301553Z AUTO 36009KT 10SM FEW045 25/13 A3003 RMK AO2 SLP167 T02500133
KAUH 301635Z AUTO 22005KT 10SM -RA SCT006 BKN033 BKN060 19/19 A3002 RMK AO2 LTG DSNT SE P0001 T01920185
KAUM 301635Z AUTO 25004KT 10SM -RA SCT005 BKN024 OVC031 21/18 A3005 RMK AO2 P0009
KAUO 301556Z AUTO 28008KT 230V300 10SM SCT030 BKN065 30/23 A3009 RMK AO2 RAB37E52 SLP196 P0000 T03000228
KAUS 301553Z 19011KT 10SM FEW026 FEW035 31/23 A3003 RMK AO2 SLP157 T03060228
KAUW 301554Z AUTO 06007KT 10SM CLR 22/16 A3006 RMK AO2 SLP180 T02220156
KAVC 301636Z AUTO 16003KT 10SM VCTS SCT016 BKN065 OVC075 28/25 A3005 RMK AO2 LTG DSNT N AND NE T02770252
KAVL 301554Z 06003KT 10SM SCT090 27/18 A3012 RMK AO2 SLP168 T02720183
KAVP 301650Z 11007KT 7SM VCTS -RA SCT009 OVC034 22/21 A3001 RMK AO2 RAB02 P0111
KAVQ 301635Z AUTO 22005KT 10SM CLR 30/18 A2997 RMK AO2 T03000175
KAVX 301634Z AUTO 10006KT 6SM HZ SCT003 21/18 A2994 RMK AO2 T02110183 TSNO
KAWG 301635Z AUTO 04005KT 10SM SCT070 24/21 A3002 RMK AO2
KAWM 301638Z AUTO 26005KT 10SM SCT018 28/23 A3001 RMK AO2 T02780233 PNO $
KAWO 301635Z AUTO 17006KT 10SM CLR 19/10 A2997 RMK AO1
KAXA 301635Z AUTO 00000KT 10SM OVC080 23/17 A3005 RMK AO2
KAXH 301635Z AUTO 21006KT 10SM CLR 32/25 A3004 RMK AO2 T03200247
KAXN 301553Z AUTO 15005KT 10SM CLR 23/12 A3006 RMK AO2 SLP175 T02280117
KAXS 301635Z AUTO 15003KT 5SM HZ CLR 28/21 A3003 RMK AO2 T02820205
KAXV 301633Z AUTO 21003KT 10SM OVC019 25/22 A2999 RMK AO2
KAXX 301635Z AUTO 30008KT 10SM CLR 22/06 A3037 RMK AO2 T02190059
KAYS 301635Z AUTO 26007KT 10SM SCT048 36/23 A3005 RMK AO2 T03630234
KAZC 301635Z AUTO 28009KT 10SM CLR 30/10 A3015 RMK AO2
KAZE 301635Z AUTO 00000KT 10SM SCT047 35/22 A3004 RMK AO2 T03530217
KAZO 301604Z 03004KT 6SM -RA BR BKN005 BKN047 OVC070 19/18 A3000 RMK AO2 P0000 T01940178
KBAB 301558Z AUTO 22004KT 10SM CLR 28/08 A2974 RMK AO2 SLP073 T02820080 $
KBAC 301635Z AUTO 20010KT 10SM BKN070 22/17 A2998 RMK AO2
KBAD 301558Z AUTO 28006KT 10SM CLR 32/22 A3002 RMK AO2 SLP167 T03160224
KBAF 301553Z VRB06KT 10SM CLR 28/14 A3003 RMK AO2 SLP167 T02780139
KBAK 301647Z 27006KT 10SM SCT032 27/22 A2998
KBAN 301552Z AUTO 00000KT 10SM 21/04 A3021 RMK AO2 SLP112 T02110044 $
KBAX 301634Z AUTO 06006KT 10SM SCT015 OVC120 22/18 A3006 RMK AO2 T02170178
KBAZ 301558Z 24008KT 10SM FEW027 SCT035 30/22 A3004 RMK AO2 T03000222 $
KBBB 301634Z AUTO 20005KT 10SM CLR 24/13 A3004 RMK AO2
KBBG 301645Z 00000KT 10SM SCT023 BKN040 BKN045 28/22 A3006
KBBP 301635Z AUTO 20005KT 10SM CLR 35/24 A2999 RMK AO2
KBBW 301619Z AUTO 14010KT 10SM SCT027 22/17 A3002 RMK AO2 T02170172 $
KBCB 301635Z AUTO 00000KT 10SM SCT022 SCT028 BKN046 27/21 A3011 RMK AO2 T02670210 TSNO
KBCE 301553Z AUTO 29012KT 10SM CLR 25/05 A3029 RMK AO2 SLP117 T02500050
KBCK 301635Z AUTO 00000KT 10SM SCT030 25/15 A3004 RMK AO2 T02450154
KBCT 301553Z 09007KT 10SM SCT040 33/24 A3007
KBDE 301553Z AUTO 19008KT 10SM CLR 25/18 A2999 RMK AO2 SLP155 T02500178 TSNO
KBDG 301635Z AUTO 16006KT 10SM CLR 27/06 A3025 RMK AO1 T02680062
KBDH 301635Z AUTO 11003KT 10SM CLR 24/14 A3006 RMK AO2
KBDL 301551Z 01004KT 10SM FEW050 FEW130 SCT180 BKN250 29/14 A3003 RMK AO2 SLP168 T02890144
KBDN 301635Z AUTO 00000KT 10SM CLR 24/05 A2998 RMK AO2
KBDR 301552Z 13009KT 10SM FEW120 27/21 A3002 RMK AO2 SLP167 T02670206
KBDU 301635Z AUTO 00000KT 10SM CLR 24/14 A3007 RMK AO2
KBEA 301635Z AUTO 17006KT 10SM SCT033 31/24 A3003 RMK AO2 T03130236
KBED 301556Z 02007KT 320V080 10SM CLR 28/12 A3002 RMK AO2 SLP175 T02830117
KBEH 301553Z AUTO 08007KT 10SM FEW013 23/18 A2999 RMK AO2 SLP152 T02330183 $
KBFD 301643Z AUTO 11004KT 10SM BKN004 BKN060 OVC100 18/16 A3007 RMK AO2 RAE41 P0005 T01780161
KBFF 301553Z AUTO 10004KT 10SM CLR 23/17 A3001 RMK AO2 SLP121 T02330172 $
KBFI 301553Z 17008KT 10SM OVC013 16/11 A2997 RMK AO2 SLP149 T01560111
KBFL 301554Z 15004KT 10SM CLR 32/10 A2980 RMK AO2 SLP081 T03170100
KBFM 301553Z VRB03KT 10SM CLR 32/24 A3008 RMK AO2 SLP184 T03220239
KBFW 301634Z AUTO 07004KT 10SM CLR 22/14 A3007 RMK AO2
KBGD 301551Z AUTO 21010KT 10SM CLR 28/16 A3007 RMK AO2 SLP140 T02830161
KBGE 301635Z AUTO 25004KT 10SM CLR 33/22 A3006 RMK AO2
KBGF 301635Z AUTO 00000KT 10SM FEW027 29/22 A3005 RMK
KBGM 301553Z 05006KT 10SM FEW041 SCT055 BKN090 19/17 A3008 RMK AO2 RAE1457 SLP179 P0000 T01940167 $
KBGR 301553Z VRB03KT 10SM BKN040 BKN075 BKN200 28/14 A3000 RMK AO2 SLP156 T02830139
KBHB 301556Z AUTO 07005KT 10SM FEW042 25/16 A3000 RMK AO2 SLP161 T02500161
KBHC 301635Z AUTO 21005KT 10SM SCT048 SCT055 34/24 A3005 RMK AO2 PNO
KBHK 301551Z AUTO 13012KT 10SM CLR 25/14 A2992 RMK AO2 SLP107 T02500139
KBHM 301626Z VRB05KT 10SM VCTS SCT029 BKN039 31/23 A3006 RMK AO2 LTG DSNT W-N T03110228
KBID 301556Z AUTO 08005KT 9SM CLR 26/20 A3005 RMK AO2 SLP179 T02560200
KBIE 301635Z AUTO 31018KT 10SM TS OVC033 23/18 A3007 RMK AO2 LTG DSNT SW THRU N T02250178
KBIF 301558Z AUTO 00000KT 10SM CLR 27/15 A3010 RMK AO2 SLP121 T02720148 $
KBIH 301556Z AUTO 34004KT 10SM CLR 29/06 A3000 RMK AO2 SLP098 T02940061
KBIJ 301635Z AUTO 00000KT 10SM SCT038 33/23 A3006 RMK AO2 LTG DSNT S AND SW
KBIL 301553Z VRB03KT 10SM FEW100 FEW180 25/11 A2988 RMK AO2 SLP080 ACC N-NE T02500106
KBIS 301552Z 15011KT 10SM BKN085 24/19 A2990 RMK AO2 SLP119 T02390189
KBIV 301632Z AUTO 10005KT 10SM BKN015 OVC100 21/18 A3002 RMK AO2 RAB1559E13 P0000 T02060178
KBIX 301558Z AUTO VRB05KT 10SM FEW028 SCT033 32/25 A3006 RMK AO2 SLP182 T03190247
KBJC 301645Z 33004KT 30SM SKC 23/15 A3010
KBJI 301633Z AUTO 22004KT 10SM OVC065 20/15 A3005 RMK AO2 T02000154
KBJJ 301641Z AUTO 10003KT 10SM FEW022 FEW029 27/19 A2997 RMK AO2 T02720194
KBKB 301554Z AUTO 22005KT 10SM CLR 32/23 A3002 RMK AO2 SLP190 T03170233 PNO
KBKD 301635Z AUTO 22007KT 7SM CLR 33/19 A3003 RMK AO2 T03310187
KBKE 301553Z AUTO 23003KT 10SM CLR 24/08 A2992 RMK AO2 SLP100 T02390083 TSNO
KBKF 301558Z 01006KT 10SM FEW110 FEW220 22/16 A3009 RMK AO2A SLP112 T02180155
KBKL 301553Z 01009KT 10SM SCT028 BKN037 26/21 A2994 RMK AO2 SLP134 T02610211
KBKS 301635Z AUTO 12010G14KT 10SM SCT036 34/22 A3000 RMK AO1 T03370219
KBKT 301635Z AUTO 13008KT 10SM SCT006 BKN042 OVC048 25/25 A3001 RMK AO1 P0006 T02500245
KBKV 301614Z 23003KT 10SM SCT060 SCT070 BKN110 28/25 A3011 RMK AO2 LTG DSNT E-S TSE00 T02780250 $
KBKW 301554Z AUTO 23008KT 10SM BKN014 BKN019 23/19 A3010 RMK AO2 T02280194 $
KBKX 301556Z AUTO 20007KT 10SM SCT026 23/16 A3003 RMK AO2 SLP175 T02280156
KBLF 301552Z AUTO 27009KT 10SM SCT017 SCT022 BKN040 23/19 A3013 RMK AO2 SLP168 T02280189
KBLH 301552Z AUTO 21005KT 10SM CLR 28/22 A2982 RMK AO2 RAB1459E42 SLP090 P0000 T02830217
KBLI 301553Z 32008KT 10SM CLR 18/10 A2994 RMK AO2 SLP142 T01830100
KBLM 301556Z AUTO 19006KT 10SM BKN022 BKN027 29/23 A3002 RMK AO2 SLP168 T02890228
KBLU 301552Z AUTO 16003KT 10SM CLR 26/06 A3013 RMK AO2 SLP079 T02560056 TSNO
KBLV 301558Z AUTO 27002KT 10SM FEW046 27/21 A2998 RMK AO2 SLP152 T02710211
KBMC 301635Z AUTO 29006KT 10SM 29/07 A2998 RMK AO1 T02900069
KBMG 301553Z VRB06KT 10SM SCT030 27/19 A2999 RMK AO2 SLP146 T02670194
KBMI 301556Z COR VRB04KT 10SM BKN014 BKN036 24/20 A2999 RMK AO2 SLP168 T02390200
KBML 301552Z AUTO 32007KT 10SM CLR 25/08 A3007 RMK AO2 SLP180 T02500083 $
KBMQ 301553Z AUTO VRB06KT 10SM CLR 29/21 A3008 RMK AO2 SLP165 T02940206
KBMT 301635Z AUTO 26004KT 10SM SCT028 SCT036 SCT047 32/24 A3005 RMK AO2 T03210236
KBNA 301553Z 00000KT 10SM SCT025 BKN250 28/21 A3003 RMK AO2 SLP162 T02780206
KBNO 301553Z AUTO 00000KT 10SM CLR 24/04 A2999 RMK AO2 SLP106 T02440044 TSNO
KBNW 301635Z AUTO 07004KT 10SM SCT041 BKN060 23/18 A3003 RMK AO2
KBOI 301553Z 00000KT 3SM HZ CLR 28/04 A2985 RMK AO2 SLP069 T02830039
KBOK 301556Z AUTO 00000KT 7SM CLR 17/14 A2983 RMK AO2 SLP111 T01720139
KBOS 301554Z 13012KT 10SM FEW030 FEW110 SCT250 24/17 A3004 RMK AO2 SLP170 T02440172
KBOW 301648Z 31004KT 10SM BKN045 33/23 A3007
KBPC 301635Z AUTO 22008KT 10SM CLR 31/15 A3004 RMK AO2
KBPG 301635Z AUTO 17007KT 10SM CLR 30/17 A3010 RMK AO2 T02970174
KBPI 301553Z AUTO VRB03KT 10SM CLR 20/05 A3021 RMK AO2 SLP129 T02000050
KBPK 301553Z AUTO 00000KT 10SM SCT011 25/22 A3003 RMK AO2 SLP159 T02500222
KBPT 301553Z 00000KT 10SM FEW030 31/24 A3003 RMK AO2 SLP169 T03110244
KBQK 301635Z AUTO 00000KT 10SM SCT050 34/23 A3006 RMK AO2
KBQP 301635Z AUTO 27008KT 10SM SCT030 SCT035 32/24 A3004 RMK AO2 T03230244
KBRD 301553Z AUTO 09004KT 10SM CLR 23/13 A3005 RMK AO2 SLP173 T02330133
KBRL 301617Z AUTO 01005KT 10SM SCT025 BKN042 OVC065 24/19 A2999 RMK AO2 T02440194
KBRO 301639Z 13014KT 10SM VCTS SCT039 34/23 A3001 RMK AO2 LTG DSNT N AND W T03390233
KBTA 301635Z AUTO 09005KT 10SM SCT015 22/19 A3004 RMK AO2 T02170185
KBTL 301629Z 07005KT 4SM RA BR BKN006 OVC080 18/18 A3000 RMK AO2 CIG 004V010 P0007 T01780178
KBTM 301553Z AUTO 00000KT 10SM CLR 22/08 A3001 RMK AO2 SLP094 T02170078
KBTP 301635Z AUTO 06007KT 3SM BKN011 20/19 A3003 RMK AO1 P0015
KBTR 301603Z VRB04KT 10SM BKN020 BKN036 31/23 A3006 RMK AO2 T03110228
KBTV 301554Z 34007KT 10SM SCT050 SCT150 BKN250 24/13 A3008 RMK AO2 SLP185 T02390133
KBUF 301554Z 09009KT 10SM FEW040 BKN070 BKN110 BKN140 22/16 A3004 RMK AO2 RAB17E37 SLP168 P0000 T02220156 $
KBUR 301553Z 23003KT 10SM OVC025 24/16 A2989 RMK AO2 SLP107 T02440161
KBUU 301635Z AUTO 10010G14KT 10SM SCT030 25/16 A3002 RMK AO2 T02470156
KBUY 301554Z AUTO VRB04KT 10SM CLR 32/22 A2999 RMK AO2 SLP149 T03170222
KBVE 301651Z AUTO 21008KT 10SM CLR 31/25 A3007 RMK AO2 SLP181 T03110250
KBVI 301547Z 00000KT 5SM -DZ SCT004 BKN024 OVC045 21/20 A3000
KBVN 301635Z AUTO 17004KT 10SM OVC013 21/19 A3003 RMK AO2 T02070185
KBVO 301553Z AUTO 00000KT 10SM FEW065 BKN100 27/22 A3003 RMK AO2 LTG DSNT SE-W SLP160 T02670222
KBVS 301635Z AUTO 31008KT 5SM HZ BKN055 19/10 A2995 RMK A01
KBVU 301635Z AUTO 11010KT 7SM CLR 33/16 A2991 RMK AO2
KBVX 301635Z AUTO 26004KT 10SM CLR 29/22 A3002 RMK AO1
KBVY 301553Z VRB06KT 10SM SCT250 29/15 A3002 RMK AO2 SLP159 T02890150
KBWD 301635Z AUTO 18006KT 10SM CLR 32/19 A3005 RMK AO2
KBWG 301553Z AUTO 26006KT 10SM OVC018 26/22 A3002 RMK AO2 SLP160 T02610217
KBWI 301554Z 18007KT 10SM SCT040 SCT090 BKN140 BKN250 30/22 A2998 RMK AO2 SLP151 T03000217
KBWP 301635Z AUTO 17013G17KT 10SM SCT060 25/12 A3000 RMK AO1
KBXA 301635Z AUTO 34005KT 10SM SCT030 SCT048 SCT060 32/23 A3008 RMK AO2 T03230232 PWINO
KBYG 301553Z AUTO 10006KT 10SM CLR 26/12 A2998 RMK AO2 SLP087 T02560122
KBYI 301553Z AUTO 00000KT 10SM CLR 23/12 A2993 RMK AO2 RAE05 SLP089 P0000 T02280117
KBYL 301635Z AUTO 28004KT 10SM BKN022 BKN031 27/23 A3005 RMK AO1
KBYS 301555Z 14014G23KT 2SM HZ SCT005 OVC009 30/15 A2997 RMK AO2A SLP078 T03010151 PWINO $
KBYY 301635Z AUTO 21006KT 10SM SCT037 SCT050 SCT060 32/23 A3003 RMK AO2 T03210238
KBZN 301556Z 00000KT 10SM CLR 23/11 A2995 RMK AO2 SLP100 T02280111
KC09 301635Z AUTO 07004KT 10SM SCT019 SCT036 BKN095 25/21 A2996 RMK AO2 T02540205
KC29 301635Z AUTO 09008KT 050V120 10SM CLR 25/16 A3004 RMK AO1 T02450156
KC35 301635Z AUTO 10006KT 10SM CLR 23/17 A3004 RMK AO2 T02310172
KC75 301635Z AUTO 33004KT 10SM SCT019 SCT037 25/20 A2997 RMK AO2 T02490200
KCAD 301635Z AUTO 11005KT 10SM BKN033 BKN042 23/14 A3007 RMK AO2 T02340146
KCAE 301556Z 26011KT 10SM FEW055 BKN110 36/20 A3001 RMK AO2 SLP156 T03560200
KCAG 301553Z AUTO 00000KT 10SM CLR 23/06 A3018 RMK AO2 SLP143 T02280056
KCAK 301551Z 18005KT 10SM SCT032 BKN200 26/20 A2998 RMK AO2 SLP143 T02610200
KCAO 301555Z AUTO 20022G29KT 10SM CLR 26/15 A3014 RMK AO2 PK WND 20030/1538 SLP140 T02560150
KCAR 301554Z AUTO 26006KT 10SM FEW045 23/12 A2998 RMK AO2 SLP154 T02330122
KCBE 301633Z AUTO 00000KT 10SM CLR 28/22 A3000 RMK AO1
KCBF 301635Z AUTO 12005KT 10SM CLR 22/19 A3004 RMK AO2
KCBG 301635Z AUTO 00000KT 10SM SCT022 SCT029 BKN060 24/17 A3003 RMK AO2
KCBK 301635Z AUTO 12009KT 10SM CLR 28/18 A3002 RMK AO2
KCBM 301603Z AUTO 26008KT 10SM BKN030 BKN048 31/26 A3002 RMK AO2 $
KCCA 301635Z AUTO 14003KT 10SM CLR 29/23 A3003 RMK AO2
KCCO 301635Z AUTO 29005KT 10SM SCT029 SCT034 SCT050 30/24 A3007 RMK AO2 T03010242
KCCR 301553Z 29009KT 10SM CLR 18/11 A2980 RMK AO2 SLP077 T01830111 $
KCCU 301636Z AUTO 31016G27KT 10SM CLR 16/M05 A3062 RMK AO2
KCCY 301655Z AUTO 11003KT 10SM FEW019 SCT033 BKN045 24/19 A3005 RMK AO2
KCDA 301635Z AUTO 00000KT 10SM SCT046 22/11 A3011 RMK AO2 T02190111
KCDC 301553Z AUTO 22013KT 10SM CLR 28/09 A3014 RMK AO2 SLP111 T02780089
KCDD 301641Z AUTO 17005KT 10SM CLR 23/12 A3006 RMK AO2
KCDH 301635Z AUTO 29005KT 10SM CLR 30/23 A3002 RMK AO2
KCDJ 301552Z AUTO 31005KT 26/18 A3004 RMK AO1 SLP163 T02560183
KCDR 301553Z AUTO 22006KT 10SM CLR 26/16 A2995 RMK AO2 SLP119 T02610156
KCDS 301553Z AUTO 19007KT 10SM CLR 27/22 A3002 RMK AO2 SLP136 T02720217
KCDW 301553Z 08006KT 10SM FEW060 BKN100 28/22 A3002 RMK AO2 SLP167 T02830217
KCEC 301649Z AUTO 19007KT 1SM BR OVC003 13/12 A2983 RMK AO2 VIS 1/2V1 3/4 T01280117
KCEF 301558Z 35004KT 10SM FEW070 SCT180 BKN210 28/16 A3002 RMK AO2A SLP170 T02800156
KCEU 301554Z AUTO 00000KT 10SM SCT090 32/21 A3006 RMK AO2 SLP165 T03170206
KCEW 301553Z AUTO 00000KT 10SM CLR 32/23 A3008 RMK AO2 SLP180 T03220228
KCEY 301635Z AUTO 25008KT 10SM CLR 28/23 A3001 RMK AO1
KCEZ 301553Z AUTO 10SM CLR 26/07 A3018 RMK AO2 SLP129 T02610072
KCFD 301635Z AUTO 23007KT 10SM SCT033 31/23 A3005 RMK AO2 T03130231
KCFE 301634Z AUTO 14005KT 10SM SCT070 24/15 A3005 RMK AO2 T02360151
KCFJ 301635Z AUTO 29005KT 10SM BKN026 BKN035 25/20 A2997 RMK AO2 T02510200
KCFS 301635Z AUTO 06005KT 10SM CLR 21/18 A3003 RMK AO2 T02130180
KCFV 301552Z AUTO VRB03KT 10SM CLR 29/21 A3001 RMK AO2 SLP155 T02940211
KCGC 301635Z AUTO 00000KT 10SM CLR 27/23 A3009 RMK AO2 LTG DSNT N S AND NW
KCGE 301630Z AUTO 18003KT 10SM SCT065 SCT070 29/22 A3000 RMK AO1
KCGF 301645Z 36006KT 7SM -RA BKN025 BKN090 26/23 A2996
KCGI 301617Z 21003KT 10SM FEW009 26/22 A3000 RMK AO2 T02560217
KCGZ 301635Z AUTO 21004KT 10SM CLR 28/21 A2995 RMK AO1
KCHA 301553Z 00000KT 10SM SCT031 SCT100 BKN150 28/22 A3005 RMK AO2 SLP166 T02780217
KCHD 301647Z 17008KT 10SM SKC M/M A2989
KCHK 301635Z AUTO 11004KT 10SM CLR 32/24 A2998 RMK AO2
KCHO 301650Z 19010G17KT 140V220 10SM SCT028 31/22 A2997 RMK AO2
KCHS 301556Z 00000KT 10SM FEW040 FEW250 35/22 A3002 RMK AO2 SLP165 T03500222
KCIC 301552Z 00000KT 40SM SKC 28/12 A2978
KCID 301631Z 35004KT 10SM SCT019 BKN033 24/19 A3001 RMK AO2 T02440194
KCIN 301635Z AUTO 05005KT 10SM SCT025 SCT036 24/18 A3004 RMK AO2
KCIR 301635Z AUTO 00000KT 10SM OVC006 23/22 A3002 RMK AO2 T02320222
KCIU 301556Z AUTO VRB03KT 10SM SCT046 24/12 A3011 RMK AO2 SLP215 T02390122
KCJR 301635Z AUTO 17008KT 10SM SCT026 BKN034 OVC100 30/24 A2999 RMK AO2 LTG DSNT S T02990241
KCKB 301553Z 22010KT 10SM BKN029 BKN038 26/20 A3000 RMK AO2 LTG DSNT N SLP143 T02560200
KCKC 301634Z AUTO 00000KT 10SM CLR 21/11 A3012 RMK AO2
KCKF 301635Z AUTO 25006KT 10SM CLR 34/21 A3006 RMK AO2 T03420214
KCKI 301635Z AUTO 22005KT 10SM CLR 35/21 A3001 RMK AO2
KCKM 301655Z AUTO 25005KT 10SM CLR 30/26 A3002 RMK A01
KCKN 301635Z AUTO 19009KT 10SM SCT070 23/18 A2998 RMK AO2
KCKP 301635Z AUTO 00000KT 10SM SCT055 25/17 A3004 RMK AO2 T02470171
KCKV 301552Z AUTO VRB04KT 10SM SCT017 27/22 A3002 RMK AO2 SLP160 T02670217
KCKZ 301635Z AUTO 16004KT 10SM BKN029 BKN050 BKN070 28/22 A3001 RMK AO2
KCLE 301643Z 36009KT 5SM -RA SCT030 SCT041 OVC060 26/21 A2997 RMK AO2 RAB33 P0001 T02560211
KCLI 301635Z AUTO 11009KT 10SM CLR 24/11 A3007 RMK AO2
KCLK 301635Z AUTO 14006KT 26/20 A3001 RMK AO2 PWINO
KCLL 301553Z 26006KT 10SM SCT026 SCT033 31/23 A3003 RMK AO2 SLP164 T03110233
KCLM 301648Z AUTO 36007KT 10SM SCT017 16/11 A2994 RMK AO2
KCLS 301655Z AUTO VRB07KT 10SM BKN030 18/11 A3000 RMK AO2
KCLT 301552Z VRB04KT 10SM BKN100 29/22 A3004 RMK AO2 SLP163 T02890217
KCLW 301635Z AUTO 00000KT 10SM -DZ SCT047 SCT060 SCT070 25/23 A3008 RMK AO2 P0002
KCMA 301555Z 00000KT 10SM CLR 23/18 A2987 RMK AO2 SLP123 T02280178
KCMD 301635Z AUTO 30003KT 10SM SCT031 SCT037 SCT050 30/22 A3007 RMK AO2 LTG DSNT S AND W T02980217 PWINO
KCMH 301551Z 19005KT 10SM OVC023 26/21 A2996 RMK AO2 SLP139 T02560206
KCMI 301643Z 28007KT 10SM BKN014 OVC019 23/19 A3000 RMK AO2 T02330194
KCMR 301635Z AUTO 30007G13KT 10SM CLR 27/07 A3033 RMK AO2
KCMX 301553Z AUTO VRB04KT 10SM BKN042 22/13 A3009 RMK AO2 SLP189 T02220133
KCMY 301635Z AUTO 05006KT 10SM SCT060 25/17 A3005 RMK AO2 T02480165
KCNB 301635Z AUTO 00000KT 10SM CLR 25/12 A3004 RMK AO2 T02510124
KCNI 301635Z AUTO 00000KT 10SM SCT028 29/18 A3008 RMK AO2
KCNK 301555Z AUTO 12003KT 10SM SCT110 26/19 A3002 RMK AO2 SLP154 T02560194
KCNM 301553Z AUTO 11005KT 10SM CLR 28/16 A3007 RMK AO2 SLP122 T02830156
KCNO 301553Z 00000KT 6SM HZ BKN022 BKN150 25/18 A2990 RMK AO2 SLP120 T02500183
KCNU 301631Z AUTO 20006KT 10SM SCT026 28/22 A3003 RMK AO2 T02830222
KCNW 301155Z 18005KT 10SM SKC 25/23 A3002
KCNY 301553Z AUTO 08008KT 10SM SCT110 31/06 A3002 RMK AO2 SLP089 T03110056
KCOD 301555Z AUTO 10SM CLR RMK AO1
KCOE 301635Z AUTO 14011KT 080V160 10SM CLR 26/10 A2978 RMK AO1
KCOF 301558Z AUTO 02008KT 10SM CLR 30/24 A3007 RMK AO2 SLP187 T03040241 $
KCOM 301635Z AUTO 22006KT 10SM CLR 31/19 A3006 RMK AO2 T03120188
KCON 301551Z AUTO 34008KT 10SM CLR 27/11 A3005 RMK AO2 SLP174 T02670111
KCOQ 301635Z AUTO 00000KT 10SM CLR 22/14 A3007 RMK AO2
KCOS 301554Z VRB03KT 10SM FEW020 FEW240 20/14 A3015 RMK AO2 SLP126 T02000144
KCOT 301553Z AUTO VRB06KT 10SM FEW022 30/23 A3002 RMK AO2 SLP158 T03000228 $
KCOU 301554Z 29003KT 10SM SCT025 26/19 A3002 RMK AO2 SLP159 T02610194
KCPC 301640Z AUTO 22004KT 10SM CLR 35/22 A2999 RMK AO2 T03490216
KCPK 301635Z AUTO 11006KT 10SM SCT031 BKN036 BKN100 31/24 A2999 RMK AO2 LTG DSNT S AND NW T03050238
KCPR 301553Z 23011KT 10SM CLR 24/14 A3004 RMK AO2 SLP103 T02440139
KCPS 301553Z 30004KT 10SM SCT026 BKN031 29/17 A2998 RMK AO2 SLP149 T02890172
KCPT 301635Z AUTO 21006KT 8SM CLR 33/22 A3004 RMK AO2
KCPW 301641Z AUTO 21010KT 10SM CLR 13/04 A3066 RMK AO2
KCQB 301635Z AUTO 00000KT 10SM 23/22 A3001 RMK AO2 LTG DSNT NE
KCQC 301553Z AUTO 25013KT 10SM CLR 23/09 A3031 RMK AO2 SLP166 T02280094
KCQF 301635Z AUTO 30004KT 10SM SCT030 30/25 A3006 RMK AO2
KCQM 301635Z AUTO 00000KT 10SM CLR 22/12 A3006 RMK AO2
KCQT 301647Z AUTO 00000KT 10SM OVC027 27/19 A2987 RMK AO2 SLP110 T02720194
KCQW 301635Z AUTO 25008KT 10SM CLR 33/19 A2999 RMK AO2
KCQX 301552Z AUTO 06008KT 10SM FEW017 25/19 A3005 RMK AO2 SLP177 T02500189
KCRE 301553Z 29004KT 10SM CLR 36/22 A3000 RMK AO1 SLP159 T03560222
KCRG 301553Z 04005KT 10SM CLR 33/23 A3007 RMK AO2 SLP183 T03330228
KCRP 301551Z 16010KT 10SM SCT026 BKN250 33/24 A3001 RMK AO2 SLP159 CB DSNT S TCU DSNT NE T03280239
KCRQ 301553Z AUTO 20005KT 9SM CLR 22/18 A2989 RMK AO2 SLP117 T02220183
KCRS 301553Z AUTO 21010KT 10SM CLR 32/22 A3004 RMK AO2 SLP165 T03220217 TSNO
KCRW 301554Z 24007KT 10SM BKN020 OVC035 25/21 A3001 RMK AO2 SLP153 T02500206 $
KCSG 301551Z AUTO VRB05KT 10SM FEW038 SCT050 SCT110 32/21 A3006 RMK AO2 SLP173 T03220211
KCSM 301553Z AUTO 00000KT 10SM FEW070 FEW090 BKN110 27/21 A3003 RMK AO2 PRESRR SLP143 T02670211 $
KCSQ 301635Z AUTO 00000KT 10SM FEW022 SCT031 23/18 A3007 RMK AO2
KCSV 301553Z AUTO 24007KT 200V280 10SM SCT022 26/20 A3010 RMK AO2 SLP168 T02610200
KCTB 301556Z AUTO 35014KT 10SM CLR 24/10 A2984 RMK AO2 SLP068 T02390100 $
KCTJ 301635Z AUTO 35005KT 5SM -RA SCT028 BKN038 BKN055 26/26 A3011 RMK AO2 T02610256
KCTY 301553Z AUTO 33005KT 33/22 A3007 RMK AO1 SLP181 T03280222
KCTZ 301640Z AUTO 21008KT 180V240 10SM CLR 35/23 A2998 RMK AO2 T03470232
KCUB 301553Z AUTO 25011KT 10SM CLR 36/20 A3002 RMK AO2 SLP162 T03560200
KCUH 301635Z AUTO 06007KT 10SM SCT008 SCT047 SCT055 23/22 A2999 RMK AO2 LTG DSNT N THRU E T02300220
KCUL 301635Z AUTO 31003KT 10SM SCT022 SCT034 27/23 A2999 RMK AO2 T02730228
KCUT 301553Z AUTO VRB05KT 10SM CLR 24/10 A3007 RMK AO2 SLP112 T02440100
KCVB 301635Z AUTO 18007KT 10SM SCT032 SCT039 31/20 A3006 RMK AO2 T03090196
KCVC 301635Z AUTO 31004KT 10SM SCT040 BKN046 BKN085 33/22 A3005 RMK AO2 LTG DSNT E
KCVG 301552Z VRB03KT 10SM FEW015 SCT025 BKN045 BKN150 27/22 A3000 RMK AO2 SLP147 T02670217
KCVH 301630Z AUTO 23003KT 10SM CLR 18/14 A2986 RMK AO1
KCVN 301635Z AUTO 20012KT 10SM CLR 27/16 A3015 RMK AO1
KCVO 301635Z 31008KT 10SM 19/11 A3002 RMK AO1
KCVS 301558Z AUTO 20012G16KT 10SM CLR 26/17 A3016 RMK AO2 SLP149 T02600170 $
KCVX 301635Z AUTO 06009KT 10SM BKN050 25/12 A3010 RMK AO2 T02460119
KCWA 301645Z 07006KT 10SM SCT032 23/17 A3008
KCWC 301635Z AUTO 26006KT 10SM CLR 34/17 A3000 RMK AO2 T03370170
KCWF 301550Z VRB03KT 10SM SCT029 30/24 A3003
KCWI 301622Z AUTO VRB04KT 10SM BKN015 BKN021 OVC050 24/20 A3001 RMK AO2 PNO $
KCWN 301558Z AUTO 14006KT 10SM CLR 20/15 A3013 RMK AO2 SLP020 T01970148 $
KCWV 301635Z AUTO 23006KT 7SM CLR 35/23 A3004 RMK AO2 T03470229
KCXE 301635Z AUTO 00000KT 10SM BKN085 BKN120 29/27 A2999 RMK AO1 P0001 T02910265
KCXO 301553Z 24006KT 10SM SCT026 BKN045 31/23 A3004 RMK AO2 SLP169 T03060233 $
KCXP 301635Z AUTO 00000KT 10SM CLR 27/05 A3008 RMK AO2
KCXY 301643Z 16008KT 120V190 1 3/4SM R08/3500VP6000FT +RA FEW015 BKN060 OVC110 26/22 A2997 RMK AO2 VIS 3/4V3 RAE1557B32 P0008 T02610217
KCYS 301553Z 00000KT 8SM SCT009 19/15 A3012 RMK AO2 SLP122 T01940150
KCZL 301635Z AUTO 24003KT 10SM CLR 29/22 A3005 RMK AO2 T02870220
KCZT 301635Z AUTO 17006KT 10SM BKN025 BKN030 30/22 A3001 RMK AO2
KCZZ 301552Z AUTO 07016KT 28/21 A2996 RMK AO1 SLP104 T02830206
KD07 301556Z AUTO 15011KT 25/16 A2991 RMK AO1 SLP113 T02500156
KD25 301635Z AUTO 00000KT 10SM SCT055 SCT070 22/14 A3010 RMK AO2 T02210136
KD39 301633Z AUTO 13004KT 10SM CLR 23/14 A3005 RMK AO2 T02310137
KD50 301635Z AUTO 17006KT 10SM CLR 24/17 A2990 RMK AO2
KD55 301655Z AUTO 15008KT 10SM CLR 25/19 A2993 RMK AO2
KD57 301635Z AUTO 16008KT 10SM CLR 25/16 A2989 RMK AO2
KD60 301635Z AUTO 21005KT 10SM SCT034 24/17 A2994 RMK AO2
KD95 301633Z AUTO 00000KT 10SM BKN021 OVC027 19/17 A3003 RMK AO2 T01940167
KDAA 301637Z AUTO 19009G16KT 10SM SCT018 SCT024 SCT029 29/23 A2998 RMK AO2 DZB10E12RAB12E22
KDAB 301553Z 07008KT 10SM FEW040TCU FEW100 FEW250 34/23 A3007 RMK AO2 SLP183 TCU NW CB DSNT SW-NW TCU DSNT S T03390233 $
KDAG 301650Z AUTO 06010KT 8SM OVC020 36/16 A2987 RMK AO2 PK WND 17026/1553 WSHFT 1602 SLP080 T03610161
KDAL 301553Z 27007KT 10SM FEW300 32/22 A3000 RMK AO2 SLP151 T03220222
KDAN 301553Z AUTO VRB05KT 10SM FEW090 29/23 A3000 RMK AO2 SLP147 T02940228
KDAW 301551Z AUTO VRB03KT 10SM CLR 26/13 A3003 RMK AO2 SLP166 T02560133 TSNO
KDAY 301556Z 22007KT 10SM BKN017 BKN030 26/21 A2999 RMK AO2 SLP149 T02610211 $
KDBN 301635Z AUTO 30006KT 10SM BKN043 BKN050 33/21 A3006 RMK AO2
KDBQ 301607Z 05006KT 10SM BKN012 BKN017 23/19 A3002 RMK AO2 T02280194
KDCA 301648Z 23012KT 2 1/2SM R01/6000VP6000FT +RA SCT036CB BKN055 BKN075 BKN250 28/23 A2998 RMK AO2 RAB38 CB W-E MOV NE VIS SE-SW 6 P0002
KDCM 301635Z AUTO 28003KT 10SM CLR 31/20 A3003 RMK AO2
KDCU 301646Z AUTO 28006KT 10SM TS CLR 31/22 A3004 RMK AO2 LTG DSNT S AND SW TSB40 T03060217
KDCY 301635Z AUTO 10SM SCT026 BKN038 27/22 A2998 RMK AO2 T02700216
KDDC 301552Z AUTO 17012KT 10SM CLR 26/19 A3002 RMK AO2 SLP134 T02610194
KDDH 301554Z AUTO 02003KT 10SM CLR 24/14 A3007 RMK AO2 SLP177 T02440144 TSNO
KDEC 301554Z 29007KT 10SM SCT019 SCT028 24/18 A2999 RMK AO2 SLP150 T02390183
KDEH 301635Z AUTO 08005KT 10SM FEW019 BKN025 BKN035 23/19 A3004 RMK AO2
KDEN 301553Z 01008KT 10SM FEW008 FEW120 23/15 A3007 RMK AO2 SLP099 HZ ALQDS T02280150
KDEQ 301553Z AUTO 00000KT 10SM CLR 28/23 A3000 RMK AO2 SLP155 T02780233 PNO $
KDET 301553Z 05005KT 10SM OVC018 22/18 A3000 RMK AO2 SLP155 T02170183
KDEW 301553Z AUTO 16009KT 10SM CLR 23/09 A2979 RMK AO2 SLP072 T02280094
KDFI 301640Z AUTO 33006KT 10SM SCT014 BKN025 26/20 A2997 RMK AO2 T02560200
KDFW 301553Z 24011KT 10SM FEW300 33/21 A3000 RMK AO2 SLP147 T03280211
KDGW 301553Z AUTO VRB03KT 10SM CLR 23/13 A3004 RMK AO2 SLP115 T02330133
KDHN 301553Z 30007KT 10SM FEW029 32/23 A3011 RMK AO2 SLP188 T03170228
KDHT 301553Z AUTO 21018G21KT 10SM CLR 26/16 A3011 RMK AO2 SLP141 T02610156
KDIJ 301556Z AUTO 20009KT 10SM CLR 26/03 A3012 RMK AO2 SLP120 T02560028
KDIK 301556Z AUTO 00000KT 10SM CLR 24/13 A2990 RMK AO2 SLP108 T02390128 $
KDKB 301635Z AUTO 06009KT 10SM BKN020 OVC028 23/19 A3001 RMK AO2 T02270191
KDKK 301553Z AUTO 08009KT 10SM CLR 22/17 A3002 RMK AO2 SLP161 T02220172
KDKR 301630Z AUTO 27007KT 10SM FEW031 32/23 A3007 RMK AO2
KDLF 301558Z AUTO 18010KT 10SM CLR 29/22 A3002 RMK AO2 SLP151 T02920218 $
KDLH 301555Z 13005KT 10SM FEW025 FEW100 21/16 A3007 RMK AO2 SLP186 T02060156
KDLL 301630Z AUTO 07008KT 10SM SCT110 23/14 A3004 RMK AO2 T02320141
KDLN 301553Z AUTO 00000KT 10SM CLR 21/08 A2999 RMK AO2 SLP099 T02110083
KDLS 301553Z AUTO 31018G27KT 10SM CLR 24/09 A2982 RMK AO2 PK WND 31027/1551 SLP097 T02390089
KDLZ 301637Z AUTO 22004KT 10SM SCT030 SCT043 BKN070 26/19 A2997 RMK AO2
KDMA 301558Z AUTO 28004KT 10SM CLR 27/20 A3002 RMK AO2 SLP125 T02690196 $
KDMH 301554Z AUTO 31/21 A2999 RMK AO1 SLP155 T03060206
KDMN 301553Z AUTO 11005KT 10SM CLR 29/13 A3011 RMK AO2 SLP107 T02890133 TSNO
KDMO 301553Z AUTO VRB03KT 10SM FEW048 26/19 A3005 RMK AO2 SLP168 T02610194
KDNL 301553Z AUTO 25005KT 10SM FEW043 SCT050 BKN090 33/21 A3005 RMK AO2 SLP167 T03330211
KDNN 301635Z AUTO 00000KT 10SM CLR 27/23 A3005 RMK AO2
KDNS 301635Z AUTO 00000KT 10SM FEW025 23/18 A3003 RMK AO2
KDNV 301635Z AUTO 31005KT 5SM HZ SCT022 BKN027 25/21 A2996 RMK AO2 T02490205
KDOV 301558Z AUTO 10009KT 10SM FEW140 29/28 A2999 RMK AO2 SLP159 T02910280 VISNO RWY19 CHINO RWY19 $
KDPA 301552Z 03012KT 10SM OVC021 23/18 A2998 RMK AO2 SLP149 T02280183
KDQH 301635Z AUTO 23005KT 10SM SCT044 33/20 A3007 RMK AO2
KDRA 301553Z AUTO 16005KT 5SM HZ OVC031 32/13 A2997 RMK AO2 SLP087 T03170128
KDRI 301635Z AUTO 34003KT 10SM SCT029 SCT034 31/22 A3007 RMK AO2 T03110221
KDRM 301634Z AUTO 18003KT 10SM SCT060 23/14 A3011 RMK AO2 T02250140
KDRO 301553Z AUTO 12007KT 10SM CLR 23/06 A3025 RMK AO2 SLP139 T02330056
KDRT 301553Z AUTO 14012KT 10SM CLR 29/21 A3001 RMK AO2 SLP143 T02890206
KDSM 301554Z 35005KT 10SM FEW012 SCT017 BKN050 OVC250 24/18 A3003 RMK AO2 SLP162 T02440183
KDSV 301620Z AUTO 00000KT 10SM FEW008 SCT050 21/18 A3006 RMK AO2 T02060178
KDTA 301635Z AUTO 17010KT 10SM CLR 30/04 A3004 RMK AO1
KDTL 301634Z AUTO 14007KT 10SM SCT065 22/17 A3003 RMK AO2
KDTN 301553Z 24009KT 10SM CLR 32/23 A3002 RMK AO2 SLP164 T03170228
KDTO 301553Z 21007KT 10SM FEW080 32/22 A3000 RMK AO2 SLP149 T03170222
KDTS 301553Z AUTO 00000KT 10SM FEW035 34/26 A3006 RMK AO2 SLP177 T03440256 TSNO
KDTW 301553Z 01010KT 9SM -RA BKN019 OVC050 23/18 A3000 RMK AO2 RAE07B50 SLP154 CB DSNT NW MOV NE P0000 T02280183
KDUA 301635Z AUTO 23011G16KT 10SM CLR 33/21 A3000 RMK AO2
KDUB 301635Z AUTO 28015G28KT 10SM CLR 25/00 A3013 RMK AO2
KDUC 301635Z AUTO 15003KT CLR 33/21 A2999 RMK AO2 PWINO TSNO
KDUG 301556Z AUTO 20006KT 10SM CLR 24/17 A3011 RMK AO2 SLP124 T02440172
KDUH 301634Z AUTO 02005KT 10SM SCT015 BKN021 OVC049 25/21 A2997 RMK AO2 T02530212
KDUJ 301619Z AUTO 04004KT 3SM -RA BR OVC011 19/18 A3004 RMK AO2 RAB1554 P0013 T01940178
KDUX 301635Z AUTO 21016G22KT 10SM CLR 27/16 A3010 RMK AO2 T02720162
KDVK 301635Z AUTO 32004KT 10SM SCT026 SCT040 BKN048 27/21 A3003 RMK AO2
KDVL 301556Z AUTO 22009KT 10SM SCT060 SCT100 23/17 A2993 RMK AO2 SLP144 T02330167
KDVN 301552Z AUTO 08003KT 10SM SCT013 BKN018 OVC047 23/19 A3000 RMK AO2 SLP156 T02280194
KDVO 301635Z AUTO VRB05KT 10SM CLR 17/12 A2984 RMK AO2
KDVP 301634Z AUTO 20003KT 10SM CLR 23/10 A3006 RMK AO2 T02280103
KDVT 301553Z AUTO 19004KT 10SM CLR 31/16 A2991 RMK AO2 SLP102 T03110161
KDWH 301553Z COR VRB03KT 10SM SCT028 32/24 A3003 RMK AO2 SLP167 T03170244
KDWU 301635Z AUTO 32003KT 10SM FEW027 SCT048 SCT060 28/24 A2997 RMK AO1
KDWX 301635Z AUTO 00000KT 10SM CLR 24/02 A3019 RMK AO2 T02430017
KDXR 301553Z VRB03KT 10SM CLR 26/19 A3005 RMK AO2 SLP171 T02610189
KDXX 301633Z AUTO 17003KT 10SM CLR 24/13 A3002 RMK AO2
KDYA 301655Z AUTO 25006KT 7SM 33/20 A3004 RMK AO2 T03280202
KDYB 301655Z AUTO 19006KT 10SM SCT060 36/21 A3003 RMK AO1
KDYL 301612Z AUTO 00000KT 10SM SCT022 BKN030 BKN055 27/24 A2999 RMK AO2 T02720239
KDYR 301635Z AUTO 00000KT 10SM BKN024 28/22 A3001 RMK AO1
KDYS 301558Z AUTO 18009KT 10SM CLR 31/20 A3003 RMK AO2 SLP119 T03130204 $
KDYT 301633Z AUTO 04004KT 10SM CLR 19/16 A3008 RMK AO2
KDZB 301635Z AUTO 17004KT 10SM SCT038 32/21 A3005 RMK AO2 T03160206
KDZJ 301635Z AUTO 10SM A3011 RMK AO2
KE11 301635Z AUTO 18010KT 10SM CLR 30/16 A3010 RMK AO2 T02980155
KE38 301635Z AUTO 22010KT 10SM BKN048 28/14 A3021 RMK AO2 T02780144
KE80 301635Z AUTO 21008KT 10SM CLR 28/08 A3017 RMK AO2 T02810080
KEAN 301635Z AUTO 18004KT 10SM CLR 27/15 A3002 RMK AO2 T02680145
KEAR 301635Z AUTO 11008KT 10SM FEW042 23/18 A3004 RMK AO1
KEAT 301555Z AUTO 31014KT 10SM CLR 27/11 A2976 RMK AO2 SLP064 T02720111
KEAU 301556Z 03005KT 10SM CLR 24/13 A3004 RMK AO2 SLP169 T02440133
KEBA 301635Z AUTO 16005KT 10SM VCTS SCT090 31/28 A3006 RMK AO2 LTG DSNT E T03110279
KEBG 301635Z AUTO 15011G15KT 10SM CLR 36/21 A3001 RMK AO2 LTG DSNT W T03560207
KECG 301554Z 10007KT 10SM CLR 32/22 A3000 RMK AO2 SLP158 T03170222
KECP 301617Z 13004KT 5SM TSRA SCT018 BKN037 26/24 A3007 RMK AO2 LTG DSNT E AND NW RAB1555 TSB14 P0010 T02610239
KECS 301635Z AUTO 15006KT 10SM CLR 25/12 A2999 RMK AO2
KECU 301630Z AUTO 16007KT 10SM CLR 29/19 A3012 RMK AO2
KEDC 301635Z AUTO 21009KT 9SM 31/23 A3005 RMK AO2
KEDE 301640Z AUTO 08006KT 7SM SCT031 SCT100 33/23 A2998 RMK AO2 T03250232
KEDJ 301630Z AUTO 24006KT 10SM FEW019 SCT026 26/20 A2999 RMK AO1
KEDN 301635Z AUTO 30003KT 10SM SCT029 SCT036 BKN046 30/24 A3006 RMK AO2 LTG DSNT N
KEDW 301558Z 23005KT 40SM FEW170 31/07 A2990 RMK AO2A SLP094 T03130069
KEED 301625Z AUTO 04009G18KT 10SM CLR 35/18 A2983 RMK AO2 WSHFT 1605 T03500183 $
KEEN 301556Z AUTO VRB05KT 10SM CLR 25/14 A3006 RMK AO2 SLP192 T02500144
KEEO 301553Z AUTO VRB03KT 10SM CLR 23/03 A3019 RMK AO2 SLP125 T02330033
KEET 301553Z AUTO VRB03KT 10SM SCT029 BKN041 BKN060 30/23 A3006 RMK AO2 SLP172 T03000228
KEFD 301350Z 21005KT 10SM FEW018 29/25 A3002
KEFK 301635Z AUTO 00000KT 10SM SCT037 22/13 A3010 RMK AO2 T02160129
KEFT 301635Z AUTO 06008KT 10SM SCT021 23/17 A3002 RMK AO2
KEGE 301550Z 00000KT 10SM CLR 22/03 A3023
KEGI 301558Z AUTO 35005KT 10SM CLR 31/23 A3006 RMK AO2 LTG DSNT SE SLP180 T03140231 $
KEGV 301635Z AUTO 09012G15KT 10SM CLR 23/11 A3010 RMK AO2 T02340106
KEHA 301648Z AUTO 20017KT 28/15 RMK AO1 PK WND 25 000 T02780151
KEHO 301640Z AUTO 19005KT 10SM SCT030 SCT037 SCT120 30/22 A3004 RMK AO2 T02960218
KEHR 301635Z AUTO 26004KT 10SM SCT021 BKN029 28/21 A2998 RMK AO1
KEHY 301635Z AUTO 10SM TS CLR 25/04 A3018 RMK AO2
KEIK 301635Z AUTO 36005KT 10SM CLR 24/16 A3006 RMK AO2 T02380156
KEKM 301650Z 11005KT 7SM SCT016 SCT034 23/18 A2999 RMK AO2
KEKN 301551Z AUTO 29007KT 10SM FEW033 BKN046 26/18 A3005 RMK AO2 SLP164 T02610178 TSNO $
KEKO 301556Z AUTO 21004KT 10SM CLR 26/08 A3004 RMK AO2 SLP100 T02610083
KEKQ 301556Z AUTO 26011KT 250V020 10SM SCT011 OVC020 A3006 RMK AO2 SLPNO $
KELA 301635Z AUTO 21006KT 10SM SCT031 31/24 A3003 RMK AO2 T03130240
KELD 301553Z AUTO 23006KT 10SM CLR 30/24 A3004 RMK AO2 SLP168 T03000244
KELK 301635Z AUTO 21006KT 10SM CLR 25/20 A3003 RMK AO2 T02510204
KELM 301553Z 02007KT 10SM OVC050 21/17 A3005 RMK AO2 RAB12E52 SLP171 P0000 T02110172
KELN 301553Z AUTO 31020G26KT 10SM CLR 24/13 A2981 RMK AO2 PK WND 31027/1506 SLP078 T02440128
KELO 301633Z AUTO 17005KT 10SM BKN045 23/12 A3007 RMK AO2
KELP 301551Z 15004KT 10SM FEW200 SCT250 BKN300 28/16 A3009 RMK AO2 SLP112 T02780156
KELY 301553Z AUTO 18004KT 10SM CLR 22/09 A3018 RMK AO2 SLP111 T02220089
KELZ 301556Z AUTO 06006KT 7SM -RA SCT027 BKN060 OVC075 19/17 A3010 RMK AO2 SLP182 P0002 T01940172
KEMM 301635Z AUTO 00000KT 10SM 26/00 A3021 RMK AO2
KEMP 301553Z AUTO 14007KT 10SM CLR 26/20 A3003 RMK AO2 SLP160 T02610200
KEMT 301645Z 25004KT 7SM BKN020 25/19 A2989 RMK FU ALQDS
KEMV 301635Z AUTO 05006KT 7SM SCT024 BKN044 OVC070 26/24 A2998 RMK AO2 P0006 LTG DSNT W THRU N
KEND 301558Z AUTO 03008KT 10SM FEW160 25/22 A2998 RMK AO2 LTG DSNT NE SLP142 T02530220 $
KENL 301635Z AUTO 29005KT 10SM SCT031 SCT037 BKN050 27/21 A2999 RMK AO2 T02680209
KENV 301635Z AUTO 06010KT 10SM CLR 29/06 A2998 RMK AO1
KENW 301553Z 04007KT 10SM BKN018 BKN026 23/18 A3001 RMK AO2 SLP160 T02330183
KEOE 301635Z AUTO 31003KT 10SM BKN041 BKN049 32/23 A3005 RMK AO2 LTG DSNT W
KEOK 301635Z AUTO 00000KT 10SM FEW023 SCT030 25/20 A3000 RMK AO2
KEPH 301553Z AUTO 22006KT 10SM CLR 29/07 A2975 RMK AO2 SLP059 T02890067
KEQA 301635Z AUTO 20007KT 10SM CLR 27/21 A3003 RMK AO2
KEQY 301553Z AUTO 28008KT 10SM FEW032 BKN100 32/22 A3002 RMK AO2 SLP159 T03170217 TSNO
KERI 301551Z 08008KT 10SM OVC085 26/19 A2998 RMK AO2 SLP145 T02560189
KERV 301635Z AUTO 17010KT 10SM SCT031 29/21 A3008 RMK AO2 T02920205
KERY 301625Z AUTO 03003KT 10SM BKN060 25/10 A3010 RMK AO2
KESC 301635Z AUTO 15008KT 10SM CLR 24/13 A3009 RMK AO1
KESF 301553Z AUTO 24004KT 10SM CLR 31/24 A3005 RMK AO2 SLP172 T03110244
KESN 301645Z 16008KT 10SM BKN037 BKN044 31/25 A3003
KEST 301552Z AUTO 00000KT 10SM CLR 23/14 A3005 RMK AO2 SLP171 T02280144
KETB 301630Z AUTO 08011G15KT 10SM CLR 23/15 A3004 RMK AO2
KETC 301640Z AUTO 16004KT 10SM SCT080 32/26 A2998 RMK AO2 T03160262
KETH 301637Z AUTO 15008G15KT 10SM SCT065 26/16 A3003 RMK AO2
KEUF 301558Z AUTO 01004KT 10SM SCT032 SCT043 33/23 A3006 RMK AO2 SLP173 T03280233 $
KEUG 301554Z 36009KT 10SM CLR 19/11 A3001 RMK AO2 SLP158 T01890106
KEUL 301556Z AUTO 30004KT 10SM CLR 27/12 A2984 RMK AO2 SLP077 T02670122
KEVB 301547Z 09007KT 10SM SCT025 32/23 A3009
KEVM 301632Z AUTO 19003KT 10SM CLR 23/12 A3008 RMK AO2 T02270116
KEVV 301610Z VRB04KT 10SM SCT024 SCT031 28/22 A2998 RMK AO2 T02780217
KEVW 301553Z AUTO VRB06KT 10SM CLR 25/01 A3020 RMK AO2 SLP107 T02500011
KEWB 301553Z 05007KT 10SM CLR 28/18 A3003 RMK AO2 SLP167 T02830178
KEWK 301556Z AUTO 15007KT 10SM CLR 27/20 A3003 RMK AO2 SLP152 T02670200
KEWN 301554Z 20004KT 10SM CLR 33/25 A3000 RMK AO2 SLP157 T03330250
KEWR 301551Z VRB04KT 7SM SCT030 BKN100 BKN260 29/22 A3000 RMK AO2 SLP157 T02890217
KEXX 301635Z AUTO 30003KT 10SM CLR 30/21 A3001 RMK AO2 T03030214
KEYE 301553Z AUTO 26006KT 10SM CLR 27/17 A2996 RMK AO2 SLP138 T02720172
KEYF 301640Z AUTO 21010KT 10SM CLR 36/21 A2999 RMK AO2 T03570209
KEYW 301553Z 11005KT 10SM BKN031 BKN039 31/24 A3008 RMK AO2 SLP185 T03110244
KEZF 301635Z AUTO 14007KT 10SM SCT050 SCT060 SCT090 28/25 A2998 RMK AO2 T02750245
KEZM 301635Z AUTO 32004KT 10SM BKN041 34/14 A3007 RMK AO2 T03410138
KEZS 301635Z AUTO 09008KT 10SM CLR 25/14 A3008 RMK AO2 T02490140
KF05 301635Z AUTO 22007KT 10SM CLR 33/15 A3000 RMK AO1 T03310154
KF17 301635Z AUTO 27005KT 10SM CLR 32/24 A3005 RMK AO2 T03200239
KF44 301635Z AUTO 24005KT 10SM CLR 31/22 A3002 RMK AO2
KF46 301635Z AUTO 24005G15KT 10SM CLR 33/23 A3000 RMK AO2 T03270233
KF70 301635Z AUTO 21005KT 10SM CLR 29/16 A2990 RMK AO1
KFAF 301558Z AUTO 18008KT 10SM FEW140 31/24 A2998 RMK AO2 SLP155 T03120235
KFAM 301556Z AUTO 28006KT 10SM SCT038 27/20 A3003 RMK AO2 SLP188 T02670200
KFAR 301553Z 20008KT 10SM BKN080 BKN110 24/17 A2998 RMK AO2 SLP148 T02440167
KFAT 301553Z 13006KT 10SM CLR 30/14 A2978 RMK AO2 SLP077 T03000139
KFAY 301553Z AUTO 21011G15KT 10SM FEW110 34/21 A2998 RMK AO2 SLP145 T03440211
KFBG 301557Z AUTO 25010KT 10SM FEW120 SCT140 33/22 A2998 RMK AO2 RAE56
KFBL 301634Z AUTO 00000KT 10SM SCT022 SCT027 BKN033 24/19 A3005 RMK AO2
KFBR 301635Z AUTO 27003KT 10SM CLR 26/00 A3022 RMK AO2 T02620004
KFCI 301635Z AUTO 07004KT 3SM TS BKN013 BKN032 OVC055 24/17 A3002 RMK AO1 LTG DSNT E TSB05 P0046
KFCM 301555Z 16006KT 10SM SCT018 BKN060 BKN080 24/18 A3003 RMK AO2 T02390178
KFCS 301558Z AUTO VRB01KT 10SM CLR 21/16 A3011 RMK AO2 SLP139 T02050155 $
KFDK 301625Z COR 19005KT 2 1/2SM TSRA BKN032 BKN046 OVC090 28/24 A2999 RMK LTG DSNT SE NW
KFDR 301553Z AUTO A2996 RMK AO2 SLPNO PWINO TSNO $
KFDW 301655Z AUTO 30004KT 10SM CLR 32/21 A3002 RMK AO1
KFDY 301633Z AUTO 25007KT 10SM BKN020 28/20 A2995 RMK AO2 T02780200
KFEP 301635Z AUTO 05006KT 10SM OVC019 22/19 A3002 RMK AO2 T02230185
KFET 301635Z AUTO 12006KT 10SM SCT060 21/17 A3004 RMK AO2 LTG DSNT S T02080173
KFEW 301558Z AUTO 11003KT 9SM FEW011 20/15 A3013 RMK AO2 SLP132 T01970153 $
KFFA 301640Z AUTO 10009KT 10SM CLR 32/26 A3000 RMK AO2 T03220258
KFFC 301553Z AUTO VRB03KT 10SM SCT028 SCT035 30/23 A3008 RMK AO2 SLP178 T03000228
KFFL 301635Z AUTO 31004KT 10SM FEW042 SCT050 OVC065 23/19 A3002 RMK AO2 PWINO
KFFM 301635Z AUTO 16011KT 10SM BKN060 23/16 A3003 RMK AO2
KFFO 301558Z VRB03KT 10SM SCT014 BKN019 BKN200 26/22 A2998 RMK AO2A SLP149 T02560223
KFFT 301637Z AUTO 22006KT 10SM SCT022 BKN033 BKN042 27/22 A3000 RMK AO2 T02670217
KFFX 301632Z AUTO 07004KT 10SM SCT070 OVC080 22/18 A3002 RMK AO2 T02210183
KFFZ 301555Z 05008KT 40SM SCT080 BKN200 A2989
KFGN 301634Z AUTO 16008KT 10SM SCT044 23/17 A2997 RMK AO2
KFGX 301635Z AUTO 31003KT 10SM BKN018 BKN025 26/21 A3002 RMK AO2 T02590214
KFHB 301635Z AUTO 13005KT 10SM SCT040 SCT048 SCT110 34/23 A3005 RMK AO1
KFHR 301553Z AUTO 10005KT 9SM FEW070 16/11 A2995 RMK AO2 SLP142 T01560111
KFHU 301558Z AUTO VRB03KT 10SM CLR 25/14 A3015 RMK AO2 SLP137 T02530139
KFIG 301554Z AUTO 03003KT 10SM -RA FEW075 OVC100 19/17 A3003 RMK AO2 SLP162 P0002 T01940172
KFIN 301350Z 24003KT 10SM SCT036 29/24 A3008
KFIT 301552Z AUTO VRB05KT 10SM FEW060 28/13 A3004 RMK AO2 SLP172 T02780128
KFKA 301633Z AUTO 00000KT 10SM SCT024 BKN070 23/16 A3006 RMK AO2 T02250159
KFKL 301635Z AUTO 09004KT 10SM BKN004 OVC008 19/18 A3003 RMK AO1
KFKN 301635Z AUTO 11006KT 10SM SCT120 31/24 A2998 RMK AO2 LTG DSNT N S AND NW T03100236
KFKS 301632Z AUTO 04007KT 10SM CLR 25/12 A3005 RMK AO2 T02460124
KFLD 301553Z AUTO 06010KT 10SM CLR 24/16 A3005 RMK AO2 SLP170 T02390161
KFLG 301557Z 23006KT 10SM CLR 22/12 A3026 RMK AO2 SLP132 T02220117
KFLL 301553Z 12008KT 10SM FEW047 SCT250 33/22 A3006 RMK AO2 SLP180 T03280217
KFLO 301553Z 23012KT 10SM CLR 34/22 A3001 RMK AO2 SLP158 T03390222
KFLP 301635Z AUTO 11004KT 10SM SCT017 28/22 A3001 RMK AO1
KFLY 301555Z AUTO 25007KT 10SM CLR 22/14 A3018 RMK AO2 T02190143
KFME 301630Z AUTO 16006KT 10SM SCT033 28/21 A2999 RMK AO1
KFMH 301555Z 04010KT 10SM SKC 24/18 A3005
KFMM 301635Z AUTO 12006KT 10SM CLR 25/15 A3003 RMK AO2 T02510147
KFMN 301553Z 11007KT 10SM CLR 26/07 A3014 RMK AO2 SLP131 T02560067
KFMY 301602Z 31006KT 10SM SCT028 BKN055 OVC080 29/25 A3007 RMK AO2 T02940250 $
KFNB 301553Z AUTO 14003KT 10SM CLR 24/19 A3003 RMK AO2 SLP162 T02440189
KFNL 301635Z AUTO 02005KT 10SM CLR 12/ A3005 RMK AO1
KFNT 301616Z 08008KT 10SM FEW009 BKN038 OVC070 21/18 A3002 RMK AO2 LTG DSNT SE RAB1558E13 P0000 T02110183
KFOA 301635Z AUTO 00000KT 10SM BKN035 BKN050 27/21 A2999 RMK AO2 T02700208
KFOD 301635Z AUTO 00000KT 10SM OVC080 22/18 A3005 RMK AO1
KFOE 301553Z 10006KT 10SM BKN031 BKN080 26/19 A3004 RMK AO2 SLP161 T02610189
KFOK 301553Z 13007KT 10SM CLR 27/21 A3005 RMK AO2 SLP174 T02670211
KFOZ 301632Z AUTO 17004KT 10SM CLR 24/15 A3004 RMK AO2
KFPK 301635Z AUTO 05004KT 7SM -RA BKN009 OVC012 20/18 A3000 RMK AO2 P0001 T01970179
KFPR 301553Z 29003KT 10SM SCT036 32/23 A3007 RMK AO2 SLP181 T03220228
KFQD 301640Z AUTO 00000KT 10SM 29/21 A3005 RMK AO2 T02850213
KFRG 301553Z 12004KT 10SM FEW026 SCT031 29/22 A3001 RMK AO2 SLP162 T02890217
KFRI 301558Z AUTO 13007KT 090V160 10SM CLR 27/20 A3001 RMK AO2 SLP152 T02700203
KFRM 301635Z AUTO 18003KT 10SM CLR 23/11 A3004 RMK AO1
KFRR 301635Z AUTO 14009KT 10SM SCT037 SCT046 BKN060 30/23 A2996 RMK AO1
KFSD 301556Z 20008KT 10SM SCT027 23/17 A3003 RMK AO2 SLP162 T02330167
KFSE 301635Z AUTO 12005KT 10SM SCT065 SCT095 20/19 A3002 RMK AO2
KFSI 301558Z AUTO 16005KT 10SM FEW180 30/22 A2997 RMK AO2 SLP139 T02980223
KFSM 301553Z VRB03KT 10SM SCT060 29/21 A3000 RMK AO2 SLP153 T02940206
KFSO 301635Z AUTO 31004KT 10SM CLR 23/14 A3009 RMK AO2 T02340141
KFST 301553Z AUTO 13007KT 10SM CLR 28/18 A3007 RMK AO2 SLP132 T02830183 $
KFTG 301552Z 36004KT 10SM FEW008 FEW120 24/15 A3008
KFTK 301608Z AUTO VRB04KT 10SM SCT019 SCT026 BKN034 27/21 A2999 RMK AO2
KFTW 301553Z 24009KT 10SM CLR 33/21 A3000 RMK AO2 SLP148 T03330206
KFTY 301646Z 32016G22KT 1/2SM TSRA FEW009 BKN037 BKN055 26/21 A3008 RMK AO2 LTG DSNT N AND W RAB1559E16B42 TSB37 PRESRR P0042 T02560211
KFUL 301553Z 20005KT 10SM CLR 25/19 A2987 RMK AO2 SLP113 T02500189 $
KFVE 301553Z AUTO 30008KT 10SM BKN039 BKN065 21/11 A3000 RMK AO2 SLP154 T02060111
KFVX 301635Z AUTO 13004KT 10SM SCT018 SCT050 BKN110 29/24 A2998 RMK AO2 LTG DSNT E AND SE T02930239
KFWA 301554Z 36005KT 8SM FEW014 OVC024 24/20 A2998 RMK AO2 SLP146 T02440200 $
KFWB 301635Z AUTO 31004KT 10SM BKN023 BKN041 27/22 A3005 RMK AO2
KFWC 301635Z AUTO 00000KT 10SM SCT027 BKN034 BKN044 27/21 A2999 RMK AO1 T02680208
KFWN 301553Z AUTO 36004KT 10SM SCT090 26/20 A3003 RMK AO2 SLP165 T02560200
KFWS 301547Z 20006KT 10SM CLR 33/21 A3003
KFXE 301553Z VRB05KT 10SM SCT030 32/21 A3006 RMK AO2 SLP183 T03170211
KFXY 301635Z AUTO 11004KT 10SM SCT020 SCT025 BKN060 22/17 A3004 RMK AO2
KFYG 301635Z AUTO 31005KT 10SM CLR 27/20 A3000 RMK AO2
KFYJ 301635Z AUTO 14005KT 10SM SCT033 SCT075 BKN110 31/22 A3000 RMK AO2 T03090222
KFYV 301553Z 25004KT 10SM OVC026 27/23 A3004 RMK AO2 SLP160 T02670228
KFZG 301635Z AUTO 24007KT 10SM SCT048 36/24 A3008 RMK AO2 T03600244
KFZY 301554Z AUTO 11005KT 10SM CLR 27/15 A3005 RMK AO2 SLP174 T02720150
KGAD 301556Z AUTO VRB06KT 10SM FEW028 SCT035 30/23 A3006 RMK AO2 SLP186 T03000233
KGAF 301635Z AUTO 17011G18KT 10SM CLR 25/19 A2994 RMK AO2
KGAG 301553Z AUTO 26005KT 10SM CLR 30/18 A3001 RMK AO2 SLP133 T03000178
KGAI 301635Z AUTO 16009KT 130V200 10SM SCT036 BKN048 BKN065 31/22 A3001 RMK AO1
KGAO 301635Z AUTO 23010G14KT 10SM VCTS SCT032 SCT039 SCT047 32/24 A3007 RMK AO2 LTG DSNT SE AND SW T03190240
KGBD 301635Z AUTO 16011KT 10SM BKN100 26/17 A3000 RMK AO1
KGBG 301635Z AUTO 35003KT 10SM SCT017 SCT050 25/20 A3000 RMK AO2 T02480196
KGCC 301553Z AUTO 22008KT 10SM CLR 28/08 A2994 RMK AO2 SLP085 T02830083
KGCD 301635Z AUTO 29008KT 10SM CLR 25/03 A2998 RMK AO2 T02450034
KGCK 301554Z 14005KT 10SM CLR 26/19 A3001 RMK AO2 SLP128 T02610189
KGCM 301635Z AUTO 31004KT 10SM VCTS SCT030 BKN049 BKN065 26/22 A3004 RMK AO2 LTG DSNT S THRU NW
KGCN 301554Z 30007KT 10SM CLR 26/09 A3025 RMK AO2 SLP133 T02610089
KGDB 301634Z AUTO 19004KT 10SM CLR 24/14 A3005 RMK AO2 T02400141
KGDJ 301635Z AUTO 21005KT 10SM SCT049 34/19 A3002 RMK AO2 T03420190
KGDP 301551Z AUTO 08008KT 10SM CLR 26/12 A3022 RMK AO2 SLP144 T02610122
KGDV 301556Z AUTO 08006KT 10SM CLR 25/13 A2989 RMK AO2 SLP103 T02500128
KGED 301554Z AUTO 15010KT 10SM FEW034 FEW050 31/21 A3001 RMK AO2 SLP162 T03060211
KGEG 301553Z 21008KT 10SM CLR 23/08 A2979 RMK AO2 SLP065 T02330078
KGEU 301647Z 16006KT 20SM FEW100 SCT150 BKN200 34/18 A2990
KGEV 301645Z AUTO 32006KT 10SM SCT027 SCT034 BKN100 24/18 A3015 RMK AO2 T02410175
KGEY 301553Z AUTO 00000KT 10SM CLR 26/08 A2990 RMK AO2 SLP080 T02610083
KGEZ 301553Z AUTO 26009KT 10SM SCT028 BKN036 28/20 A2997 RMK AO2 SLP141 T02780200
KGFA 301558Z AUTO 24008KT 10SM FEW110 26/11 A2982 RMK AO2 SLP071 T02570108 TSNO $
KGFK 301553Z 18012KT 10SM BKN070 24/16 A2994 RMK AO2 SLP136 T02440161
KGFL 301553Z AUTO 35005KT 10SM CLR 24/14 A3006 RMK AO2 SLP178 T02440144
KGGE 301655Z AUTO 26006KT 10SM CLR 35/22 A3002 RMK AO2
KGGG 301553Z 23008KT 10SM CLR 32/23 A3002 RMK AO2 SLP157 T03170228
KGGI 301635Z AUTO 30004KT 10SM SCT011 OVC060 23/19 A3004 RMK AO2 T02250189
KGGP 301635Z AUTO 25007KT 10SM BKN014 OVC020 25/20 A2998 RMK AO2
KGGW 301553Z AUTO 12009KT 10SM CLR 24/14 A2983 RMK AO2 SLP092 T02390139
KGHG 301635Z AUTO 05006KT 10SM CLR 25/16 A3005 RMK AO2
KGHW 301634Z AUTO 13006KT 10SM CLR 24/13 A3006 RMK AO2
KGIC 301635Z AUTO 00000KT 10SM CLR 25/08 A2988 RMK AO1
KGIF 301553Z AUTO 10SM SCT037 33/22 A3008 RMK AO2 SLP183 T03330217
KGJT 301553Z 12010KT 10SM CLR 28/03 A3006 RMK AO2 SLP098 T02780033
KGKJ 301634Z AUTO VRB03KT 10SM FEW019 BKN037 OVC055 20/17 A3002 RMK AO2 T02000172 TSNO
KGKT 301635Z AUTO 27004KT 10SM FEW020 SCT050 29/22 A3004 RMK
KGKY 301553Z 20007KT 10SM CLR 32/22 A3001 RMK AO2 SLP151 T03170217 $
KGLD 301553Z AUTO 14008KT 10SM CLR 24/17 A3001 RMK AO2 SLP121 T02440167
KGLE 301635Z AUTO 22012KT 10SM CLR 32/22 A3001 RMK AO2 T03240215
KGLH 301636Z AUTO VRB06KT 10SM FEW023 SCT029 32/24 A3003 RMK AO2 T03170244
KGLR 301553Z AUTO 05010G18KT 10SM FEW048 23/10 A3010 RMK AO2 SLP189 T02330100
KGLS 301640Z 20009KT 10SM SCT025 SCT031 32/26 A3004 RMK AO2 T03170256
KGLW 301635Z AUTO 24003KT 10SM OVC012 25/22 A3003 RMK AO2 T02470215 PWINO
KGLY 301655Z AUTO 00000KT 10SM CLR 28/19 A3004 RMK AO2
KGMJ 301635Z AUTO 00000KT 10SM CLR 30/22 A3003 RMK AO2 LTG DSNT W
KGMU 301553Z 29004KT 10SM SCT090 BKN110 30/21 A3006 RMK AO2 SLP167 T03000206
KGNA 301556Z AUTO 08008KT 18/14 A3008 RMK AO1 SLP182 T01830139 $
KGNC 301635Z AUTO 20009KT 10SM CLR 29/15 A3011 RMK AO2 T02930152
KGNR 301556Z AUTO 21/08 A3003 RMK AO1 SLP168 T02110078
KGNT 301635Z AUTO 12008KT 10SM CLR 27/06 A3024 RMK AO2 T02660063
KGNV 301553Z VRB03KT 10SM FEW070 SCT095 33/23 A3008 RMK AO2 SLP181 T03280228
KGOK 301553Z AUTO 10008KT 7SM -RA SCT110 23/22 A2996 RMK AO2 SLP139 P0002 T02280217
KGON 301556Z 18008KT 10SM CLR 26/21 A3003 RMK AO2 SLP167 T02610206
KGOP 301630Z AUTO 22007KT 10SM CLR 32/21 A3006 RMK AO2
KGOV 301634Z AUTO 09012KT 10SM SCT048 26/11 A3008 RMK AO2 T02590112
KGPH 301655Z AUTO 24004KT 10SM SCT030 26/17 A3004 RMK AO2
KGPI 301355Z 03008KT 10SM CLR 18/13 A2982 RMK AO2 SLP074 T01830133
KGPM 301650Z 22007KT 10SM SKC 33/19 A3002
KGPT 301553Z 31007KT 10SM FEW030 SCT036 32/23 A3006 RMK AO2 SLP177 T03170233 $
KGPZ 301556Z AUTO 15006KT 10SM CLR 22/14 A3008 RMK AO2 SLP185 T02220139
KGRB 301553Z 06011KT 10SM CLR 23/16 A3006 RMK AO2 SLP178 T02330156
KGRD 301644Z AUTO 21007KT 10SM TS FEW044 SCT080 BKN110 26/23 A3005 RMK AO2 LTG DSNT SW RAB23E39 TSB44 P0000 T02610228
KGRF 301558Z AUTO 18007KT 10SM OVC020 15/11 A2998 RMK AO2 SLP155 T01540110 $
KGRI 301625Z 17007KT 10SM FEW006 BKN120 20/18 A3003 RMK AO2 RAE03 P0000 T02000183
KGRK 301558Z AUTO 16005KT 10SM CLR 31/22 A3003 RMK AO2 SLP157 T03050215
KGRR 301621Z 07007KT 10SM -RA BKN010 BKN016 OVC070 21/18 A3003 RMK AO2 P0000 T02060178 $
KGSB 301558Z AUTO 21005KT 10SM FEW200 35/22 A2996 RMK AO2 SLP147 T03520222 $
KGSH 301625Z AUTO 04007KT 10SM OVC015 23/17 A2999 RMK AO2 T02280172 $
KGSO 301554Z 33005KT 10SM FEW030 SCT150 BKN250 31/22 A3002 RMK AO2 SLP152 T03060217
KGSP 301553Z VRB04KT 10SM FEW085 OVC110 31/22 A3004 RMK AO2 SLP159 T03060217
KGTB 301615Z AUTO VRB04KT 10SM CLR 24/14 A3007 RMK AO2 DZB06E07DZB11
KGTF 301553Z 24011KT 10SM SCT110 27/09 A2982 RMK AO2 SLP061 T02720094
KGTR 301650Z 29008KT 10SM BKN034 BKN044 33/22 A0301
KGTU 301552Z 18010KT 10SM CLR 31/21 A3004
KGUC 301635Z 00000KT 10SM CLR 22/03 A3034 RMK AO1
KGUP 301553Z AUTO 21008KT 10SM CLR 26/08 A3022 RMK AO2 SLP046 T02560078
KGUR 301635Z AUTO 15003KT 7SM CLR 29/18 A3004 RMK AO2 T02920181 PWINO
KGUS 301628Z 26002KT 10SM SCT012 OVC029 25/21 A2997 RMK AO2A
KGUY 301553Z AUTO 20018KT 10SM CLR 28/14 A3002 RMK AO2 SLP114 T02830144
KGVE 301635Z AUTO 19005KT 10SM SCT022 BKN027 BKN050 29/23 A2998 RMK AO1 T02890234
KGVL 301553Z AUTO 28006KT 10SM SCT024 29/22 A3009 RMK AO2 SLP173 T02890217
KGVT 301635Z AUTO 23008G15KT 10SM CLR 33/21 A3002 RMK AO2
KGWB 301635Z AUTO 00000KT 7SM OVC009 23/19 A2999 RMK AO2
KGWO 301649Z AUTO VRB04KT 10SM SCT027 BKN036 31/23 A3003 RMK AO2
KGWR 301655Z AUTO 19009KT 10SM CLR 24/17 A2999 RMK AO1
KGWW 301645Z AUTO 29004KT 10SM SCT110 32/25 A2997 RMK AO2 T03200252
KGXA 301555Z AUTO VRB02KT 10SM FEW075 36/06 A2995 RMK AO2 SLP065 WND DATA ESTMD T03590063 $
KGXF 301558Z AUTO 24005KT 5SM HZ CLR 29/20 A2989 RMK AO2 SLP108 T02880198
KGXY 301635Z AUTO 05005KT 10SM CLR 23/17 A3005 RMK AO1
KGYB 301635Z AUTO 19006KT 10SM SCT031 SCT041 31/22 A3007 RMK AO2 T03090219
KGYH 301647Z 23008KT 10SM SCT038 32/21 A3004
KGYI 301635Z AUTO 21012G15KT 10SM CLR 34/21 A3001 RMK AO2 T03410214
KGYL 301635Z AUTO 00000KT 10SM SCT070 SCT080 25/16 A3004 RMK AO2 T02520161
KGYR 301647Z 19008KT 10SM FEW110 SCT160 BKN200 33/18 A2989
KGYY 301545Z 03007KT 7SM SCT010 BKN024 24/22 A2998
KGZH 301553Z AUTO 32005KT 10SM FEW038 32/23 A3007 RMK AO2 SLP180 T03220228 TSNO
KGZL 301635Z AUTO 33005KT 10SM BKN070 30/20 A3001 RMK AO2
KHAE 301635Z AUTO 32003KT 10SM SCT026 BKN038 OVC044 23/18 A3003 RMK AO2
KHAF 301635Z AUTO 15007KT 3/4SM BR OVC003 12/12 A2988 RMK AO2
KHAI 301635Z AUTO 10007KT 10SM SCT010 SCT050 OVC070 22/19 A3000 RMK AO2 T02150190
KHAO 301553Z AUTO VRB05KT 10SM FEW025 SCT030 BKN036 27/21 A2999 RMK AO2 SLP149 T02720211
KHBG 301553Z AUTO VRB05KT 10SM SCT028 SCT035 31/24 A3007 RMK AO2 SLP179 T03110239
KHBI 301635Z AUTO 26005KT 10SM CLR 30/22 A3003 RMK AO2 T03030224
KHBR 301553Z AUTO 17010KT 10SM CLR 29/19 A2999 RMK AO2 SLP134 T02890194
KHBV 301635Z AUTO 16009G14KT 10SM SCT039 32/21 A3003 RMK AO2 T03220205
KHCD 301634Z AUTO 11003KT 10SM CLR 24/15 A3005 RMK AO2 T02410146
KHCO 301634Z AUTO 17012G18KT 10SM CLR 25/17 A2992 RMK AO2
KHDC 301635Z AUTO 33005KT 10SM SCT032 32/22 A3005 RMK AO2
KHDE 301635Z AUTO 09011KT 10SM BKN009 BKN041 BKN055 21/18 A3004 RMK AO2 T02140178
KHDN 301635Z AUTO 10004KT 10SM CLR 23/01 A3019 RMK AO1
KHDO 301613Z AUTO 13008KT 100V190 10SM SCT029 29/22 A3006 RMK AO2 T02940217
KHEF 301531Z 19005KT 6SM BKN009 BKN024 OVC060 26/26 A3000
KHEI 301553Z AUTO VRB03KT 10SM CLR 26/15 A2992 RMK AO2 SLP112 T02560150
KHEQ 301635Z AUTO 00000KT 10SM CLR 27/18 A3001 RMK AO2
KHEY 301553Z AUTO VRB03KT 10SM SCT028 31/24 A3006 RMK AO2 SLP066 T03110239
KHEZ 301635Z AUTO 31005KT 10SM FEW026 31/24 A3006 RMK AO1
KHFD 301553Z 09004KT 10SM CLR 29/18 A3002 RMK AO2 SLP164 T02940183
KHFF 301556Z AUTO 27007KT 10SM SCT110 33/22 A3000 RMK AO2 SLP170 T03260222 PWINO $
KHFJ 301630Z AUTO 30003KT 10SM CLR 28/20 A3004 RMK AO2
KHGR 301553Z 14005KT 10SM FEW037 BKN048 OVC100 26/22 A2998 RMK AO2 RAE17 SLP154 P0000 T02610222
KHHF 301635Z AUTO 24004KT 10SM CLR 32/16 A3001 RMK AO2 T03180163
KHHG 301635Z AUTO 03004KT 10SM BKN015 BKN021 BKN034 24/22 A2997 RMK AO2 T02410215
KHHR 301553Z 00000KT 10SM CLR 24/19 A2988 RMK AO2 SLP116 T02390194
KHHW 301635Z AUTO 25004KT 10SM CLR 33/23 A3000 RMK AO2 T03280230
KHIB 301553Z AUTO 15004KT 10SM CLR 21/09 A3006 RMK AO2 SLP182 T02110089
KHIE 301552Z AUTO 03005KT 10SM CLR 23/11 A3008 RMK AO2 SLP183 T02330111
KHIF 301558Z AUTO 11012KT 10SM SCT190 27/05 A3001 RMK AO2 SLP091 T02650054
KHII 301630Z AUTO 02010KT 10SM CLR 32/16 A2984 RMK AO2
KHIO 301553Z 32005KT 10SM CLR 17/10 A3001 RMK AO2 SLP158 T01720100
KHJH 301635Z AUTO 14005KT 10SM VCTS SCT060 SCT070 SCT090 18/17 A3005 RMK AO2 LTG DSNT NE THRU S P0025 T01750166
KHJO 301553Z AUTO 00000KT 10SM CLR 29/10 A2978 RMK AO2 SLP083 T02890100
KHKA 301553Z AUTO 00000KT 10SM CLR 28/23 A3001 RMK AO2 SLP160 T02830233
KHKS 301631Z 27009KT 10SM BKN029 31/24 A3006 RMK AO2 T03110239
KHKY 301553Z 23005KT 10SM CLR 28/21 A3005 RMK AO2 SLP152 T02830211 $
KHLC 301553Z AUTO 17012KT 10SM CLR 27/19 A3000 RMK AO2 SLP133 T02720194 TSNO
KHLG 301649Z 32007KT 10SM TS BKN007 BKN014 OVC038 24/21 A2999 RMK AO2 LTG DSNT E AND SE RAE1558 TSB05E20B35 CIG 004V011 P0000
KHLN 301553Z 00000KT 10SM CLR 23/09 A2989 RMK AO2 SLP096 T02330089
KHLR 301558Z AUTO VRB06KT 10SM CLR 30/22 A3002 RMK AO2 SLP153 T03010216
KHLX 301635Z AUTO 00000KT 10SM SCT028 BKN034 OVC120 26/20 A3011 RMK AO2 T02560202
KHMN 301558Z AUTO 19005KT 10SM CLR 28/15 A3011 RMK AO2 SLP123 T02820145 $
KHMZ 301635Z AUTO 34003KT 10SM -RA BKN019 OVC025 25/21 A2998 RMK AO2 LTG DSNT W P0001 T02460206
KHNB 301635Z 00000KT 10SM FEW028 SCT045 SCT060 24/21 A2999 RMK AO1 LTG DSNT NE P0001
KHND 301651Z 20015KT 4SM HZ BKN030 OVC037 35/17 A2993 RMK AO2
KHNR 301635Z AUTO 00000KT 10SM CLR 23/18 A3008 RMK AO2
KHOB 301650Z 14007G14KT 10SM FEW050 29/15 A3013
KHOE 301635Z AUTO 00000KT 10SM SCT049 34/21 A3006 RMK AO2
KHON 301555Z AUTO 15012KT 10SM CLR 24/16 A2997 RMK AO2 SLP142 T02440156
KHOP 301558Z AUTO 23006KT 10SM FEW019 27/22 A3001 RMK AO2 SLP159 T02680217
KHOT 301553Z AUTO 33003KT 10SM CLR 27/22 A3004 RMK AO2 TSE00 SLP164 T02720222
KHOU 301553Z 20006KT 10SM SCT027 SCT250 32/24 A3002 RMK AO2 SLP170 T03170239
KHPN 301556Z 08005KT 10SM FEW050 27/20 A3003 RMK AO2 SLP163 T02670200 $
KHQG 301635Z AUTO 20018G24KT 10SM CLR 29/13 A3002 RMK AO2 T02870132
KHQM 301553Z AUTO 25009KT 4SM HZ OVC020 15/12 A2998 RMK AO2 SLP157 T01500122 $
KHQZ 301550Z 22005KT 10SM CLR 32/22 A3001
KHRI 301553Z AUTO 25012G21KT 10SM CLR 27/11 A2979 RMK AO2 SLP079 T02720111
KHRJ 301640Z AUTO 23008KT 10SM CLR 33/24 A2998 RMK AO2 T03310235
KHRL 301641Z 13012G19KT 10SM VCTS FEW032 34/24 A3000 RMK AO2 LTG DSNT NE-S T03440239
KHRO 301632Z AUTO 00000KT 10SM SCT024 SCT029 SCT034 29/22 A3005 RMK AO2 T02890222
KHRT 301610Z COR VRB04KT 10SM FEW030 SCT180 32/22 A3004 RMK AO2A COR 1626
KHRX 301635Z AUTO 21009G16KT 10SM CLR 28/16 A3013 RMK AO2 T02800160
KHSA 301552Z VRB04KT 7SM BKN036 32/21 A3006
KHSB 301635Z AUTO 00000KT 10SM SCT015 SCT023 26/22 A3001 RMK AO2 T02600224
KHSE 301551Z AUTO 12008KT 10SM CLR 31/26 A3001 RMK AO2 SLP160 T03060261 TSNO
KHSG 301635Z AUTO 15016G24KT 10SM 28/08 A2993 RMK AO2 T02800084
KHSI 301553Z AUTO 08006KT 10SM BKN030 BKN040 OVC055 19/17 A3005 RMK AO2 LTG DSNT SE SLP166 T01890172
KHSP 301635Z AUTO 29007KT 10SM SCT010 BKN021 BKN031 23/19 A3015 RMK AO2
KHST 301558Z AUTO 07006KT 10SM CLR 32/23 A3007 RMK AO2 SLP186 T03190226
KHSV 301619Z 33005KT 10SM SCT029 31/20 A3004 RMK AO2 T03110200
KHTL 301553Z AUTO 07013G16KT 10SM SCT035 23/14 A3008 RMK AO2 SLP183 T02330139
KHTO 301635Z AUTO 12007KT 10SM CLR 25/21 A3004 RMK AO2 T02520211
KHTS 301551Z 23006KT 10SM FEW016 BKN033 BKN040 27/22 A3000 RMK AO2 SLP149 T02670222
KHUA 301558Z AUTO VRB03KT 10SM FEW032 29/22 A3004 RMK AO2 LTG DSNT SW SLP166 T02930216
KHUF 301553Z 28007KT 10SM CLR 27/19 A2998 RMK AO2 SLP145 T02720189 $
KHUL 301553Z AUTO VRB06KT 10SM SCT046 BKN055 BKN070 23/13 A2998 RMK AO2 SLP151 T02330128
KHUM 301550Z 24006KT 7SM SCT022 29/24 A3006
KHUT 301552Z 18009KT 10SM FEW039 FEW060 SCT090 24/21 A3000 RMK AO2 RAB39E49 SLP138 P0000 T02440206
KHVN 301553Z 15010KT 10SM FEW020 BKN120 27/21 A3003 RMK AO2 SLP169 T02670206
KHVR 301553Z AUTO 00000KT 10SM FEW120 26/14 A2976 RMK AO2 SLP059 T02560139
KHVS 301635Z AUTO 22004KT 10SM SCT100 SCT120 33/22 A3000 RMK AO2
KHWD 301609Z 29003KT 10SM OVC010 17/12 A2983 RMK AO2 T01670117
KHWO 301553Z 01004KT 10SM CLR 34/21 A3008 RMK AO2 SLP186 T03390211
KHWV 301556Z AUTO 15009KT 10SM FEW020 FEW060 28/22 A3003 RMK AO2 SLP168 T02780222 TSNO
KHWY 301635Z AUTO 16007KT 10SM SCT023 BKN050 30/21 A2999 RMK AO2 LTG DSNT S T02980207
KHXD 301550Z 23005KT 10SM FEW040 38/22 A3005
KHYA 301456Z A3002 RMK AO2 SLPNO
KHYI 301549Z 22011KT 10SM FEW022 SCT028 BKN041 29/23 A3007
KHYR 301553Z AUTO 16008KT 10SM CLR 23/13 A3008 RMK AO2 SLP183 T02330128
KHYS 301635Z 16014KT 10SM FEW065 28/17 A3000 RMK AO1
KHYW 301635Z AUTO 28004KT 7SM CLR 35/22 A3000 RMK AO2
KHYX 301635Z AUTO 06009KT 10SM SCT013 BKN034 BKN049 22/18 A3003 RMK AO2
KHZE 301635Z AUTO 17006KT 10SM BKN024 24/18 A2990 RMK AO2
KHZL 301635Z AUTO 13004KT 10SM BKN017 BKN100 25/21 A3007 RMK AO2
KHZR 301635Z AUTO 34006KT 10SM SCT039 SCT044 31/24 A3006 RMK AO2 T03130238
KHZX 301634Z AUTO 11004KT 10SM CLR 23/12 A3006 RMK AO2
KHZY 301553Z AUTO 12008KT 10SM BKN016 OVC055 23/21 A2999 RMK AO2 SLP150 T02330206 TSNO
KI16 301635Z AUTO 10SM BKN016 OVC023 25/20 A3012 RMK AO2 T02500195
KI19 301632Z AUTO 00000KT 10SM SCT020 BKN027 BKN044 27/21 A2999 RMK AO2
KI35 301635Z AUTO 16003KT SCT019 SCT026 BKN033 26/20 A3007 RMK AO1
KI63 301635Z AUTO 00000KT 10SM SCT050 24/19 A3000 RMK AO2 T02380186
KI67 301635Z AUTO 00000KT 10SM BKN021 BKN026 BKN038 26/21 A2997 RMK AO1
KI69 301634Z AUTO 26006KT 10SM BKN022 BKN028 BKN049 27/21 A2999 RMK AO2 T02670205
KI75 301635Z AUTO 29003KT 10SM SCT021 SCT025 SCT033 24/18 A3004 RMK AO2 T02410184
KIAB 301558Z AUTO 18008KT 10SM CLR 23/21 A3002 RMK AO2 SLP156 T02320208 $
KIAD 301627Z 18014G18KT 10SM FEW026 BKN036CB BKN130 BKN250 29/23 A2998 RMK AO2 CB E-SE T02940228
KIAG 301553Z 08009KT 10SM FEW035 BKN100 BKN230 24/16 A3003 RMK AO2 SLP165 T02440161
KIAH 301553Z 29006KT 10SM SCT032 32/23 A3003 RMK AO2 SLP167 T03170233
KIBM 301635Z AUTO 18007KT 10SM CLR 26/15 A3005 RMK AO2 T02610149
KICL 301635Z AUTO 10SM 25/18 A3005 RMK AO2 PWINO
KICR 301453Z AUTO 19009KT 10SM CLR 23/16 A2997 RMK AO2 SLP135 60001 T02280156 58005
KICT 301553Z 17008KT 10SM FEW042 SCT055 BKN100 BKN200 23/21 A3002 RMK AO2 RAB15E24 SLP151 P0000 T02330206
KIDA 301553Z 11004KT 8SM FEW100 24/07 A2999 RMK AO2 SLP099 FU ALQDS T02440067
KIDI 301635Z AUTO 00000KT 5SM BR SCT005 SCT027 22/21 A3005 RMK A01
KIDP 301635Z AUTO 20004KT 10SM SCT090 28/20 A3003 RMK AO2 LTG DSNT S AND SW
KIEN 301552Z AUTO 19009KT 10SM SCT070 26/17 A2997 RMK AO2 SLP116 T02610167
KIER 301635Z AUTO 00000KT 10SM CLR 34/24 A3003 RMK AO2 T03350243
KIFA 301635Z AUTO 00000KT 10SM SCT016 BKN043 OVC065 23/18 A3006 RMK AO2 T02300183
KIGM 301551Z AUTO 23017KT 10SM CLR 27/16 A3005 RMK AO2 SLP093 T02720156
KIGQ 301635Z AUTO 04005KT 10SM OVC022 24/19 A2998 RMK AO2 T02350188
KIGX 301556Z AUTO 10SM CLR 32/22 A2999 RMK AO2 SLP148 T03220217
KIIB 301635Z AUTO 00000KT 10SM BKN022 BKN032 BKN041 23/17 A3003 RMK AO2
KIIY 301635Z AUTO 00000KT 10SM CLR 28/25 A3005 RMK AO2 LTG DSNT NE
KIJD 301552Z AUTO 00000KT 10SM CLR 29/17 A3004 RMK AO2 SLP169 T02890172
KIJX 301635Z AUTO 26006KT 10SM SCT020 24/19 A3001 RMK AO2 T02410185
KIKK 301635Z AUTO 00000KT 10SM SCT015 BKN021 OVC045 24/20 A2998 RMK AO2 T02420204
KIKW 301633Z AUTO 06005KT 10SM BKN023 OVC028 21/17 A3004 RMK AO2 T02090171
KILE 301556Z AUTO 21006KT 10SM CLR 31/23 A3004 RMK AO2 SLP172 T03060228
KILG 301551Z 18007KT 10SM CLR 29/24 A3001 RMK AO2 SLP159 T02890239
KILM 301553Z AUTO 22009KT 10SM CLR 35/23 A2999 RMK AO2 SLP154 T03500233 PWINO
KILN 301644Z AUTO 26009KT 10SM FEW017 SCT022 27/21 A2999 RMK AO2 T02720211
KIML 301553Z AUTO VRB05KT 10SM CLR 24/16 A3000 RMK AO2 SLP126 T02440161
KIMS 301632Z AUTO 23004KT 10SM SCT029 SCT034 BKN046 27/19 A3002 RMK AO1
KIMT 301554Z AUTO 14007KT 10SM FEW045 23/11 A3009 RMK AO2 SLP189 T02330106
KIND 301554Z 24008KT 10SM R05L/0500VP6000FT SCT015 SCT250 27/18 A2997 RMK AO2 SLP142 T02720183
KINF 301635Z AUTO 36007KT 10SM SCT060 BKN090 31/26 A3009 RMK AO2 LTG DSNT SE THRU NW
KINJ 301635Z AUTO 20008KT 10SM CLR 32/20 A3003 RMK AO2 T03170200
KINK 301553Z AUTO 16005KT 10SM CLR 28/17 A3006 RMK AO2 SLP129 T02830172 TSNO
KINL 301555Z AUTO VRB04KT 10SM SCT050 23/14 A3003 RMK AO2 SLP168 T02280144
KINS 301558Z AUTO 00000KT 6SM HZ CLR 30/14 A2996 RMK AO2 SLP089 T03030136 $
KINT 301554Z 28004KT 10SM CLR 29/21 A3004 RMK AO2 SLP158 T02940206
KINW 301556Z AUTO VRB04KT 10SM CLR 28/09 A3011 RMK AO2 SLP105 T02830094
KIOB 301635Z AUTO 28005KT 10SM SCT022 SCT030 BKN039 27/22 A3003 RMK AO2
KIOW 301552Z AUTO VRB04KT 10SM FEW019 BKN031 OVC070 24/19 A3002 RMK AO2 SLP161 T02440194
KIPJ 301640Z AUTO 00000KT 10SM CLR 31/20 A3004 RMK AO2 T03110197
KIPL 301553Z AUTO 18003KT 8SM FEW085 SCT110 31/23 A2983 RMK AO2 SLP102 T03110228
KIPT 301554Z 09005KT 10SM FEW075 SCT100 27/18 A2998 RMK AO2 RAB01E26 SLP147 P0000 T02670183
KIRK 301555Z AUTO 28005KT 10SM FEW023 OVC039 24/18 A3003 RMK AO2 SLP166 T02390178
KIRS 301634Z AUTO 04003KT 7SM OVC008 19/18 A2999 RMK AO2 T01910176
KISM 301556Z VRB03KT 10SM FEW030 BKN036 OVC049 31/24 A3008 RMK AO2 SLP188 T03060239
KISN 301552Z AUTO 16005KT 10SM CLR 25/16 A2988 RMK AO2 SLP109 T02500161
KISO 301556Z 21006KT 10SM CLR 34/23 A2999 RMK AO2
KISP 301556Z 13006KT 8SM SCT022 BKN030 BKN130 BKN250 28/22 A3001 RMK AO2 SLP161 T02830222 $
KISQ 301634Z AUTO 14006KT 10SM BKN065 25/15 A3009 RMK AO2 T02470152
KISW 301554Z AUTO 10005KT 10SM SCT055 OVC075 22/16 A3007 RMK AO2 SLP179 T02220156
KITH 301556Z 32003KT 5SM BR BKN007 BKN026 OVC055 18/17 A3010 RMK AO2 RAE56 SLP189 P0007 T01780172
KITR 301553Z AUTO 17004KT 10SM CLR 25/14 A3003 RMK AO2 SLP114 T02500144
KIWA 301648Z 16008KT 30SM BKN200 32/19 A2993
KIWD 301635Z AUTO 14006KT 10SM SCT046 SCT055 24/13 A3006 RMK AO1
KIWI 301553Z AUTO VRB03KT 10SM CLR 26/12 A3002 RMK AO2 SLP165 T02610122
KIXA 301640Z AUTO 17005KT 10SM SCT070 SCT090 31/26 A2997 RMK AO2
KIXD 301553Z 06003KT 10SM FEW039 FEW060 26/17 A3005 RMK AO2 SLP165 T02610172
KIYA 301635Z AUTO 00000KT 10SM SCT032 31/25 A3005 RMK AO2 T03140245
KIZA 301627Z AUTO 00000KT 10SM CLR 22/12 A2988 RMK AO2
KIZG 301554Z AUTO VRB04KT 10SM CLR 26/11 A3004 RMK AO2 SLP172 T02610111
KJAC 301651Z 00000KT 10SM VCFU CLR 22/05 A3013
KJAN 301554Z 27006KT 10SM SCT045 32/24 A3005 RMK AO2 SLP172 T03220239
KJAQ 301635Z AUTO 31003KT 10SM CLR 29/02 A2985 RMK AO1 T02930018
KJAS 301635Z AUTO 00000KT 10SM SCT033 31/22 A3007 RMK AO2 T03120222
KJAX 301556Z VRB05KT 10SM SCT036 BKN100 BKN250 33/23 A3006 RMK AO2 SLP181 T03280233
KJBR 301553Z AUTO 00000KT 10SM SCT024 28/22 A3001 RMK AO2 SLP157 T02830217
KJCT 301551Z AUTO 19008KT 10SM CLR 28/19 A3007 RMK AO2 SLP143 T02830194
KJDD 301635Z AUTO 17008KT 10SM CLR 33/21 A3004 RMK AO2
KJDN 301648Z AUTO 13013KT 29/13 A2983 RMK AO1 SLP082 T02890128
KJEF 301553Z 32006KT 10SM FEW035 27/19 A3001 RMK AO2 SLP147 T02670194
KJER 301553Z AUTO 00000KT 10SM CLR 24/11 A2994 RMK AO2 SLP091 T02390106
KJES 301635Z AUTO 24006KT 10SM SCT046 35/25 A3005 RMK AO2
KJFK 301551Z 15010KT 9SM SCT025 BKN032 BKN110 BKN250 28/22 A3002 RMK AO2 SLP164 BKN032 V SCT T02780222
KJFX 301635Z AUTO 32004KT VCTS CLR 29/23 A3003 RMK AO2 LTG DSNT ALQDS PWINO
KJFZ 301635Z AUTO 25012KT 10SM BKN014 OVC020 24/22 A3013 RMK AO2 T02400218
KJGG 301635Z AUTO 15007KT 10SM CLR 32/23 A2999 RMK AO1
KJHN 301635Z AUTO 17011G19KT 10SM CLR 28/16 A2999 RMK AO2 T02770161
KJHW 301635Z AUTO 15004KT 10SM BKN006 20/17 A3003 RMK AO1
KJKA 301635Z AUTO 27010G17KT 10SM SCT027 31/25 A3007 RMK AO2 T03050250
KJKJ 301634Z AUTO 19007KT 10SM SCT085 24/17 A2999 RMK AO2
KJKL 301635Z AUTO VRB03KT 10SM SCT019 SCT030 BKN120 27/22 A3004 RMK AO2 T02670217
KJLN 301553Z 00000KT 10SM CLR 29/21 A3003 RMK AO2 SLP156 T02890211
KJMR 301634Z AUTO 17004KT 10SM BKN025 BKN070 22/16 A3007 RMK AO2
KJMS 301556Z AUTO 18009KT 10SM OVC100 22/16 A2995 RMK AO2 SLP138 T02220161
KJNX 301645Z AUTO 24004KT 10SM CLR 32/24 A2997 RMK AO2 LTG DSNT N
KJOT 301635Z AUTO 04009KT 10SM SCT019 BKN027 OVC032 25/21 A2999 RMK AO2 T02460205
KJQF 301550Z 00000KT 10SM BKN110 29/23 A3007
KJRB 301635Z 06003KT 10SM BKN029 OVC095 29/22 A3002 RMK AO1
KJSO 301635Z AUTO 19008KT CLR 31/21 A3007 RMK AO2 T03130219 PWINO
KJST 301645Z AUTO 10003KT 1 1/2SM TSRA BR FEW002 BKN048 OVC065 19/18 A3004 RMK AO2 LTG DSNT NE TSE00B45 P0084 T01940178
KJSV 301635Z AUTO 21004KT 10SM SCT060 31/23 A3001 RMK AO2 LTG DSNT W
KJVL 301645Z 04009KT 10SM BKN028 BKN200 26/17 A3000
KJVW 301635Z AUTO 28009KT 9SM FEW029 32/29 A3005 RMK AO2
KJWG 301635Z AUTO 00000KT 10SM CLR 28/23 A3001 RMK AO2 T02780231
KJWN 301635Z AUTO 17005KT 10SM SCT025 BKN032 28/21 A3002 RMK
KJWY 301635Z AUTO 21008KT 190V260 10SM CLR 32/22 A3003 RMK AO2 T03220221
KJXI 301635Z AUTO 20007G15KT 10SM CLR 31/21 A3003 RMK AO2 T03100214
KJXN 301607Z 07006KT 10SM BKN006 OVC100 20/19 A3000 RMK AO2 T02000189
KJYG 301635Z AUTO 00000KT 10SM CLR 21/10 A3005 RMK AO2
KJYM 301635Z AUTO 03004KT 10SM BKN009 BKN019 OVC027 21/18 A2999 RMK AO2 T02080182
KJYO 301635Z AUTO 18016G24KT 10SM SCT028 SCT047 BKN055 30/23 A2998 RMK AO2
KJYR 301635Z AUTO 20005KT 10SM FEW120 19/18 A3003 RMK AO2 LTG DSNT SE
KJZI 301635Z AUTO 25006KT 10SM CLR 36/23 A3002 RMK AO2
KJZP 301635Z AUTO 32006KT 10SM -RA SCT025 SCT044 BKN120 28/16 A3012 RMK AO2 LTG DSNT NE AND S T02830157
KK88 301635Z AUTO 00000KT 10SM 27/21 A3004 RMK AO1 T02730211
KKLS 301556Z AUTO VRB06KT 10SM OVC025 17/11 A3002 RMK AO2 SLP171 T01670111
KL18 301635Z AUTO 19005KT 10SM CLR 24/19 A2991 RMK AO2
KL35 301635Z AUTO 27006KT 10SM CLR 25/08 A3026 RMK AO2
KL38 301635Z AUTO 00000KT 10SM SCT027 BKN075 OVC110 30/24 A3005 RMK AO2 T03030237
KLAA 301553Z AUTO 26013G18KT 10SM CLR 27/15 A2998 RMK AO2 SLP098 T02670150 TSNO
KLAF 301641Z 00000KT 10SM SCT013 SCT021 24/22 A2996 RMK AO2 T02440217
KLAL 301645Z 28006KT 10SM VCTS BKN035 31/25 A3008
KLAM 301635Z AUTO 15010KT 10SM CLR 23/07 A3031 RMK AO2 T02340072
KLAN 301553Z 06007KT 10SM BKN011 20/17 A3002 RMK AO2 RAE03 SLP162 P0000 T02000172
KLAR 301553Z AUTO 00000KT 10SM CLR 20/11 A3020 RMK AO2 SLP115 T02000111 TSNO
KLAS 301556Z 18011G16KT 5SM HZ SCT040 34/14 A2987 RMK AO2 SLP081 T03390144
KLAW 301553Z AUTO VRB04KT 10SM CLR 31/21 A2998 RMK AO2 SLP138 T03110211 TSNO
KLAX 301553Z 00000KT 9SM FEW170 FEW230 24/19 A2988 RMK AO2 SLP116 T02440189
KLBB 301553Z 20008KT 9SM SCT170 SCT200 BKN260 27/17 A3010 RMK AO2 SLP137 HZ ALQDS T02670167
KLBE 301645Z 05005KT 10SM SCT029 BKN044 BKN060 23/21 A3000
KLBF 301553Z AUTO 12013KT 10SM BKN013 23/18 A3001 RMK AO2 SLP138 T02280183
KLBL 301635Z 19017G22KT 10SM CLR 29/17 A3003 RMK AO1
KLBT 301554Z AUTO 24009KT 10SM CLR 34/22 A2999 RMK AO2 SLP152 T03440222
KLBX 301553Z AUTO 22006KT 10SM FEW029 32/24 A3002 RMK AO2 SLP166 T03220244
KLCG 301635Z AUTO 13007KT 10SM BKN023 BKN031 24/19 A3002 RMK AO2 T02380194
KLCH 301553Z 28004KT 10SM CLR 32/23 A3004 RMK AO2 SLP178 T03170228
KLCI 301556Z AUTO VRB06KT 10SM CLR 24/11 A3005 RMK AO2 SLP187 T02440111 PNO $
KLCK 301635Z AUTO 23005KT 10SM SCT020 BKN028 26/21 A2997 RMK AO2 T02620213
KLCQ 301635Z AUTO 29003KT 10SM SCT042 SCT060 BKN080 32/23 A3007 RMK AO2 LTG DSNT S
KLDJ 301655Z AUTO 00000KT 10SM CLR 30/18 A3001 RMK AO2 T03040183
KLDM 301635Z AUTO 07007KT 10SM CLR 24/15 A3002 RMK AO2 T02430152
KLEB 301553Z VRB04KT 10SM CLR 26/14 A3006 RMK AO2 SLP171 T02560139
KLEE 301553Z 15006KT 10SM SCT030 BKN038 33/24 A3008 RMK AO2 SLP184 T03280244
KLEW 301556Z AUTO 33007KT 310V020 10SM CLR 25/12 A3003 RMK AO2 SLP180 T02500117
KLEX 301615Z VRB04KT 10SM SCT016 BKN023 27/21 A3002 RMK AO2 T02720211 $
KLFI 301558Z AUTO 11009KT 9SM FEW130 BKN180 BKN200 30/24 A2999 RMK AO2 SLP162 T03010236 $
KLFK 301553Z AUTO VRB04KT 10SM FEW028 31/23 A3004 RMK AO2 SLP168 T03060233
KLFT 301553Z 34004KT 10SM FEW034 32/24 A3005 RMK AO2 SLP175 T03220239
KLGA 301551Z 05011KT 10SM FEW025TCU BKN100 BKN260 27/20 A3001 RMK AO2 SLP161 TCU S-SW T02670200
KLGB 301553Z 15005KT 10SM CLR 24/19 A2988 RMK AO2 SLP117 T02390194
KLGC 301635Z AUTO 00000KT 10SM SCT030 SCT037 SCT045 32/25 A3006 RMK AO2 T03200250
KLGD 301635Z AUTO 32013G19KT 10SM CLR 27/05 A2988 RMK AO1
KLGU 301551Z AUTO 36008KT 10SM CLR 23/08 A3000 RMK AO2 SLP100 T02330078
KLHB 301635Z AUTO 24007KT 10SM CLR 32/22 A3004 RMK AO2 T03200219
KLHM 301635Z AUTO 18006KT 10SM CLR 30/04 A2975 RMK AO1
KLHQ 301610Z AUTO 24006KT 10SM FEW022 BKN027 26/22 A2998 RMK AO2 T02610222
KLHW 301558Z AUTO 23007KT 10SM CLR 34/22 A3002 RMK AO2 SLP168 T03390216 $
KLHX 301553Z AUTO VRB06KT 10SM CLR 24/15 A3002 RMK AO2 SLP105 T02390150
KLHZ 301640Z AUTO 20003KT 10SM SCT050 SCT100 30/24 A3001 RMK AO2
KLIC 301555Z AUTO 14008KT 10SM CLR 23/14 A3007 RMK AO2 SLP107 T02330144
KLIT 301553Z 25006KT 10SM FEW015 SCT050 BKN120 BKN250 29/22 A3002 RMK AO2 SLP165 T02940222 $
KLJF 301633Z AUTO 13005KT 10SM CLR 24/13 A3005 RMK AO2
KLKR 301655Z AUTO 27009KT 10SM CLR 33/19 A3002 RMK AO2 PWINO
KLKU 301635Z AUTO 17006KT 10SM SCT014 BKN018 BKN060 29/26 A2999 RMK AO2
KLKV 301635Z 15003KT 10SM CLR A3006 RMK AO1
KLLJ 301555Z AUTO 03004KT 10SM CLR 21/03 A3000 RMK AO2 SLP090 T02110033
KLLQ 301553Z AUTO 30006KT 10SM CLR 30/23 A3003 RMK AO2 SLP165 T03000233
KLMO 301635Z AUTO 02006KT 7SM CLR 26/16 A3007 RMK AO2 T02630160
KLMT 301553Z 32007KT 10SM CLR 23/11 A3001 RMK AO2 SLP110 T02280106
KLNC 301635Z AUTO 25008KT 10SM CLR 34/20 A3002 RMK AO2 T03360204
KLND 301553Z AUTO 01004KT 10SM CLR 23/08 A3004 RMK AO2 SLP098 T02330083
KLNK 301554Z 08003KT 10SM BKN040 BKN065 22/18 A3004 RMK AO2 LTG DSNT SW-NW SLP164 T02170178
KLNL 301635Z AUTO 11006KT 10SM BKN050 24/11 A3011 RMK AO2 T02400106
KLNN 301635Z AUTO 01009KT 10SM SCT020 SCT060 OVC110 26/21 A2995 RMK AO1 T02610213
KLNP 301635Z AUTO 23009KT BKN015 BKN020 BKN120 23/17 A3013 RMK AO2 PWINO
KLNR 301556Z AUTO 06004KT 10SM BKN120 23/17 A3003 RMK AO2 SLP161 T02280172
KLNS 301553Z 11005KT 7SM BKN110 27/23 A2999 RMK AO2 SLP153 T02720233
KLOL 301553Z AUTO VRB03KT 10SM CLR 30/07 A2997 RMK AO2 SLP093 T03000072
KLOM 301635Z AUTO 17007KT 10SM SCT036 SCT050 SCT080 29/22 A2999 RMK AO1
KLOR 301553Z AUTO 10SM FEW030 32/24 A3006 RMK AO2 SLP175 T03170239
KLOT 301635Z AUTO 06005KT 10SM OVC018 23/18 A2999 RMK AO2 T02290180
KLOU 301610Z 22003KT 10SM SCT028 BKN034 28/21 A2999 RMK AO2 T02780206
KLOZ 301609Z AUTO 21005KT 10SM BKN017 BKN034 27/21 A3005 RMK AO2 T02670211
KLPC 301604Z AUTO 00000KT 10SM SCT007 16/13 A2988 RMK AO2
KLPR 301553Z AUTO 00000KT 10SM FEW040 BKN055 BKN070 27/21 A2996 RMK AO2 SLP139 T02670206 TSNO
KLQK 301655Z AUTO 00000KT 10SM CLR 31/22 A3003 RMK AO2 LTG DSNT SE T03100215
KLRD 301556Z 15008KT 110V190 10SM FEW025 31/24 A3001 RMK AO2 SLP163 T03060239 $
KLRF 301623Z AUTO 00000KT 10SM SCT015 28/24 A3002 RMK AO2
KLRJ 301635Z AUTO 00000KT 10SM CLR 25/17 A3003 RMK AO2
KLRO 301635Z AUTO 00000KT 9SM CLR 35/23 A3002 RMK AO2
KLRU 301635Z AUTO 10003KT 10SM CLR 29/13 A3014 RMK AO2 T02850133
KLSB 301635Z AUTO 12010G16KT 10SM CLR 29/14 A3010 RMK AO2 LTG DSNT W
KLSE 301553Z 03003KT 10SM CLR 24/17 A3003 RMK AO2 SLP159 T02440167
KLSF 301558Z AUTO 22006KT 10SM CLR 33/22 A3005 RMK AO2 SLP176 T03280222
KLSK 301639Z AUTO 20007KT 10SM CLR 27/16 A3004 RMK AO2
KLSV 301634Z 14007KT 3SM DU CLR 34/16 A2988 RMK AO2A
KLTS 301558Z AUTO 14004KT 10SM FEW150 28/20 A3000 RMK AO2 SLP143 T02840203
KLUA 301322Z AUTO 24004KT 10SM CLR 27/23 A2999 RMK AO2
KLUD 301635Z AUTO 24004KT 10SM CLR 32/21 A3003 RMK AO2 T03160205
KLUF 301558Z AUTO 20010KT 10SM CLR 33/18 A2988 RMK AO2 SLPNO T03290177 $
KLUK 301553Z 26005KT 8SM BKN016 26/23 A2999 RMK AO2 SLP150 T02610228
KLUM 301635Z AUTO 07004KT 10SM CLR 26/14 A3005 RMK AO2 T02610137
KLUX 301635Z AUTO 21003G10KT 3SM +RA SCT028 BKN043 OVC075 26/23 A3003 RMK AO2 LTG DSNT SW P0004
KLVJ 301553Z AUTO 20008KT 10SM FEW029 33/23 A3004 RMK AO2 SLP171 T03280233
KLVK 301553Z 25006KT 10SM CLR 20/13 A2980 RMK AO2 SLP089 T02000128
KLVL 301635Z AUTO 00000KT 10SM SCT007 BKN021 OVC025 26/26 A2999 RMK AO1 T02620255
KLVM 301553Z AUTO VRB03KT 10SM CLR 24/09 A2993 RMK AO2 SLP082 T02390089
KLVN 301633Z AUTO 00000KT 10SM SCT021 SCT028 BKN080 22/18 A3004 RMK AO2
KLVS 301553Z AUTO 20017KT 10SM CLR 23/12 A3026 RMK AO2 SLP140 T02280117
KLWA 301635Z AUTO 07007KT 10SM OVC009 21/19 A3000 RMK AO2 T02110189
KLWB 301635Z AUTO 24003KT 10SM SCT019 SCT026 BKN032 24/19 A3009 RMK AO2 T02430191
KLWC 301552Z AUTO VRB04KT 10SM CLR 26/19 A3004 RMK AO2 SLP164 T02560189
KLWD 301619Z AUTO 04004KT 10SM SCT025 OVC030 24/18 A3005 RMK AO2 T02390183
KLWM 301554Z VRB06KT 10SM CLR 29/12 A3005 RMK AO2 SLP174 T02890117
KLWS 301556Z AUTO 02004KT 10SM CLR 26/11 A2979 RMK AO2 SLP073 T02610111
KLWV 301553Z AUTO 32004KT 10SM 27/21 A2999 RMK AO2 SLP150 T02720211
KLXL 301633Z AUTO 13005KT 10SM CLR 23/13 A3005 RMK AO2
KLXN 301635Z AUTO 10011KT 10SM OVC014 22/18 A3003 RMK AO2 T02230179
KLXT 301553Z AUTO 00000KT 10SM SCT043 SCT055 26/18 A3005 RMK AO2 SLP167 T02560183
KLXV 301553Z AUTO VRB06KT 10SM CLR 19/02 A3043 RMK AO2 SLP108 T01890022
KLXY 301635Z AUTO 21008G14KT 10SM CLR 32/21 A3003 RMK AO2 T03180214
KLYH 301554Z 00000KT 10SM FEW019 SCT042 28/23 A3002 RMK AO2 SLP156 T02780228
KLYV 301636Z AUTO 00000KT 10SM CLR 22/14 A3004 RMK AO2
KLZU 301645Z 30008KT 10SM BKN033 31/23 A3006 RMK JW
KLZZ 301635Z AUTO 25007KT 10SM CLR 33/23 A3004 RMK AO2 T03260227
KM19 301556Z AUTO 00000KT 10SM BKN015 28/23 A3002 RMK AO2 T02770233 SLP163
KM21 301635Z AUTO 27003KT 10SM BKN027 BKN038 BKN048 26/21 A3000 RMK AO2 T02640211
KM25 301635Z AUTO 22004KT 10SM BKN014 26/22 A3003 RMK AO2 PWINO
KM30 301635Z AUTO 21004KT 10SM OVC011 25/22 A3002 RMK AO2 T02470221
KM40 301635Z AUTO 27004KT 7SM SCT028 33/23 A3002 RMK AO2
KMAE 301553Z AUTO 00000KT 10SM CLR 28/11 A2977 RMK AO2 SLP078 T02830111
KMAF 301553Z 16015G19KT 10SM CLR 30/16 A3008 RMK AO2 SLP134 T03000161
KMAI 301553Z AUTO 35006KT 10SM FEW030 32/24 A3006 RMK AO2 SLP176 T03170239
KMAN 301635Z AUTO 31009KT 10SM CLR 28/09 A2983 RMK A01
KMAO 301655Z AUTO 25012KT 10SM 35/21 A2999 RMK AO2
KMAW 301635Z AUTO 00000KT 10SM CLR 28/22 A3002 RMK AO2
KMBG 301552Z AUTO 16017KT 10SM CLR 27/16 A2990 RMK AO2 SLP111 T02670161
KMBL 301556Z AUTO 07008KT 10SM CLR 24/14 A3004 RMK AO2 SLP185 T02390144
KMBO 301655Z AUTO 29010G15KT 10SM SCT029 31/23 A3005 RMK AO2 PWINO
KMBS 301636Z 06009KT 10SM SCT016 BKN028 OVC045 22/18 A3005 RMK AO2 T02170183
KMCB 301553Z AUTO 33007KT 10SM SCT023 BKN042 30/23 A3007 RMK AO2 SLP178 T03000233
KMCD 301635Z AUTO 10007KT 10SM CLR 22/15 A3010 RMK AO2 T02240153
KMCE 301553Z AUTO 31005KT 10SM CLR 28/10 A2975 RMK AO2 SLP070 T02780100 TSNO
KMCF 301609Z AUTO 26006KT 10SM VCTS FEW140 SCT200 29/27 A3008 RMK AO2 LTG DSNT NE-SE TSE09
KMCI 301553Z VRB04KT 10SM BKN043 OVC055 24/17 A3005 RMK AO2 SLP167 T02390172
KMCJ 301635Z AUTO 00000KT 10SM FEW035 34/22 A3000 RMK AO1
KMCK 301553Z AUTO 15006KT 10SM CLR 27/18 A2999 RMK AO2 SLP130 T02670178
KMCN 301553Z 24010KT 10SM FEW043 BKN085 BKN110 33/21 A3005 RMK AO2 SLP170 T03280211
KMCO 301553Z 35004KT 10SM SCT030 SCT250 33/23 A3007 RMK AO2 SLP181 T03280233
KMCW 301650Z AUTO 00000KT 10SM SCT018 24/19 A3006 RMK AO2
KMCX 301635Z AUTO 00000KT 5SM HZ OVC011 23/19 A2997 RMK AO2 T02260186
KMDD 301635Z AUTO 19012G15KT 10SM CLR 31/16 A3010 RMK AO2 T03100159
KMDH 301552Z AUTO VRB03KT 10SM SCT019 27/21 A3000 RMK AO2 SLP154 T02720211
KMDQ 301635Z AUTO 00000KT 10SM CLR 28/17 A3004 RMK AO2 LTG DSNT S AND SW
KMDS 301630Z AUTO 16006KT 10SM SCT032 23/17 A3003 RMK AO2
KMDT 301556Z 11005KT 5SM HZ FEW040 SCT100 OVC200 28/24 A2997 RMK AO2 RAE38 SLP147 CB DSNT S-SW P0000 T02780244
KMDW 301553Z 06008KT 10SM BKN013 OVC019 23/18 A2998 RMK AO2 SLP143 T02280183
KMDZ 301635Z AUTO 10004KT 10SM CLR 23/14 A3008 RMK AO2 T02260140
KMEB 301552Z AUTO 25008KT 10SM CLR 34/22 A3000 RMK AO2 SLP154 T03440222
KMEH 301556Z AUTO 24005KT 10SM CLR 23/03 A2995 RMK AO2 SLP109 T02280028
KMEI 301558Z AUTO 00000KT 10SM SCT036 BKN048 33/23 A3006 RMK AO2 SLP173 T03280228
KMEM 301554Z 21005KT 10SM FEW013 28/23 A3002 RMK AO2 SLP160 T02830228
KMER 301645Z 27005KT 10SM SKC 33/11 A2976
KMFD 301552Z 25005KT 10SM FEW020 FEW031 SCT039 27/21 A2997 RMK AO2 SLP139 T02670206
KMFE 301553Z 16009KT 10SM SCT033 33/23 A3001 RMK AO2 SLP160 T03330233
KMFI 301554Z AUTO 09005KT 10SM CLR 24/16 A3006 RMK AO2 SLP175 T02390161
KMFR 301553Z 00000KT 10SM CLR 24/11 A2992 RMK AO2 SLP118 T02390111
KMFV 301637Z AUTO 00000KT 10SM CLR 29/21 A3002 RMK AO2
KMGC 301635Z AUTO 10SM BKN015 OVC027 22/18 A2999 RMK AO2
KMGE 301638Z 32003G26KT 3SM -TSRA BKN025CB OVC060 24/20 A3008 RMK AO2A TS 2E MOV E $
KMGG 301633Z AUTO 12003KT 10SM CLR 24/18 A3005 RMK AO2 T02410182
KMGJ 301554Z AUTO 01004KT 10SM BKN090 26/19 A3004 RMK AO2 SLP169 T02610189 TSNO $
KMGM 301553Z 30007KT 10SM CLR 33/22 A3006 RMK AO2 SLP176 T03280222
KMGN 301635Z AUTO 06010G15KT 10SM CLR 24/11 A3008 RMK AO2 T02430118
KMGR 301634Z AUTO 22003KT 10SM CLR 32/21 A3008 RMK AO2 LTG DSNT SW
KMGW 301553Z 22009KT 10SM FEW026 SCT070 27/19 A3000 RMK AO2 LTG DSNT W SLP146 T02670194
KMGY 301628Z AUTO 32004KT 10SM FEW024 28/19 A2998 RMK AO2 T02780194
KMHE 301553Z AUTO 16011KT 10SM CLR 26/17 A2998 RMK AO2 SLP147 T02560172
KMHK 301552Z 13005KT 10SM CLR 27/19 A3001 RMK AO2 SLP152 T02670194
KMHL 301635Z AUTO 30007KT 10SM SCT028 26/19 A3005 RMK AO2
KMHR 301645Z 18006KT 10SM SKC 25/10 A2977
KMHS 301556Z AUTO 00000KT 10SM CLR 26/11 A2997 RMK AO2 SLP123 T02560111
KMHT 301553Z 32006KT 10SM FEW150 BKN250 27/09 A3003 RMK AO2 SLP177 T02670094
KMIA 301553Z 09006KT 10SM FEW034 SCT048 SCT230 32/21 A3007 RMK AO2 SLP183 T03220206
KMIB 301558Z AUTO VRB03KT 10SM CLR 25/16 A2988 RMK AO2 SLP117 T02460162
KMIC 301553Z 13004KT 10SM OVC075 23/17 A3003 RMK AO2 SLP166 T02280167
KMIE 301609Z 29006KT 10SM SCT013 BKN020 26/21 A2998 RMK AO2 T02560211
KMIV 301554Z AUTO VRB06KT 10SM CLR 29/22 A3001 RMK AO2 SLP162 T02940217
KMIW 301553Z AUTO 30004KT 10SM FEW013 OVC036 22/19 A3003 RMK AO2 SLP164 T02220189
KMJQ 301632Z AUTO 16003KT 10SM CLR 23/12 A3006 RMK AO2
KMJX 301556Z AUTO 00000KT 10SM BKN020 BKN027 29/24 A3001 RMK AO2 SLP168 T02940239
KMKC 301554Z 00000KT 10SM BKN047 26/18 A3003 RMK AO2 SLP162 T02560178
KMKE 301552Z 05012KT 10SM SCT012 SCT021 BKN120 23/18 A3002 RMK AO2 SLP162 T02330178
KMKG 301555Z 05009KT 10SM SCT022 BKN065 BKN100 BKN230 23/17 A3002 RMK AO2 SLP162 T02330167
KMKJ 301635Z AUTO 26011G14KT 10SM BKN019 OVC027 25/20 A3015 RMK AO2 T02490200
KMKL 301553Z 13003KT 10SM FEW006 24/23 A3002 RMK AO2 RAB1457E25 SLP161 P0002 T02390228
KMKN 301635Z AUTO 24010KT 10SM CLR 32/19 A3005 RMK AO2 T03190192
KMKO 301649Z AUTO 19003KT 10SM VCTS -RA BKN030 OVC038 27/23 A3004 RMK AO2 LTG DSNT ALQDS RAB44 TSE02B28E43 P0000
KMKS 301635Z AUTO 18003KT 7SM CLR 33/18 A3001 RMK AO2
KMKT 301635Z 08005KT 10SM FEW060 SCT075 24/16 A3004 RMK AO1
KMKY 301635Z AUTO 27004KT 10SM FEW027 SCT046 BKN060 31/23 A3008 RMK AO1
KMLB 301553Z 09006KT 10SM FEW038 33/24 A3007 RMK AO2 SLP181 T03280239
KMLC 301553Z AUTO 22010KT 10SM BKN110 31/23 A3001 RMK AO2 SLP149 T03060228
KMLE 301635Z AUTO 11004KT 10SM BKN110 22/18 A3003 RMK AO2 LTG DSNT SW T02210180
KMLF 301552Z AUTO 19023G30KT 10SM CLR 28/11 A3007 RMK AO2 PK WND 20030/1543 SLP100 T02780106
KMLI 301552Z 08005KT 9SM SCT017 OVC040 25/19 A2999 RMK AO2 SLP151 T02500194
KMLJ 301635Z AUTO 28004KT 10SM SCT038 SCT044 33/23 A3004 RMK AO2 LTG DSNT NE
KMLP 301553Z AUTO 10SM CLR 19/06 A3001 RMK AO2 SLP052 T01890061
KMLS 301553Z AUTO 10005KT 10SM CLR 26/12 A2986 RMK AO2 SLP088 T02560117
KMLT 301553Z AUTO 31007KT 260V340 10SM BKN060 24/09 A3001 RMK AO2 SLP166 T02440089
KMLU 301553Z 27008KT 10SM CLR 32/24 A3004 RMK AO2 SLP170 T03170239
KMMH 301635Z AUTO 13005KT 10SM 25/06 A3027 RMK AO2 T02510057
KMMI 301635Z AUTO 22005KT 10SM BKN024 28/22 A3007 RMK
KMMK 301553Z AUTO 12005KT 10SM CLR 29/18 A3002 RMK AO2 SLP163 T02890178 TSNO
KMML 301556Z AUTO 00000KT 10SM FEW038 24/13 A3004 RMK AO2 SLP170 T02390133
KMMT 301558Z 25004KT 10SM FEW040 SCT110 SCT250 33/22 A3002 RMK AO2A SLP166 T03310217 $
KMMU 301645Z 11003KT 10SM BKN025 BKN035 29/22 A3001
KMMV 301553Z AUTO 00000KT 10SM CLR 17/12 A3002 RMK AO2 SLP164 T01670117
KMNE 301635Z AUTO 27004KT 10SM CLR 32/23 A3004 RMK AO2 T03220232
KMNH 301638Z AUTO 29009G15KT 10SM CLR 27/02 A3019 RMK AO2
KMNI 301635Z AUTO 23008KT 10SM SCT060 33/20 A3001 RMK AO2
KMNM 301556Z AUTO 11009KT 10SM CLR A3009 RMK AO2 SLPNO FZRANO PNO $
KMNN 301600Z AUTO 24005KT 9SM SCT025 BKN031 28/20 A2997 RMK AO2 T02780200 TSNO
KMNZ 301635Z AUTO 25009G14KT 10SM CLR 32/20 A3006 RMK AO2 T03200200
KMOB 301556Z VRB06KT 10SM FEW026 SCT250 31/23 A3008 RMK AO2 SLP182 CB DSNT SE TCU DSNT SE-S T03110228
KMOD 301553Z 33005KT 10SM CLR 28/09 A2975 RMK AO2 SLP075 T02780094 $
KMOP 301636Z AUTO 06006KT 10SM SCT027 OVC035 21/18 A3004 RMK AO2 T02080176
KMOT 301554Z VRB04KT 10SM CLR 26/16 A2988 RMK AO2 SLP111 T02610156
KMOX 301633Z AUTO 13007KT 10SM CLR 25/15 A3002 RMK AO2
KMPO 301553Z AUTO 12007KT 10SM FEW022 SCT027 BKN065 24/18 A3008 RMK AO2 SLP175 T02390178
KMPV 301551Z AUTO 36005KT 10SM FEW039 22/13 A3013 RMK AO2 SLP200 T02220128 $
KMPZ 301635Z AUTO 04006KT 10SM BKN070 26/22 A3000 RMK AO2 T02620218
KMQB 301635Z AUTO 35003KT 10SM SCT023 SCT033 BKN041 24/19 A3002 RMK AO2 T02390194
KMQE 301554Z AUTO VRB04KT 27/14 A3004 RMK AO1 SLP179 T02670139
KMQI 301640Z AUTO 10011KT 10SM CLR 30/25 A3001 RMK AO2 T03010248
KMQJ 301638Z AUTO 25005KT 10SM SCT034 28/20 A2998 RMK AO1
KMQS 301635Z AUTO 18007G12KT 150V240 10SM FEW025 SCT031 27/22 A3003 RMK AO2
KMQY 301556Z VRB04KT 10SM BKN022 27/23 A3004 RMK AO2 T02720227 SLP177 $
KMRB 301553Z 18006KT 10SM SCT050 SCT060 28/23 A2996 RMK AO2 SLP140 T02780233 PNO $
KMRC 301635Z AUTO 25007KT 10SM FEW070 29/26 A3003 RMK
KMRF 301556Z AUTO 18007KT 10SM CLR 23/17 A3021 RMK AO2 SLP173 T02330167
KMRH 301558Z AUTO 19006KT 10SM CLR 31/27 A2999 RMK AO2 SLP156 T03060272 TSNO
KMRJ 301630Z AUTO 08008KT 10SM CLR 25/16 A3003 RMK AO2
KMRN 301635Z AUTO 00000KT 10SM CLR 30/20 A3009 RMK AO2 T02950203
KMRT 301633Z AUTO 28008KT 10SM SCT024 SCT030 BKN035 27/21 A2997 RMK AO2 T02680213
KMRY 301620Z 35003KT 10SM FU OVC005 14/11 A2987 RMK AO2 T01390111
KMSL 301633Z AUTO 00000KT 10SM VCTS FEW060 28/22 A3005 RMK AO2 LTG DSNT ALQDS T02830222
KMSN 301553Z 04008KT 10SM FEW025 FEW110 BKN250 23/16 A3002 RMK AO2 SLP163 T02330156
KMSO 301553Z 00000KT 10SM CLR 22/09 A2988 RMK AO2 SLP091 T02220089
KMSP 301553Z 18003KT 10SM SCT018 OVC075 22/18 A3005 RMK AO2 SLP171 T02220178
KMSS 301553Z AUTO 07004KT 10SM FEW050 24/14 A3010 RMK AO2 SLP190 T02390139
KMSV 301635Z AUTO 06006KT 10SM FEW070 24/19 A3008 RMK AO1
KMSY 301553Z 29006KT 10SM SCT031 SCT250 33/23 A3006 RMK AO2 SLP182 T03280233
KMTC 301558Z 03006KT 10SM OVC022 23/18 A2998 RMK AO2A CB 16N MOV N SLP153 T02310181 $
KMTH 301553Z AUTO 06007KT 10SM FEW028 FEW037 31/24 A3008 RMK AO2 SLP185 T03110239
KMTJ 301553Z AUTO 35006KT 10SM CLR 24/07 A3017 RMK AO2 SLP123 T02390072
KMTN 301645Z 15011KT 10SM FEW030 SCT075 BKN200 31/26 A2998
KMTO 301553Z AUTO 30007KT 10SM SCT028 BKN035 25/19 A2998 RMK AO2 SLP146 T02500189
KMTP 301554Z AUTO VRB03KT 27/21 A3005 RMK AO1 SLP175 T02720206
KMTV 301635Z AUTO 19004KT 10SM CLR 31/21 A3003 RMK AO2 T03090207
KMTW 301556Z AUTO 06007KT 10SM SCT100 22/15 A3006 RMK AO2 SLP195 T02170150
KMUI 301639Z AUTO VRB02KT 10SM -RA SCT100 27/22 A2998 RMK AO2 RAB19E28DZB28E32RAB39
KMUO 301558Z AUTO 33005KT 10SM CLR 28/06 A2985 RMK AO2 SLP074 T02800061 $
KMUT 301635Z AUTO 00000KT 10SM FEW027 BKN055 OVC075 24/19 A3000 RMK AO2
KMVE 301632Z AUTO 00000KT 10SM CLR 25/15 A3005 RMK AO2
KMVL 301554Z AUTO 34003KT 10SM BKN049 23/12 A3010 RMK AO2 SLP192 T02280117 TSNO
KMVN 301635Z AUTO 25004KT 10SM FEW036 SCT060 27/19 A3000 RMK AO1
KMVY 301639Z 21007KT 170V240 10SM FEW024 SCT029 SCT065 27/22 A3004 RMK AO2 T02670217 PNO
KMWA 301545Z 30005KT 25SM SCT016 26/22 A3001
KMWC 301645Z 05008G15KT 10SM SCT023 22/14 A3003
KMWH 301552Z 22005KT 10SM CLR 27/08 A2975 RMK AO2 SLP063 T02720083
KMWK 301640Z AUTO 19006KT 10SM SCT040 31/22 A3005 RMK AO2 T03130218
KMWL 301553Z AUTO 23008KT 10SM CLR 31/21 A3001 RMK AO2 SLP147 T03110211
KMWM 301634Z AUTO 00000KT 10SM CLR 23/12 A3005 RMK AO2
KMWN 301551Z VRB02KT 100SM FEW/// SCT003 SCT100 BKN180 BKN200 12/07
KMWO 301635Z AUTO 26005KT 10SM SCT030 SCT035 28/19 A2998 RMK AO2 T02810187
KMWT 301553Z AUTO 13003KT 10SM CLR 28/22 A3002 RMK AO2 SLP153 T02780217
KMXF 301558Z AUTO VRB04KT 10SM FEW033 32/23 A3005 RMK AO2 SLP177 T03170228
KMXO 301635Z AUTO 07005KT 10SM SCT021 BKN027 OVC055 23/19 A3002 RMK AO2
KMYF 301616Z 18009KT 8SM SCT010 22/17 A2991 RMK AO2 T02220172
KMYJ 301655Z AUTO 27006KT 10SM SCT024 BKN035 BKN045 26/21 A3003 RMK AO2 PWINO
KMYL 301551Z AUTO 21004KT 10SM CLR 21/08 A2999 RMK AO2 SLP098 T02060083
KMYP 301634Z AUTO 10SM CLR 15/00 A3073 RMK AO2
KMYR 301445Z 29007KT 10SM CLR 34/22 A3002
KMYV 301553Z AUTO 17005KT 10SM CLR 27/09 A2976 RMK AO2 SLP079 T02670094
KMYZ 301635Z AUTO 13007KT 10SM SCT045 SCT050 26/18 A3002 RMK AO2 LTG DSNT W THRU N
KMZH 301634Z AUTO 00000KT 10SM SCT025 23/16 A3005 RMK AO2
KMZZ 301635Z AUTO 23003KT 10SM OVC017 22/22 A2999 RMK AO2 T02240216
KN03 301635Z AUTO 06004KT 5SM RA SCT018 SCT032 BKN047 19/18 A3008 RMK AO2
KN60 301552Z AUTO VRB04KT 23/19 A2989 RMK AO1 SLP115 T02330189
KNAK 301554Z AUTO 00000KT CLR A2998 RMK AO2 SLP156 $
KNBC 301556Z AUTO VRB05KT 10SM FEW050 35/22 A3003 RMK AO2 SLP170 T03500217
KNBG 301555Z 27006KT 10SM FEW030 SCT055 SCT250 32/24 A3006 RMK AO2 SLP178 T03170239 $
KNCA 301556Z AUTO 10006KT 10SM CLR 34/24 A2998 RMK AO2 SLP154 T03390244
KNDZ 301056Z AUTO 32003KT 7SM CLR 25/24 A3002 RMK AO2 SLP149 T02500244
KNEL 301647Z AUTO 19003KT 7SM FEW027 SCT036 BKN050 29/22 A3000 RMK AO2 T02940222 $
KNEW 301553Z AUTO 30007KT 10SM CLR 31/24 A3007 RMK AO2 SLP174 T03110244
KNFE 301556Z AUTO 11007KT 10SM FEW027 33/24 A3000 RMK AO2 SLP160 T03280239
KNFG 301631Z COR 23006KT 7SM SCT015 BKN038 24/20 A2988 RMK AO2 T02440200 $
KNFL 301601Z 24005KT 10SM SCT200 31/07 A2999 RMK AO2 FU ALQDS T03110067 $
KNFW 301552Z 23010KT 10SM FEW250 33/20 A3001 RMK AO2 SLP144 T03330200 $
KNGP 301556Z 16009KT 10SM SCT022 SCT250 32/24 A3001 RMK AO2 SLP163 CB DSNT SE-S T03170239 $
KNGU 301559Z 06011KT 10SM SCT036 BKN200 BKN300 32/23 A3000 RMK AO2 SLP160 T2 SET T03220233
KNHK 301552Z 16009KT 10SM FEW030 SCT045 BKN065 BKN180 29/22 A2999 RMK A02 SLP157 T2 SET T02890222
KNID 301556Z AUTO 00000KT 10SM CLR 34/05 A2990 RMK AO2 SLP094 T03390050 $
KNIP 301553Z 01005KT 10SM SCT034 BKN120 BKN250 33/23 A3008 RMK AO2 SLP181 T03280228
KNJK 301556Z 17006KT 7SM BKN090 31/22 A2985 RMK AO2 SLP122 T03110217 $
KNJM 301557Z AUTO 17006KT 10SM CLR 33/25 A3000 RMK AO2 SLP161 T03330250 $
KNKT 301554Z 21004KT 10SM CLR 33/25 A2999 RMK AO2 SLP152 T03330250
KNKX 301609Z 20009KT 9SM SCT011 24/18 A2990 RMK AO2 T02390178
KNLC 301556Z AUTO 34005KT 10SM CLR 31/07 A2977 RMK AO2 SLP080 T03110067
KNMM 301556Z AUTO 29008KT 10SM SCT035 33/21 A3006 RMK AO2 SLP184 T03280211
KNOG 301556Z AUTO 20010KT 10SM SCT032 33/24 A3002 RMK AO2 SLP146 T03280239 $
KNOW 301635Z AUTO 31004KT 10SM SCT065 14/11 A2994 RMK AO2 T01440106
KNPA 301556Z VRB04KT 10SM FEW025 SCT030 BKN250 31/23 A3005 RMK AO2 SLP178 CB DSNT S-SW T2 SET T03110233
KNQA 301650Z 25006KT 10SM BKN019 29/25 A3002
KNQI 301556Z AUTO 18009KT 10SM SCT037 33/25 A3000 RMK AO2 SLP156 T03280250 $
KNQX 301553Z 08003KT 10SM FEW022 FEW250 32/24 A3008 RMK AO2 SLP183 T03220239 $
KNRB 301552Z AUTO 04007KT 10SM FEW036 BKN060 33/23 A3007 RMK AO2 SLP183 T03330228
KNRS 301556Z AUTO 21012KT 9SM SCT014 24/18 A2990 RMK AO2 SLP125 T02440183 $
KNSE 301556Z AUTO A3007 RMK AO2 SLPNO PWINO TSNO $
KNSI 301632Z AUTO VRB03KT 10SM BKN007 21/ A2989 RMK AO2 T0211 PWINO $
KNTD 301556Z 14003KT 9SM FEW012 23/18 A2988 RMK AO2 SLP119 T02330178 $
KNTU 301556Z 11012KT 10SM FEW020 SCT140 BKN280 33/24 A3000 RMK AO2 SLP161 T2 SET T03280239
KNUI 301553Z AUTO 14006KT 10SM FEW048 SCT055 SCT075 29/23 A2999 RMK AO2 SLP156 T02890233
KNUQ 301637Z 35003KT 10SM SCT011 19/14 A2984 RMK AO2 T01890139
KNUW 301556Z 16008KT 10SM SCT055 18/11 A2998 RMK SLP151 T01830111
KNXF 301646Z AUTO 17010KT 6SM HZ OVC015 24/21 A2989 RMK AO2 T02390206
KNXP 301556Z 19011KT 6SM HZ FEW150 31/17 A3002 RMK AO2 PK WND 13028/1510 SLP124 T03110172 $
KNYC 301651Z AUTO 07005KT 6SM HZ FEW028 BKN110 27/20 A3004 RMK AO2 SLP162 T02670200 $
KNYG 301556Z AUTO 23007G15KT 10SM FEW085 SCT120 28/22 A3000 RMK AO2 SLP159 T02780222
KNYL 301638Z AUTO 17010KT 3SM BR FEW050 28/23 A2983 RMK AO2 WSHFT 1548 T02830233
KNZY 301552Z 17009KT 9SM BKN014 BKN200 21/18 A2989 RMK AO2 SLP121 T02110183 PNO $
KO22 301635Z AUTO 00000KT 10SM CLR 33/08 A2986 RMK AO1
KOAJ 301556Z AUTO VRB04KT 10SM CLR 34/25 A2999 RMK AO2 SLP157 T03440250
KOAK 301553Z 29003KT 10SM OVC006 16/13 A2984 RMK AO2 SLP105 T01560133
KOBE 301635Z AUTO 00000KT 10SM SCT036 SCT044 32/23 A3007 RMK AO2 LTG DSNT NW
KOCF 301650Z 24014G18KT 10SM TS BKN040 30/23 A3009
KOCH 301635Z 00000KT 10SM CLR A3002 RMK AO1
KOCQ 301635Z AUTO 06008KT 040V100 10SM CLR 23/14 A3008 RMK AO1 T02280140
KOCW 301640Z AUTO 17007KT 10SM CLR 32/26 A2998 RMK AO2 T03220256
KODO 301553Z AUTO 18012KT 10SM CLR 29/16 A3010 RMK AO2 SLP139 T02890156
KODX 301553Z AUTO 18007KT 10SM FEW060 22/18 A3000 RMK AO2 SLP151 T02220178
KOEB 301635Z AUTO 04003KT 10SM OVC018 22/19 A2999 RMK AO2 T02170193
KOEO 301635Z AUTO 08006KT 10SM BKN027 BKN036 BKN070 24/17 A3007 RMK AO2 T02370167
KOFF 301558Z 09005KT 10SM FEW015 OVC200 22/19 A3003 RMK AO2A SLP168 T02190185
KOFK 301556Z AUTO 12010KT 10SM CLR 22/16 A3001 RMK AO2 SLP153 T02220161
KOFP 301643Z AUTO 00000KT 9SM VCTS FEW090 27/23 A3001 RMK AO2 LTG DSNT SE AND S RAE03 P0000 T02720233
KOGA 301635Z AUTO 09006KT 10SM CLR 26/17 A3000 RMK AO2 T02610172
KOGB 301553Z AUTO 25008G15KT 10SM CLR 34/21 A3003 RMK AO2 SLP165 T03440211
KOGD 301553Z 16008KT 10SM CLR 27/06 A2997 RMK AO2 SLP081 T02670061
KOJA 301635Z AUTO 11006KT 10SM CLR 26/22 A3000 RMK AO2
KOJC 301553Z 04003KT 10SM FEW044 SCT065 26/17 A3005 RMK AO2 SLP163 T02610172
KOKB 301637Z AUTO 19009KT 8SM OVC014 24/18 A2988 RMK AO2 T02390183
KOKC 301552Z 07006KT 10SM FEW085 SCT180 BKN250 27/22 A2999 RMK AO2 SLP141 T02670222
KOKK 301635Z AUTO 00000KT 10SM SCT014 OVC019 24/19 A2998 RMK AO1
KOKM 301635Z AUTO 34003KT 10SM VCTS SCT033 SCT055 BKN100 25/24 A3002 RMK AO2 LTG DSNT N THRU E P0001 T02500239
KOKV 301635Z AUTO 17010KT 10SM SCT028 BKN037 30/23 A2996 RMK AO2
KOKZ 301635Z AUTO 28005KT 10SM SCT050 BKN095 OVC110 32/24 A3005 RMK AO2 T03170240
KOLE 301635Z AUTO 09007KT 10SM BKN017 BKN024 OVC100 16/16 A3008 RMK AO2
KOLF 301553Z AUTO 07007KT 10SM CLR 24/13 A2985 RMK AO2 SLP100 T02440133
KOLG 301635Z AUTO 21007KT 10SM SCT035 23/15 A3006 RMK AO1
KOLM 301554Z 21011KT 10SM BKN021 16/09 A2998 RMK AO2 SLP152 T01560094
KOLS 301554Z AUTO 14004KT 10SM CLR 26/18 A3010 RMK AO2 SLP123 T02560183
KOLU 301635Z AUTO 08006KT 10SM FEW010 SCT033 20/15 A3003 RMK AO2 PWINO FZRANO RVRNO
KOLV 301550Z 18006KT 9SM BKN012 A3001
KOLY 301635Z AUTO 29006KT 10SM SCT032 BKN040 27/21 A3000 RMK AO2
KOLZ 301635Z AUTO 00000KT 10SM SCT020 BKN024 OVC045 23/18 A3004 RMK AO2
KOMA 301552Z 00000KT 10SM FEW020 BKN250 23/18 A3004 RMK AO2 SLP165 T02280178
KOMH 301635Z AUTO 14009G14KT 10SM 30/22 A3001 RMK AO2 LTG DSNT SE AND S
KOMK 301553Z AUTO 34004KT 10SM CLR 26/09 A2973 RMK AO2 SLP057 T02610089
KOMN 301650Z 08010KT 10SM SCT030 32/23 A3007
KONA 301634Z AUTO 00000KT 10SM OVC060 25/16 A3004 RMK AO2
KONL 301635Z AUTO 15008KT 10SM CLR 24/17 A3000 RMK AO2 T02420172
KONM 301635Z AUTO 13012KT 10SM CLR 29/10 A3014 RMK AO2 T02880104
KONO 301553Z AUTO 00000KT 10SM CLR 27/15 A2983 RMK AO2 SLP080 T02720150
KONP 301635Z AUTO 35014KT 7SM CLR 17/11 A3007 RMK AO2
KONT 301553Z 24004KT 7SM BKN019 OVC130 24/18 A2990 RMK AO2 SLP107 CIG 017V022 T02440178
KONX 301640Z AUTO 09006KT 10SM SCT023 31/24 A3001 RMK AO2 T03060241
KONZ 301634Z AUTO 04011G16KT 10SM BKN020 BKN026 OVC035 24/20 A2996 RMK AO2 T02380197
KOOA 301635Z AUTO 35005KT 7SM SCT010 BKN041 OVC070 23/20 A3003 RMK AO2 T02260199
KOPF 301553Z VRB03KT 10SM FEW046 33/22 A3007 RMK AO2 SLP184 T03330217
KOPL 301635Z AUTO 33006KT 10SM BKN029 BKN037 BKN046 30/24 A3005 RMK AO2 T03040239 PWINO
KOPN 301635Z AUTO 32006KT 10SM BKN036 BKN043 BKN050 30/19 A3008 RMK AO2
KOQT 301553Z AUTO VRB06KT 10SM FEW022 28/21 A3005 RMK AO2 SLP158 T02830211
KOQU 301550Z 11004KT 15SM FEW050 FEW250 27/17 A3004
KORB 301633Z AUTO 00000KT 10SM CLR 23/10 A3003 RMK AO2
KORD 301639Z 05009KT 10SM SCT014 BKN021 OVC029 22/18 A2999 RMK AO2 T02220183
KORE 301552Z AUTO 00000KT 10SM OVC050 26/13 A3005 RMK AO2 SLP175 T02610133
KORF 301551Z AUTO 08009KT 10SM BKN038 31/23 A2999 RMK AO2 SLP154 T03110233 TSNO
KORG 301635Z AUTO 00000KT 10SM SCT032 SCT046 32/21 A3005 RMK AO2 T03170208
KORH 301554Z 00000KT 10SM SCT047 26/13 A3007 RMK AO2 SLP177 T02560133
KORL 301553Z VRB03KT 10SM CLR 32/23 A3007 RMK AO2 SLP185 T03170233
KORS 301655Z AUTO 01004KT 10SM CLR 19/09 A2992 RMK AO2
KOSA 301635Z AUTO 24009G15KT 10SM CLR 34/19 A3003 RMK AO1 T03360193
KOSC 301634Z AUTO 07013G18KT 10SM BKN020 24/16 A3008 RMK AO2 T02380155
KOSH 301553Z 05010KT 10SM CLR 23/15 A3004 RMK AO2 SLP162 T02280150
KOSU 301615Z 23007KT 10SM SCT026 BKN034 28/21 A2997 RMK AO2 T02780211
KOTG 301556Z AUTO 13004KT 10SM CLR 23/13 A3006 RMK AO2 SLP175 T02280128
KOTH 301635Z 36018G23KT 10SM CLR 18/12 A3003 RMK AO1
KOTM 301627Z AUTO 32006KT 10SM SCT015 BKN026 OVC070 23/19 A3002 RMK AO2 T02280189
KOUN 301640Z AUTO 10006KT CLR 28/23 A2999 RMK AO2 TSNO PWINO
KOVE 301553Z AUTO 18004KT 10SM CLR 28/10 A2978 RMK AO2 SLP084 T02830100
KOVL 301633Z AUTO 17004KT 10SM CLR 23/13 A3004 RMK AO2
KOVS 301553Z AUTO VRB04KT 10SM CLR 23/18 A3002 RMK AO2 SLP165 T02330178
KOWA 301636Z AUTO 00000KT 10SM SCT025 SCT095 23/17 A3004 RMK AO2
KOWB 301647Z 25008KT 6SM HZ BKN022 29/23 A3000 RMK AO2
KOWD 301553Z VRB05KT 10SM FEW050 29/16 A3002 RMK AO2 SLP165 T02890156
KOWP 301635Z AUTO 34008KT 10SM -VCTSRA SCT036 SCT046 SCT110 24/22 A3004 RMK AO2 LTG DSNT ALQS P0001 T02380221
KOXB 301553Z AUTO 15005KT 10SM CLR 28/22 A3002 RMK AO2 SLP166 T02830222 TSNO
KOXC 301635Z 18007KT 10SM FEW040 BKN200 28/18 A3008
KOXI 301635Z AUTO 05005KT 7SM SCT009 SCT013 OVC022 22/18 A2997 RMK AO1
KOXR 301551Z 00000KT 10SM CLR 23/18 A2987 RMK AO2 SLP115 T02280178
KOXV 301635Z AUTO VRB05KT 10SM SCT014 BKN020 OVC070 23/19 A3002 RMK AO2
KOZA 301635Z AUTO 17012KT 10SM CLR 30/17 A3011 RMK AO2
KOZR 301556Z AUTO 00000KT 10SM FEW027 SCT037 31/25 A3007 RMK AO2 SLP182 T03140252
KOZS 301635Z AUTO 28004KT 10SM CLR 27/18 A3005 RMK AO2
KOZW 301635Z AUTO 06005KT 7SM -RA OVC006 19/19 A3001 RMK AO2 T01910187
KP28 301556Z AUTO 12007G15KT 26/19 A2999 RMK AO1 SLP140 T02560194
KP53 301556Z AUTO 05007KT 23/16 A3009 RMK AO1 SLP188 T02330161
KP58 301551Z AUTO 08009KT 21/16 A3005 RMK AO1 SLP170 T02060161
KP59 301551Z AUTO VRB04KT 23/13 A3009 RMK AO1 SLP182 T02280133
KP60 301556Z AUTO 13004KT 16/09 A3022 RMK AO1 SLP150 T01610094 $
KP68 301553Z AUTO 00000KT 26/06 A3013 RMK AO1 SLP105 T02610056
KP69 301552Z AUTO 00000KT 21/13 A2983 RMK AO1 SLP079 T02060133
KP92 301553Z AUTO VRB03KT 31/24 A3004 RMK AO1 SLP171 T03110244
KPAE 301553Z 20007KT 10SM SCT017 17/12 A2996 RMK AO2 SLP144 T01720117
KPAH 301553Z 30006KT 10SM OVC012 25/22 A3001 RMK AO2 SLP158 T02500217
KPAM 301556Z AUTO VRB03KT 10SM CLR 30/24 A3007 RMK AO2 LTG DSNT E-SE AND NW RAE14DZB14E18 SLP186 P0003 T03000244
KPAN 301635Z AUTO 21006KT 10SM CLR 26/13 A3018 RMK AO2
KPAO 301552Z 00000KT 7SM OVC008 17/15 A2983
KPBF 301553Z AUTO 26007KT 10SM CLR 29/21 A3002 RMK AO2 SLP164 T02890211
KPBG 301553Z AUTO 05007KT 10SM CLR 23/15 A3008 RMK AO2 SLP187 T02280150
KPBH 301635Z AUTO 13005KT 10SM CLR 23/13 A3009 RMK AO2 T02310134
KPBI 301553Z 00000KT 10SM SCT036 SCT250 34/22 A3007 RMK AO2 SLP183 T03390222 $
KPBX 301635Z AUTO 23004KT 10SM BKN016 OVC023 25/22 A3006 RMK AO2 T02460224
KPCM 301635Z AUTO 28005G15KT 10SM SCT032 BKN038 BKN070 31/25 A3010 RMK AO2
KPCW 301638Z AUTO 06009KT 10SM BKN023 BKN043 27/22 A2995 RMK AO2 PWINO
KPCZ 301635Z AUTO 04006KT 10SM CLR 26/16 A3006 RMK AO2 T02550156
KPDC 301635Z AUTO 08004KT 10SM SCT024 24/18 A3002 RMK AO2 T02400181
KPDK 301631Z 32006KT 10SM VCTS SCT028 BKN040 BKN100 32/22 A3006 RMK AO2 LTG DSNT W AND NW T03170222 $
KPDT 301553Z 26014KT 10SM CLR 27/07 A2982 RMK AO2 SLP077 T02720072
KPDX 301553Z 33006KT 10SM SCT025 17/10 A3002 RMK AO2 SLP162 T01720100
KPEA 301635Z AUTO 00000KT 10SM BKN009 BKN018 23/19 A3004 RMK AO2 T02270191
KPEO 301632Z AUTO 00000KT 10SM FEW007 BKN039 BKN050 19/17 A3007 RMK AO2 RAE31 P0001 T01940172 TSNO
KPEQ 301635Z AUTO 12008KT 10SM CLR 31/15 A3004 RMK AO2 T03130151
KPEX 301633Z AUTO 14004KT 10SM CLR 24/12 A3006 RMK AO2 T02360124
KPEZ 301635Z AUTO 17008KT 10SM SCT030 SCT040 32/21 A3004 RMK AO2 T03160209
KPGA 301553Z AUTO 30006KT 10SM CLR 32/07 A3002 RMK AO2 SLP085 T03170067 TSNO
KPGD 301553Z VRB04KT 10SM FEW031 32/23 A3008 RMK AO2 SLP188 T03220233
KPGV 301645Z AUTO 17006KT 10SM CLR 34/26 A2999 RMK AO2
KPHD 301613Z AUTO 00000KT 10SM SCT023 BKN030 OVC042 26/21 A2998 RMK AO2 T02560206
KPHF 301554Z 11008KT 10SM SCT036 31/23 A2999 RMK AO2 SLP156 T03110228
KPHL 301554Z 18007KT 10SM SCT025 SCT100 SCT150 BKN220 31/22 A2999 RMK AO2 SLP156 T03060222
KPHN 301636Z AUTO 02008KT 10SM SCT031 BKN120 24/18 A3000 RMK AO2
KPHP 301555Z AUTO 12008KT 10SM CLR 26/17 A2991 RMK AO2 SLP109 T02560172
KPHT 301635Z AUTO VRB04KT 10SM FEW025 27/22 A3002 RMK
KPHX 301551Z 17009KT 10SM FEW110 SCT150 BKN250 32/18 A2989 RMK AO2 SLP102 T03170178
KPIA 301641Z 34007KT 10SM BKN026 BKN039 BKN065 26/20 A2998 RMK AO2 T02560200
KPIB 301635Z AUTO 30003KT 10SM FEW041 31/23 A3008 RMK AO1
KPIE 301613Z 34005KT 10SM FEW018 SCT038 28/19 A3008 RMK AO2 LTG DSNT ALQDS RAE1556 P0000 T02830189 $
KPIH 301553Z 26008KT 10SM CLR 28/05 A2997 RMK AO2 SLP085 T02830050 $
KPIL 301646Z AUTO 00000KT 2SM -RA SCT028 BKN040 BKN060 29/25 A3001 RMK AO2 LTG DSNT SW AND NW RAB11 TSE40 P0033 T02940250
KPIM 301635Z AUTO 32005KT 10SM SCT034 SCT060 SCT095 32/23 A3008 RMK AO2 T03240229
KPIR 301553Z AUTO 16017KT 10SM CLR 27/16 A2991 RMK AO2 SLP113 T02720161
KPIT 301640Z 05004KT 9SM BKN006 OVC027 22/19 A2999 RMK AO2 RAE27 TSB00E27 P0010 T02170194 $
KPKB 301641Z VRB04KT 9SM SCT011 BKN026 OVC032 25/22 A3001 RMK AO2 T02500222
KPKD 301553Z AUTO 18003KT 10SM OVC080 23/15 A3004 RMK AO2 SLP169 T02280150 TSNO
KPKV 301635Z AUTO 22008KT 10SM SCT033 32/24 A3002 RMK AO2 T03230240
KPLN 301554Z AUTO 07011G19KT 10SM FEW050 SCT060 24/11 A3010 RMK AO2 SLP192 T02390111
KPLU 301635Z AUTO 00000G10KT SCT021 OVC038 16/12 A2999 RMK AO2
KPMD 301553Z AUTO 20015KT 10SM CLR 34/11 A2993 RMK AO2 SLP097 T03390111
KPMP 301553Z 13009KT 10SM SCT030 33/22 A3007 RMK AO2 SLP183 T03280222
KPMU 301635Z AUTO 22006KT 10SM CLR 29/24 A3003 RMK AO2 T02860236
KPMV 301635Z AUTO 08005KT 10SM CLR 22/19 A3004 RMK AO2 LTG DSNT SW T02220186
KPNA 301635Z AUTO 13003KT 10SM SCT110 22/05 A3021 RMK AO2
KPNC 301603Z AUTO 00000KT 8SM -RA FEW048 SCT080 BKN110 23/20 A3000 RMK AO2 P0006 T02280200 TSNO
KPNE 301554Z VRB04KT 10SM SCT029 BKN043 OVC100 31/23 A3001 RMK AO2 SLP159 T03060233
KPNM 301635Z AUTO 12005KT 10SM OVC065 25/18 A3005 RMK AO2
KPNS 301553Z COR 31006KT 10SM SCT027 32/24 A3006 RMK AO2 SLP179 T03170239
KPNT 301635Z AUTO 00000KT 10SM SCT016 SCT034 SCT044 25/22 A2998 RMK AO2 T02450218
KPOB 301558Z AUTO 24011KT 10SM FEW130 SCT200 33/22 A2998 RMK AO2 SLP152 T03250224
KPOC 301647Z 27007KT 10SM OVC020 26/18 A2991
KPOE 301558Z AUTO VRB05KT 10SM FEW024 31/24 A3004 RMK AO2 SLP171 T03070239
KPOF 301622Z AUTO 00000KT 10SM OVC011 26/23 A3001 RMK AO2 T02610228 TSNO
KPOU 301553Z 00000KT 10SM FEW055 BKN100 27/18 A3002 RMK AO2 SLP163 T02670178
KPOV 301642Z AUTO 11003KT 5SM HZ BKN024 BKN043 OVC070 26/18 A2998 RMK AO2 T02630184
KPOY 301635Z AUTO 14013KT 10SM CLR 25/07 A2995 RMK AO2
KPPA 301635Z AUTO 23008G14KT 10SM CLR 31/14 A3008 RMK AO2 T03140144
KPPF 301552Z AUTO 00000KT 10SM FEW028 29/22 A3002 RMK AO2 SLP156 T02890217
KPPO 301635Z AUTO 06005KT 10SM OVC012 23/21 A2999 RMK AO2 T02310211
KPPQ 301635Z AUTO 30005KT 10SM SCT022 SCT029 BKN035 24/19 A3003 RMK AO2 T02360192
KPQI 301556Z AUTO 29009G14KT 260V320 10SM SCT048 23/12 A3000 RMK AO2 SLP194 T02280122
KPQL 301553Z AUTO VRB03KT 10SM FEW028 32/25 A3006 RMK AO2 SLP181 T03220250 TSNO
KPQN 301621Z AUTO 17003KT 10SM SCT032 23/15 A3004 RMK AO2
KPRB 301553Z AUTO 00000KT 10SM CLR 22/11 A2985 RMK AO2 SLP098 T02220106 TSNO
KPRC 301553Z 00000KT 10SM CLR 27/13 A3013 RMK AO2 SLP113 T02670128
KPRG 301635Z AUTO 28003KT 10SM BKN027 BKN033 27/21 A2999 RMK AO2 T02650210
KPRN 301556Z AUTO 30006KT 10SM SCT031 SCT039 32/22 A3007 RMK AO2 SLP175 T03220217
KPRO 301635Z AUTO 00000KT 10SM SCT021 BKN033 OVC075 25/19 A3004 RMK AO2 T02510194
KPRS 301635Z AUTO 12007KT 10SM CLR 29/17 A3007 RMK AO2 T02900168
KPRX 301635Z 26015KT 10SM CLR 33/21 A3002 RMK AO1
KPSC 301553Z 20006KT 10SM CLR 28/13 A2976 RMK AO2 SLP072 T02830128
KPSF 301554Z AUTO 02004KT 10SM OVC039 24/14 A3007 RMK AO2 SLP156 T02440139
KPSK 301635Z AUTO 14005KT 10SM BKN024 BKN031 28/21 A3009 RMK AO2 T02810212
KPSM 301558Z 23004KT 10SM FEW070 FEW170 BKN250 26/15 A3002 RMK AO2A SLP167 T02620146
KPSN 301635Z AUTO 21008KT 10SM CLR 32/22 A3005 RMK AO2 T03200226
KPSO 301635Z AUTO 20004KT 10SM CLR 24/03 A3033 RMK AO2 T02350026
KPSP 301648Z 36006KT 2 1/2SM BLDU OVC020 34/21 A2985 RMK AO2
KPSX 301553Z AUTO 19007KT 10SM CLR 31/24 A3003 RMK AO2 SLP168 T03110244
KPTB 301635Z AUTO 17004KT 10SM -VCTSRA SCT019 SCT038 OVC055 28/25 A3001 RMK AO2 LTG DSNT N NE AND SW T02770247
KPTK 301553Z 06006KT 5SM -RA BR SCT042 BKN075 OVC085 19/18 A3001 RMK AO2 SLP158 P0006 T01940178
KPTN 301556Z AUTO 29005KT 10SM FEW030 SCT040 31/24 A3006 RMK AO2 LTG DSNT SE SLP180 T03110244
KPTS 301635Z AUTO 11003KT 10SM SCT027 BKN035 29/22 A3002 RMK AO2 T02890219
KPTT 301635Z AUTO 17016G19KT 10SM CLR 26/17 A3001 RMK AO2 T02610170
KPTV 301556Z AUTO 18005KT 10SM CLR 31/12 A2980 RMK AO2 SLP094 T03060117
KPTW 301554Z AUTO VRB05KT 8SM SCT026 SCT037 29/22 A3001 RMK AO2 SLP157 T02890222
KPUB 301553Z 27005KT 10SM CLR 26/16 A3004 RMK AO2 SLP101 T02560156
KPUC 301553Z AUTO 23004KT 10SM BKN120 27/02 A3015 RMK AO2 SLP087 T02670022
KPUJ 301635Z AUTO 00000KT 10SM SCT120 28/25 A3009 RMK AO2 LTG DSNT E
KPUW 301553Z AUTO 25015KT 10SM CLR 26/09 A2986 RMK AO2 SLP090 T02560089
KPVB 301635Z AUTO 08006KT 10SM CLR 24/19 A3003 RMK AO1 T02400194
KPVC 301556Z AUTO 02008KT 10SM CLR 24/18 A3005 RMK AO2 SLP176 T02390183
KPVD 301551Z 09006KT 10SM SCT040 SCT300 28/17 A3004 RMK AO2 SLP170 T02780172
KPVE 301635Z AUTO 17005KT 10SM FEW014 25/22 A3003 RMK
KPVF 301635Z AUTO 18003KT 10SM CLR 32/07 A2993 RMK AO1
KPVG 301635Z 14007KT 10SM SCT034 BKN040 BKN050 33/24 A3000 RMK AO1
KPVJ 301635Z AUTO 00000KT 10SM CLR 31/21 A2998 RMK AO2 T03140210
KPVU 301549Z 10006KT 10SM SCT120 SCT150 27/08 A3003
KPVW 301635Z AUTO 21007KT 10SM CLR 24/17 A3011 RMK AO2 T02410170
KPWA 301553Z 11009KT 10SM CLR 26/22 A2998 RMK AO2 SLP137 T02560217
KPWC 301633Z AUTO 12004KT 10SM CLR 23/14 A3007 RMK AO2
KPWG 301556Z AUTO 24010KT 10SM CLR 33/22 A3003 RMK AO2 SLP169 T03280217
KPWK 301552Z 07008KT 10SM BKN016 OVC026 23/18 A3000 RMK AO2 SLP155 T02280183
KPWM 301551Z 33006KT 10SM BKN200 26/11 A3003 RMK AO2 SLP167 T02610106
KPWT 301635Z AUTO 18008KT 10SM FEW009 BKN012 OVC049 15/12 A3001 RMK AO1
KPXE 301635Z AUTO 30007KT 10SM CLR 32/22 A3007 RMK AO2 T03200219
KPYM 301552Z AUTO 05010KT 10SM CLR 25/15 A3006 RMK AO2 SLP176 T02500150
KPYX 301635Z AUTO 22015G20KT 10SM CLR 31/15 A3004 RMK AO2 T03120151
KPZQ 301634Z AUTO 06012KT 10SM CLR 22/13 A3012 RMK AO2 T02210133
KRAC 301628Z AUTO 03011KT 10SM BKN015 BKN021 23/18 A3004 RMK AO2 T02280178
KRAL 301553Z 25004KT 7SM OVC021 27/17 A2989 RMK AO2 SLP103 T02720167
KRAP 301552Z 13006KT 10SM CLR 26/13 A2994 RMK AO2 SLP114 T02560133
KRAS 301635Z AUTO 13006KT 10SM CLR 31/26 A3003 RMK AO2 T03100260
KRBD 301553Z VRB05KT 10SM CLR 32/22 A3001 RMK AO2 SLP152 T03220222
KRBG 301553Z AUTO 02010KT 10SM CLR 21/11 A2997 RMK AO2 SLP146 T02060106
KRBL 301554Z AUTO 00000KT 10SM CLR 30/13 A2977 RMK AO2 SLP074 T03000128
KRBO 301630Z AUTO 18009KT 10SM SCT037 SCT044 34/23 A3002 RMK AO2 T03360228
KRBW 301635Z AUTO 19004KT 10SM SCT050 36/20 A3003 RMK AO2
KRCA 301558Z AUTO 13007KT M M CLR 26/14 A2993 RMK AO2 SLP113 T02640137 $
KRCE 301615Z AUTO 14007KT 10SM CLR 27/24 A3000 RMK AO2
KRCM 301555Z AUTO 00000KT 10SM BKN050 BKN070 BKN080 25/18 A3004 RMK AO2
KRCR 301635Z AUTO 00000KT 7SM SCT024 BKN030 BKN036 25/22 A2998 RMK AO2
KRCV 301630Z AUTO 05004KT 10SM CLR 22/06 A3033 RMK AO2 T02180061
KRCX 301635Z AUTO 10006KT 10SM CLR 24/13 A3009 RMK AO2 T02400130
KRCZ 301635Z AUTO 21004KT 10SM CLR 32/23 A3000 RMK AO2 T03240234
KRDD 301553Z 00000KT 10SM CLR 30/13 A2976 RMK AO2 SLP070 T03000128
KRDG 301601Z 14006KT 10SM SCT024 SCT041 BKN100 29/22 A2998 RMK AO2 T02890217
KRDK 301635Z AUTO 00000KT 10SM BKN022 23/18 A3005 RMK AO2
KRDM 301556Z 00000KT 10SM CLR 23/06 A2997 RMK AO2 SLP113 T02330061
KRDR 301558Z AUTO 19012KT 10SM CLR 24/17 A2994 RMK AO2 SLP141 T02400169
KRDU 301551Z 18005KT 10SM FEW050 BKN130 32/23 A2999 RMK AO2 SLP148 T03220228
KREO 301552Z AUTO 03003KT 28/02 A2994 RMK AO1 SLP081 T02780022
KRFD 301554Z 08008KT 10SM BKN023 BKN026 BKN065 OVC250 24/18 A3001 RMK AO2 SLP159 T02390178
KRFI 301635Z AUTO 22005KT 10SM CLR 31/22 A3005 RMK AO2 T03120223
KRGK 301635Z AUTO 13006KT 10SM CLR 25/14 A3003 RMK AO2
KRHI 301553Z AUTO 08007KT 10SM CLR 23/14 A3010 RMK AO2 SLP189 T02280144 TSNO
KRHP 301640Z AUTO 25004KT 10SM SCT036 27/22 A3009 RMK AO2 T02700224
KRHV 301648Z VRB03KT 10SM SKC 22/15 A2984
KRIC 301650Z 18012G26KT 1 3/4SM R34/1800V2800FT TSRA BR SCT008 BKN023 OVC045CB 23/23 A3001 RMK AO2 PK WND 19026/1641 RAB1555 TSB44 OCNL LTGCGCC E-W TS S MOV E P0006
KRIL 301553Z AUTO 00000KT 10SM CLR 23/05 A3014 RMK AO2 SLP126 T02330050
KRIV 301622Z 10011KT 4SM HZ FEW004 SCT015 OVC120 32/19 A2989 RMK AO2A
KRIW 301553Z AUTO 12006KT 10SM CLR 22/11 A3004 RMK AO2 SLP101 T02220106
KRKD 301556Z AUTO 06006KT 6SM HZ CLR 25/17 A3000 RMK AO2 SLP160 T02500167
KRKP 301553Z AUTO 13007KT 10SM SCT024 32/24 A3001 RMK AO2 SLP165 T03220244
KRKS 301554Z AUTO 22004KT 10SM CLR 23/06 A3018 RMK AO2 SLP118 T02280061
KRLD 301635Z AUTO 19007KT 10SM CLR 31/12 A2975 RMK AO2 T03090119
KRME 301553Z VRB05KT 10SM CLR 24/17 A3007 RMK AO2 SLP177 T02440172
KRMG 301553Z AUTO 21004KT 10SM CLR 27/22 A3006 RMK AO2 RAE35 SLP168 P0001 T02670222
KRMN 301635Z AUTO 15008KT 10SM SCT009 BKN060 27/24 A3003 RMK AO2 LTG DSNT S T02720239
KRMY 301634Z AUTO 00000KT 10SM -RA BKN008 BKN050 OVC095 20/20 A2999 RMK AO2 T01990195
KRNC 301635Z AUTO 24009KT 10SM CLR 29/23 A3005 RMK
KRND 301558Z AUTO 20008KT 10SM CLR 30/22 A3005 RMK AO2 SLP167 T02990219
KRNH 301635Z AUTO 13004KT 10SM SCT043 SCT055 OVC100 23/16 A3006 RMK AO2 T02340161
KRNM 301602Z 30010KT 10SM OVC030 24/17 A2991 RMK AO2 T02440172
KRNO 301555Z 00000KT 10SM FEW110 SCT150 BKN200 26/07 A3005 RMK AO2 SLP107 FU FEW110 FU SCT150 MTN TOPS OBSCD DSNT S HZ ALQDS T02610072
KRNP 301634Z AUTO 07005KT 10SM BKN013 OVC018 20/19 A3002 RMK AO2 T02000189
KRNT 301553Z 17006KT 9SM OVC017 17/12 A2997 RMK AO2 SLP153 T01670117
KRNV 301635Z AUTO 30005KT 10SM SCT020 SCT060 BKN075 29/26 A3003 RMK AO2 T02920264
KROA 301554Z 00000KT 10SM FEW050 SCT200 29/21 A3005 RMK AO2 SLP160 T02890211
KROC 301554Z COR 10007KT 10SM BKN080 BKN180 24/16 A3006 RMK AO2 SLP178 T02390161
KROG 301633Z 21005KT 10SM SCT028 SCT055 29/22 A3006 RMK AO2 $
KROS 301633Z AUTO 00000KT 10SM SCT027 BKN039 OVC075 23/17 A3005 RMK AO2 T02300171
KROW 301551Z 16009KT 10SM CLR 28/16 A3010 RMK AO2 SLP123 T02780161
KROX 301635Z AUTO 17008KT 10SM CLR 24/19 A2997 RMK AO2
KRPD 301635Z AUTO 11004KT 10SM CLR 24/12 A3008 RMK AO2 T02360124
KRPH 301635Z AUTO 20006KT 160V230 10SM CLR 34/20 A3000 RMK AO2 T03360201
KRPJ 301635Z AUTO 02006KT 10SM SCT015 OVC024 23/20 A3001 RMK AO2 T02260195
KRPX 301635Z AUTO 00000KT 10SM 25/11 A2980
KRQB 301635Z AUTO 08011KT 10SM BKN027 OVC032 22/18 A3005 RMK AO2 T02230177
KRQE 301553Z AUTO 00000KT 10SM CLR 24/09 A3024 RMK AO2 SLP107 T02440094 TSNO
KRQO 301655Z AUTO 11005KT CLR 27/21 A2999 RMK AO2 PWINO
KRRL 301635Z AUTO 11007KT 10SM SCT032 23/15 A3009 RMK AO2 T02300153
KRRT 301621Z AUTO 19005KT 10SM SCT028 24/19 A2998 RMK AO2
KRSL 301553Z AUTO 15005KT 10SM OVC075 24/20 A3000 RMK AO2 LTG DSNT E RAB34E51 TSB16E31 SLP143 P0005 T02440200
KRSN 301635Z AUTO 23008KT 10SM CLR 33/23 A3007 RMK AO2 T03270228
KRSP 301624Z AUTO VRB04KT 10SM SCT013 BKN020 OVC050 23/22 A3003 RMK AO2 $
KRST 301554Z VRB03KT 10SM BKN049 OVC060 23/18 A3006 RMK AO2 SLP172 T02330178
KRSV 301635Z AUTO 26007KT 10SM CLR 27/20 A2999 RMK AO2 T02670199
KRSW 301553Z COR 18003KT 10SM SCT040 32/23 A3007 RMK AO2 SLP180 T03220233
KRTN 301553Z AUTO 00000KT 10SM CLR 20/12 A3021 RMK AO2 SLP144 T02000117
KRUE 301553Z AUTO 00000KT 10SM FEW015 BKN042 27/23 A3002 RMK AO2 SLP156 T02670233 TSNO
KRUT 301556Z AUTO 32005KT 10SM CLR 23/14 A3008 RMK AO2 SLP197 T02330144 $
KRVS 301633Z 01003KT 10SM FEW080 22/22 A3003 RMK AO2 LTG DSNT ALQDS RAE29 TSE31 P0001 T02220222
KRWF 301553Z AUTO VRB03KT 10SM CLR 23/13 A3003 RMK AO2 SLP167 T02330128
KRWI 301553Z AUTO 21004KT 10SM CLR 30/25 A2999 RMK AO2 SLP153 T03000250
KRWL 301553Z AUTO VRB05KT 10SM CLR 21/11 A3017 RMK AO2 SLP114 T02110106
KRWV 301635Z AUTO 22009KT 10SM FEW034 31/21 A3007 RMK AO2
KRXE 301553Z AUTO VRB03KT 10SM CLR 21/09 A3002 RMK AO2 SLP112 T02110094
KRYN 301645Z 33004KT 10SM CLR 29/20 A3002
KRYT 301553Z AUTO 00000KT 6SM HZ FEW039 OVC065 26/23 A2998 RMK AO2 RAE49 SLP139 P0004 T02560228 $
KRYV 301635Z AUTO 08008KT 10SM CLR 24/16 A3002 RMK AO2 T02410160
KRYW 301635Z AUTO 24004KT 10SM BKN034 31/21 A3007 RMK AO2 T03110206
KRYY 301547Z 32005KT 10SM SCT021 BKN030 28/22 A3003
KRZL 301635Z AUTO 00000KT 10SM SCT009 BKN013 OVC020 22/21 A2998 RMK AO2
KRZN 301515Z AUTO 16005KT 10SM SCT070 22/16 A3006 RMK AO2
KRZT 301634Z AUTO 30007KT 10SM BKN019 BKN026 BKN031 25/21 A2999 RMK AO2
KS25 301635Z AUTO 10008KT 10SM SCT001 26/14 A2989 RMK AO2
KSAA 301635Z AUTO 16006KT 10SM CLR 24/05 A3019 RMK AO2
KSAC 301553Z AUTO 21006KT 10SM CLR 22/11 A2977 RMK AO2 SLP079 T02170111 TSNO
KSAD 301651Z AUTO VRB04KT 10SM CLR 31/13 A3001 RMK AO2 SLP099 T03110128
KSAF 301553Z 19007KT 10SM CLR 24/10 A3024 RMK AO2 SLP133 T02440100
KSAN 301551Z 19012KT 9SM BKN012 21/18 A2991 RMK AO2 SLP129 T02060178
KSAR 301635Z AUTO 00000KT 10SM SCT029 27/21 A3001 RMK AO2 T02710206
KSAT 301551Z 17011G17KT 10SM SCT030 30/20 A3006 RMK AO2 SLP159 T03000200
KSAV 301553Z 27004KT 10SM FEW035 SCT250 34/21 A3004 RMK AO2 SLP171 T03440206
KSAW 301645Z 13004KT 10SM SCT060 23/09 A3011
KSAZ 301634Z AUTO 17007KT 10SM CLR 23/12 A3004 RMK AO2
KSBA 301622Z 17005KT 8SM FEW009 21/18 A2988 RMK AO2 T02110183
KSBD 301645Z 26003KT 1 1/2SM HZ BKN020 32/08 A2988
KSBM 301553Z AUTO 06012KT 10SM OVC100 21/16 A3005 RMK AO2 SLP174 T02110156
KSBN 301644Z VRB05KT 10SM FEW024 BKN034 23/19 A2998 RMK AO2 T02280189
KSBO 301635Z AUTO 28005KT 10SM SCT048 SCT055 34/21 A3005 RMK AO2
KSBP 301618Z 00000KT 6SM HZ SCT006 17/13 A2988 RMK AO2 T01720133
KSBS 301635Z AUTO 00000KT 10SM CLR 22/06 A3022 RMK AO1 T02170061
KSBY 301554Z 13008G14KT 10SM SCT038 30/21 A3001
KSCD 301635Z AUTO 27004KT 10SM SCT031 SCT042 BKN060 31/23 A3006 RMK AO2 LTG DSNT NE AND NW T03110232
KSCK 301555Z 33005KT 10SM CLR 26/13 A2976 RMK AO2 SLP078 T02560128
KSCR 301640Z AUTO 24005KT 10SM SCT038 SCT044 BKN070 28/19 A3000 RMK AO2 T02830188
KSDA 301635Z AUTO 07004KT 10SM CLR 24/19 A3004 RMK AO2
KSDB 301648Z AUTO 19014KT 4SM HZ CLR 27/13 A3011 RMK AO2 SLP125 T02720128
KSDF 301631Z VRB04KT 10SM BKN030 BKN070 28/21 A2998 RMK AO2 T02830206
KSDL 301553Z 15005KT 10SM CLR 31/17 A2993 RMK AO2 SLP109 T03110172
KSDM 301553Z 22004KT 7SM CLR 23/18 A2990 RMK AO2 SLP121 T02280178
KSDY 301556Z AUTO 00000KT 10SM CLR 23/14 A2988 RMK AO2 SLP114 T02330144
KSEA 301553Z 23010KT 10SM OVC010 15/12 A2998 RMK AO2 SLP158 T01500122
KSEE 301447Z 00000KT 7SM SCT011 22/18 A2990
KSEG 301553Z AUTO 14004KT 10SM SCT090 SCT110 27/22 A2999 RMK AO2 SLP151 T02720222
KSEM 301635Z AUTO 23007G12KT 10SM CLR 32/21 A3005 RMK AO2
KSEP 301635Z AUTO 21003KT 10SM CLR 31/20 A3008 RMK AO2 T03140204
KSET 301554Z AUTO 26007KT 10SM CLR 27/19 A2999 RMK AO2 SLP149 T02670194
KSEZ 301630Z AUTO 14003KT 10SM CLR 29/11 A3011 RMK AO2
KSFB 301553Z COR 36006KT 10SM FEW032 33/23 A3007 RMK AO2 SLP181 T03280228
KSFF 301553Z 18011KT 10SM CLR 25/09 A2979 RMK AO2 SLP067 T02500094
KSFM 301556Z AUTO 00000KT 10SM 26/13 A3004 RMK AO2 SLP179 T02610133 $
KSFO 301556Z 31005KT 10SM FEW005 SCT008 SCT011 14/11 A2984 RMK AO2 SLP104 T01440111
KSFQ 301635Z AUTO 11007KT 10SM SCT034 SCT080 SCT100 32/23 A2998 RMK AO2 LTG DSNT S THRU NW T03190231
KSFY 301635Z AUTO 09005KT 10SM SCT025 SCT034 BKN043 25/19 A3000 RMK AO2 T02520189
KSFZ 301635Z 00000KT 9SM FEW065 28/16 A3004 RMK AO1
KSGF 301552Z 12003KT 10SM CLR 28/19 A3003 RMK AO2 SLP156 T02780189
KSGH 301617Z AUTO 24007KT 10SM BKN016 BKN023 25/22 A3000 RMK AO2
KSGJ 301646Z 30008G14KT 9SM TS SCT021 BKN028 OVC040 29/23 A3009 RMK AO2 LTG DSNT S TSB39
KSGR 301553Z 24007KT 10SM FEW026 31/23 A3003 RMK AO2 SLP169 T03060233
KSGS 301631Z AUTO 11005KT 10SM SCT025 SCT030 BKN043 24/16 A3003 RMK AO2 T02370157
KSGT 301635Z AUTO 24005KT 10SM FEW024 30/23 A3003 RMK AO1
KSGU 301635Z 25012KT 10SM CLR 32/12 A2999 RMK AO1
KSHD 301635Z AUTO 16005KT 10SM SCT031 BKN042 BKN050 28/22 A3002 RMK AO2 LTG DSNT SE T02840223
KSHL 301635Z AUTO 00000KT 10SM FEW032 FEW041 23/16 A3003 RMK AO2
KSHN 301611Z AUTO 23009KT 10SM OVC015 15/10 A2997 RMK AO2 T01500100
KSHR 301553Z AUTO 00000KT 10SM CLR 24/11 A2991 RMK AO2 SLP085 T02440106
KSHV 301556Z 26011KT 10SM FEW035 32/23 A3002 RMK AO2 SLP162 T03170233 $
KSIF 301645Z AUTO 22003KT 10SM SCT032 31/22 A3001 RMK AO2 T03090218
KSIK 301655Z AUTO 00000KT 10SM OVC011 26/22 A3001 RMK AO2 PWINO
KSIY 301553Z AUTO 04005KT 10SM CLR 27/09 A2994 RMK AO2 SLP118 T02670094
KSJC 301553Z 00000KT 10SM FEW005 SCT010 19/14 A2982 RMK AO2 SLP098 T01940139
KSJN 301554Z AUTO 00000KT 10SM CLR 24/09 A3019 RMK AO2 SLP121 T02440094 TSNO
KSJS 301635Z AUTO 26005KT 10SM SCT017 BKN024 OVC030 26/22 A3004 RMK AO2 T02600222
KSJT 301551Z 18008KT 10SM CLR 31/19 A3005 RMK AO2 SLP149 T03060189
KSJX 301637Z AUTO 08009G15KT 10SM CLR 25/13 A3010 RMK AO2 T02470126
KSKA 301558Z AUTO 23008KT 10SM CLR 24/08 A2980 RMK AO2 SLP073 T02370084 PWINO $
KSKF 301644Z AUTO 15005KT 10SM -DZ FEW033 30/22 A3003 RMK AO2 DZB28
KSKX 301635Z AUTO 23005KT 10SM CLR 23/04 A3030 RMK AO1
KSLB 301635Z AUTO 00000KT 10SM CLR 22/16 A3005 RMK AO2
KSLC 301554Z 14009KT 10SM FEW150 SCT200 30/07 A2996 RMK AO2 SLP075 T03000072
KSLE 301556Z 33006KT 10SM FEW019 18/11 A3000 RMK AO2 SLP158 T01830111
KSLG 301635Z AUTO 25003KT 10SM FEW024 BKN046 BKN055 29/19 A3006 RMK AO1
KSLH 301633Z AUTO 06013KT 10SM CLR 23/13 A3009 RMK AO2 T02350137
KSLI 301558Z 18004KT 10SM FEW015 SCT200 24/20 A2988 RMK AO2A SLP121 T02380197
KSLK 301628Z AUTO 02005KT 10SM FEW002 BKN044 23/10 A3009 RMK AO2 T02280100 $
KSLN 301553Z 19009KT 10SM CLR 30/19 A2999 RMK AO2 SLP140 T03000194
KSLO 301635Z AUTO 27008KT 10SM SCT029 BKN036 BKN049 28/19 A2999 RMK AO2 T02760193
KSLR 301635Z AUTO 24012G19KT 10SM CLR 33/21 A3004 RMK AO2 T03320206
KSME 301635Z AUTO 27003KT 10SM BKN016 BKN020 OVC036 25/21 A3005 RMK AO2
KSMF 301553Z 17007KT 10SM CLR 22/11 A2975 RMK AO2 SLP074 T02220111
KSMN 301635Z AUTO 00000KT 10SM CLR 22/07 A2992 RMK AO1
KSMO 301551Z 00000KT 10SM FEW036 24/19 A2988 RMK AO2 SLP117 T02440189
KSMP 301556Z AUTO VRB06KT OVC001 11/09 A2998 RMK AO2 SLP134 T01060094
KSMQ 301553Z AUTO 17004KT 10SM BKN037 BKN046 29/21 A2999 RMK AO2 SLP152 T02890211
KSMS 301635Z AUTO 23008KT 10SM CLR 34/23 A3002 RMK AO2
KSMX 301551Z VRB03KT 6SM HZ FEW007 17/13 A2988 RMK AO2 SLP121 T01670133
KSNA 301553Z 00000KT 10SM FEW013 SCT120 BKN250 23/19 A2988 RMK AO2 SLP115 T02330194
KSNC 301635Z AUTO 15007KT 10SM SCT029 SCT037 BKN060 28/20 A3004 RMK AO2
KSNK 301635Z AUTO 17007G14KT 30/18 A3008 RMK AO2 T02980178 PWINO
KSNL 301635Z AUTO 02004KT 10SM CLR 27/22 A3000 RMK AO2 T02700221
KSNS 301602Z 00000KT 10SM OVC005 13/12 A2986 RMK AO2 T01330117
KSNT 301551Z AUTO 00000KT 17/02 A3012 RMK AO1 SLP100 T01670017
KSNY 301553Z AUTO 06006KT 10SM CLR 24/18 A3004 RMK AO2 SLP127 T02390178
KSOA 301635Z AUTO 20009KT 10SM CLR 30/18 A3012 RMK AO2
KSOP 301556Z AUTO VRB04KT 10SM FEW038 BKN110 32/23 A3001 RMK AO2 SLP169 T03170228
KSOW 301635Z AUTO 19009KT 10SM CLR 24/07 A3025 RMK AO2
KSPA 301655Z AUTO 00000KT 10SM CLR 30/20 A3002 RMK AO2 LTG DSNT SW
KSPB 301553Z AUTO 30006KT 10SM FEW029 18/10 A3001 RMK AO2 SLP161 T01780100
KSPD 301556Z AUTO 21017G25KT 28/13 A3003 RMK AO1 PK WND 20026/1532 SLP104 T02780128 $
KSPF 301615Z AUTO 08010KT 10SM -RA CLR 28/12 A2996 RMK AO2
KSPG 301616Z 31003KT 10SM CLR 29/22 A3006 RMK AO2 LTG DSNT ALQDS T02940222
KSPI 301633Z 26004KT 10SM FEW018 SCT026 BKN055 25/20 A3000 RMK AO2 T02500200
KSPL 301635Z AUTO 13007KT 9SM VCTS 30/25 A3003 RMK AO1 LTG DSNT NW
KSPS 301552Z AUTO 22011KT 10SM CLR 31/18 A2998 RMK AO2 SLP138 T03060183
KSPW 301553Z AUTO 00000KT 10SM CLR 23/13 A3005 RMK AO2 SLP171 T02330133
KSQI 301556Z 05006KT 10SM SCT015 BKN022 23/20 A3000 RMK AO2 SLP170 P0001 T02330200
KSQL 301647Z 00000KT 7SM OVC010 17/14 A2985
KSRB 301635Z AUTO 00000KT 10SM SCT018 BKN025 28/23 A3004 RMK
KSRC 301556Z AUTO 16004KT 10SM OVC012 28/24 A3016 RMK AO2 SLP215 T02780239
KSRQ 301553Z 23006KT 10SM CLR 33/23 A3006 RMK AO2 LTG DSNT NW-NE SLP178 T03280233
KSRR 301635Z AUTO 10011G14KT 10SM 24/10 A3032 RMK AO2
KSSC 301558Z AUTO 20007KT 5SM HZ FEW120 SCT190 33/23 A3000 RMK AO2 SLP158 T03280228 $
KSSF 301553Z 19009KT 10SM CLR 31/22 A3003 RMK AO2 SLP155 T03060217
KSSI 301553Z AUTO 24004KT 10SM CLR 34/22 A3006 RMK AO2 SLP179 T03390217
KSTC 301553Z VRB03KT 10SM CLR 23/16 A3004 RMK AO2 SLP178 T02330161
KSTE 301635Z AUTO 08006KT 10SM OVC060 22/15 A3007 RMK AO2 T02180149
KSTJ 301553Z VRB03KT 10SM SCT050 26/17 A3004 RMK AO2 SLP166 T02560172
KSTK 301630Z AUTO 17006KT 10SM CLR 27/16 A2999 RMK AO2
KSTL 301551Z 26006KT 10SM SCT034 SCT250 29/18 A3000 RMK AO2 SLP145 T02890183
KSTP 301553Z VRB04KT 10SM OVC070 23/18 A3004 RMK AO2 SLP168 T02330183
KSTS 301609Z 18003KT 10SM SCT005 13/09 A2983 RMK AO2 T01330094 $
KSUA 301547Z 07007KT 7SM SCT036 33/24 A3008
KSUE 301556Z AUTO 07009KT 10SM CLR 23/13 A3009 RMK AO2 SLP204 T02280128
KSUN 301647Z 33005KT 10SM SCT100 27/04 A3003
KSUS 301554Z VRB05KT 10SM SCT028 28/20 A2999 RMK AO2 SLP146 T02780200
KSUT 301640Z AUTO 20006KT 10SM CLR 34/27 A3000 RMK AO2 T03420270
KSUU 301558Z AUTO 23017KT 10SM CLR 20/12 A2975 RMK AO2 SLP081 T01980115 PWINO PNO $
KSUW 301635Z AUTO 07005KT 10SM CLR 21/16 A3007 RMK AO2 T02110158
KSUX 301552Z VRB05KT 10SM CLR 24/17 A3002 RMK AO2 SLP158 T02440172
KSVC 301635Z AUTO 14010KT 10SM SCT110 26/13 A3020 RMK AO2 T02640127
KSVH 301640Z AUTO 00000KT 10SM CLR 29/22 A3003 RMK AO2 T02920216
KSVN 301558Z AUTO VRB06KT 10SM CLR 35/24 A3002 RMK AO2 SLP168 T03490235
KSWF 301645Z 08005KT 20SM BKN100 27/20 A3006
KSWW 301635Z AUTO 18006KT 10SM CLR 30/18 A3010 RMK AO2 T03040181
KSXS 301556Z AUTO 34004KT 10SM FEW025 31/23 A3008 RMK AO2 SLP184 T03120233
KSXT 301556Z AUTO 02009KT 10SM CLR 18/11 A3002 RMK AO2 SLP115 T01780111
KSYF 301635Z AUTO 19003KT 10SM CLR 26/15 A3000 RMK AO2 T02600148
KSYI 301635Z AUTO 25007KT 10SM CLR 31/23 A3005 RMK
KSYM 301630Z AUTO 29005KT 10SM SCT019 BKN029 BKN060 26/21 A3003 RMK AO2
KSYN 301625Z AUTO 00000KT 10SM SCT028 BKN075 OVC100 25/18 A3003 RMK AO2
KSYR 301454Z 07003KT 10SM FEW090 BKN160 BKN220 24/17 A3004 RMK AO2 SLP168 T02390172 51004
KSZL 301558Z 26002KT 10SM SCT022 SCT250 25/20 A3003 RMK AO2A SLP165 T02470200 VISNO RWY01 $
KSZT 301635Z AUTO 00000KT 10SM CLR 24/12 A2978 RMK AO2
KT20 301635Z AUTO 22007KT 10SM SCT031 SCT039 SCT046 31/24 A3003 RMK AO2 T03140237
KT35 301635Z AUTO 22007KT 10SM CLR 32/22 A3003 RMK AO2 T03210219
KT65 301635Z AUTO 16010G14KT 10SM SCT034 31/M05 A3000 RMK AO2 LTG DSNT E T03101047
KT70 301618Z AUTO 19007KT 10SM SCT028 30/21 A2998 RMK AO2 $
KT82 301635Z AUTO 16008KT 130V200 10SM CLR 30/17 A3007 RMK AO2 T03010170
KTAN 301552Z AUTO VRB03KT 10SM CLR 28/16 A3003 RMK AO2 SLP166 T02830156 $
KTAZ 301635Z 10SM SCT025 SCT037 BKN047 24/20 A3000 RMK AO2 T02420199
KTBN 301633Z AUTO VRB03KT 10SM SCT025 BKN031 26/20 A3004 RMK AO2 $
KTBR 301635Z AUTO 28008KT 250V310 10SM CLR 34/23 A3004 RMK AO2 T03410234
KTBX 301635Z AUTO CLR 20/06 A3022 RMK AO2 PWINO
KTCC 301553Z AUTO 23015KT 10SM CLR 27/16 A3011 RMK AO2 SLP137 T02720161
KTCL 301553Z 25006KT 10SM FEW029 31/24 A3004 RMK AO2 LTG DSNT N SLP170 T03060244
KTCM 301613Z AUTO 22008KT 10SM OVC020 15/11 A2999 RMK AO2 $
KTCS 301553Z AUTO 00000KT 10SM CLR 27/11 A3015 RMK AO2 SLP115 T02670106 TSNO
KTDF 301640Z AUTO 25003KT 10SM SCT032 SCT047 SCT055 30/22 A3001 RMK AO2
KTDZ 301649Z AUTO 07008KT 3SM TSRA BR FEW015 BKN030 OVC060 23/21 A2997 RMK AO2 LTG DSNT NE AND E RAB07 TSB09 P0019
KTEB 301551Z 05005KT 10SM BKN100 27/19 A3000 RMK AO2 SLP159 T02720194
KTEW 301634Z AUTO 07005KT 10SM OVC006 19/18 A3001 RMK AO2 T01920181
KTEX 301635Z AUTO 26004KT 10SM CLR 22/03 A3043 RMK AO2 T02230026
KTFP 301635Z AUTO 16009KT 10SM SCT029 SCT035 SCT041 33/24 A3002 RMK AO2 T03340244
KTGI 301519Z AUTO 12007KT 10SM SCT028 SCT033 31/22 A3001 RMK AO1
KTHA 301635Z AUTO 24006KT 10SM CLR 29/21 A3007 RMK
KTHV 301553Z AUTO VRB03KT 10SM FEW025 BKN100 28/22 A2998 RMK AO2 SLP150 T02830217
KTIF 301635Z AUTO 17012G15KT 10SM BKN016 23/18 A3002 RMK AO2 T02340183
KTIK 301558Z 08005KT 10SM CLR 25/22 A3000 RMK AO2A SLP154 T02540217 $
KTIW 301553Z 18006KT 10SM OVC013 14/11 A2998 RMK AO2 SLP150 T01440106
KTIX 301650Z 09010KT 7SM SCT040 33/21 A3007
KTKC 301634Z AUTO 15004KT 10SM CLR 24/13 A3004 RMK AO2 T02360131
KTKI 301553Z 27009KT 10SM CLR 32/22 A3001 RMK AO2 SLP156 T03170217
KTKV 301635Z AUTO 08004KT 10SM SCT038 23/13 A3009 RMK AO2 T02280132
KTKX 301635Z AUTO 22004G10KT 10SM FEW021 29/23 A3000 RMK AO2
KTLH 301553Z 31006KT 10SM SCT029 SCT250 33/23 A3006 RMK AO2 SLP179 T03280233 $
KTMA 301635Z AUTO 25006KT 10SM BKN046 32/21 A3006 RMK AO2 T03180211
KTMB 301553Z 10004KT 10SM FEW043 33/22 A3007 RMK AO2 SLP182 T03280222
KTME 301635Z AUTO 00000KT 10SM FEW030 32/24 A3005 RMK AO2
KTMK 301635Z AUTO 31004KT 7SM OVC029 17/12 A3007 RMK AO2
KTNB 301635Z AUTO 31008KT 10SM SCT026 SCT036 BKN110 25/17 A3016 RMK AO2 T02460171
KTNU 301635Z AUTO 34006KT 9SM BKN014 BKN020 OVC070 23/20 A3003 RMK AO2 PWINO
KTOA 301647Z VRB05KT 10SM SKC 27/21 A2989
KTOB 301634Z AUTO 00000KT 10SM CLR 26/18 A3005 RMK AO2
KTOC 301635Z AUTO 23003KT 10SM SCT037 31/23 A3004 RMK AO2 T03100232
KTOI 301553Z AUTO 31007KT 10SM FEW035 SCT050 SCT085 32/23 A3008 RMK AO2 SLP180 T03170233
KTOL 301640Z 33009KT 10SM FEW017 BKN041 OVC080 25/21 A2995 RMK AO2 T02500211
KTOP 301553Z 06006KT 10SM FEW039 SCT080 SCT090 26/19 A3003 RMK AO2 SLP162 T02560194 $
KTOR 301553Z AUTO VRB06KT 10SM CLR 24/17 A3000 RMK AO2 SLP113 T02390172 TSNO
KTPA 301619Z 30006KT 10SM FEW024TCU BKN045 OVC150 29/24 A3009 RMK AO2 TSE19 CB DSNT ALQDS TCU NE-S SHRA DSNT W T02890244
KTPF 301635Z AUTO 32005KT 10SM SCT019 32/26 A3009 RMK AO2
KTPH 301556Z AUTO 35003KT 10SM CLR 27/08 A3012 RMK AO2 SLP109 T02670078
KTPL 301651Z AUTO 24010KT 10SM CLR 33/22 A3003 RMK AO2 SLP167 T03280222
KTQE 301554Z AUTO 11004KT 10SM CLR 22/17 A3003 RMK AO2 SLP158 T02170172
KTQH 301635Z AUTO 00000KT 10SM SCT028 31/22 A3002 RMK AO2
KTRI 301614Z VRB03KT 10SM FEW013 FEW018 SCT026 25/21 A3008 RMK AO2 RAE1558 P0000 T02500211
KTRK 301555Z 00000KT 10SM SKC 18/06 A3019 RMK NO SPECI
KTRL 301553Z AUTO 22007KT 10SM CLR 32/22 A3002 RMK AO2 SLP157 T03170217 $
KTRM 301552Z AUTO 29004KT 5SM HZ OVC015 34/20 A2982 RMK AO2 PRESFR SLP099 T03390200 TSNO
KTSP 301635Z AUTO 00000KT 9SM CLR 31/04 A3006 RMK AO2
KTTA 301645Z AUTO 19006KT 10SM SCT046 33/21 A2997 RMK AO2 T03280214
KTTD 301642Z VRB03KT 10SM BKN026 18/11 A3001 RMK AO2 T01830111
KTTF 301632Z AUTO 04006KT 10SM BKN017 OVC028 26/22 A2996 RMK AO2 T02550217
KTTN 301553Z 00000KT 8SM SCT018 28/22 A2999 RMK AO2 SLP149 T02830222
KTTS 301558Z AUTO 11004KT 10SM FEW033 32/24 A3006 RMK AO2 SLP184 T03180242 $
KTUL 301643Z 35008KT 8SM VCTS -RA BKN011 BKN055 BKN120 23/22 A3004 RMK AO2 LTG DSNT ALQDS TSE42 TS E MOV E P0010 T02280222 $
KTUP 301615Z 34010KT 10SM FEW016 SCT027 BKN065 29/23 A3004 RMK AO2 LTG DSNT SE T02890228
KTUS 301553Z VRB04KT 10SM CLR 28/19 A3003 RMK AO2 SLP124 T02830194
KTVC 301553Z 06010G18KT 10SM FEW055 FEW200 26/11 A3005 RMK AO2 SLP172 T02560106
KTVF 301556Z AUTO 15007KT 10SM BKN065 OVC120 20/17 A3000 RMK AO2 RAE10 SLP159 P0000 T02000167
KTVI 301615Z AUTO 34003KT 10SM 33/25 A3008 RMK AO2
KTVK 301635Z AUTO 32003KT 10SM CLR 23/18 A3005 RMK AO2
KTVL 301553Z AUTO 06004KT 10SM CLR 21/11 A3019 RMK AO2 SLP151 T02110106
KTVR 301630Z AUTO 28006KT 10SM BKN028 BKN035 32/25 A3004 RMK AO2 T03170250
KTVY 301635Z AUTO 09003KT 10SM CLR 32/07 A2997 RMK AO2
KTWF 301553Z 21005KT 10SM CLR 28/04 A2994 RMK AO2 SLP072 T02830044
KTWM 301634Z AUTO 10004KT 10SM CLR 24/16 A3005 RMK AO2
KTXK 301553Z 26007KT 10SM CLR 32/22 A3002 RMK AO2 SLP160 T03170222
KTYQ 301635Z AUTO 29005KT 10SM SCT026 SCT030 SCT035 25/20 A2998 RMK AO2 T02510201
KTYR 301553Z 23010KT 10SM CLR 32/22 A3003 RMK AO2 SLP161 T03220217
KTYS 301553Z 24004KT 10SM SCT018 SCT035 BKN250 27/22 A3004 RMK AO2 SLP162 T02720217
KTZR 301550Z 240007KT 10SM BKN018 26/22 2999
KU16 301258Z AUTO 00000KT 10SM CLR 20/03 A2993 RMK AO2 SLP760 T02000028 $
KU42 301635Z AUTO 15011KT 10SM CLR 31/07 A3001 RMK AO1 T03080073
KU68 301635Z AUTO 00000KT 10SM CLR 26/09 A2991 RMK AO2
KUAO 301553Z 34005KT 10SM SCT019 17/11 A3002 RMK AO2 SLP163 T01720111
KUBE 301635Z AUTO 14004KT 10SM CLR 22/12 A3008 RMK AO2
KUCP 301556Z AUTO 06004KT 9SM -RA BKN005 BKN090 OVC110 21/21 A3000 RMK AO2 SLP166 T02110206 PNO $
KUCY 301635Z AUTO 27004KT 10SM CLR 28/23 A3000 RMK
KUDG 301556Z AUTO 23008KT 10SM CLR 33/23 A3001 RMK AO2 SLP163 T03280233
KUES 301545Z 05009KT 10SM SCT120 22/15 A3004
KUGN 301620Z 05008KT 10SM SCT014 BKN020 OVC026 22/18 A3000 RMK AO2 T02170183
KUIL 301604Z AUTO 19003KT 10SM BKN014 14/12 A2995 RMK AO2 T01390117
KUIN 301624Z AUTO VRB04KT 10SM FEW017 SCT027 OVC036 24/20 A3001 RMK AO2 T02390200
KUKF 301635Z AUTO 24003KT 10SM CLR 30/20 A3009 RMK AO2
KUKI 301556Z AUTO 00000KT 10SM CLR 21/10 A2981 RMK AO2 SLP086 T02060100
KUKT 301635Z AUTO 00000KT 10SM CLR 29/22 A3001 RMK AO1
KULM 301634Z AUTO 21004KT 10SM CLR 23/13 A3004 RMK AO2
KUNI 301635Z AUTO 26008KT 10SM SCT016 SCT027 26/23 A2999 RMK AO2 T02560228
KUNO 301553Z AUTO 00000KT 10SM SCT028 SCT036 BKN047 28/21 A3006 RMK AO2 SLP163 T02830206
KUNU 301635Z AUTO 07007KT 10SM SCT028 23/16 A3004 RMK AO2 T02260163
KUNV 301653Z 00000KT 2SM RA SCT037 BKN047 21/20 A3003
KUOX 301635Z AUTO 22005KT 9SM CLR 28/22 A3005 RMK AO2
KUTA 301635Z AUTO 17003KT 10SM BKN019 27/23 A3003 RMK AO2 TSNO
KUTS 301602Z AUTO VRB06KT 10SM SCT025 SCT030 31/23 A3005 RMK AO2 T03110228
KUUU 301553Z AUTO 17005KT 10SM BKN030 BKN036 27/21 A3004 RMK AO2 SLP169 T02670211
KUVA 301635Z AUTO 00000KT 10SM SCT031 29/22 A3005 RMK AO2 T02900216
KUXL 301635Z AUTO 23003KT 10SM CLR 32/24 A3005 RMK AO2 T03160238 PWINO
KUYF 301635Z AUTO 24006KT 7SM BKN014 OVC021 26/23 A2999 RMK AO2
KUZA 301554Z AUTO 26004KT 9SM -RA FEW060 SCT080 OVC100 28/23 A3004 RMK AO2 RAB50 SLP158 P0000 T02830228
KVAD 301558Z AUTO 28005KT 10SM SCT039 SCT160 33/22 A3007 RMK AO2 SLP182 T03250216 $
KVAY 301554Z AUTO VRB04KT 10SM FEW027 SCT041 29/22 A2999 RMK AO2 SLP155 T02940222 TSNO
KVBG 301643Z AUTO 22004KT 10SM SCT005 15/15 A2989 RMK AO2 TSNO
KVBT 301635Z AUTO 23006KT 10SM FEW029 BKN060 28/20 A3006 RMK AO1
KVBW 301635Z AUTO 23006KT 10SM SCT039 SCT047 SCT060 30/21 A2999 RMK AO2 T03010213
KVCB 301553Z AUTO 22004KT 10SM CLR 24/11 A2977 RMK AO2 SLP079 T02440106
KVCT 301551Z 21008KT 170V240 10SM FEW028 32/22 A3003 RMK AO2 SLP168 T03170222
KVCV 301635Z AUTO 16010G15KT 3SM HZ SCT070 SCT080 SCT110 34/12 A2995 RMK AO2
KVDF 301635Z AUTO 33009G14KT 10SM SCT023 SCT030 32/25 A3009 RMK AO2
KVDI 301635Z AUTO 31007KT 10SM SCT055 BKN065 BKN080 34/20 A3005 RMK AO2
KVEL 301553Z AUTO 03003KT 10SM CLR 26/04 A3009 RMK AO2 SLP115 T02560039
KVER 301635Z AUTO 31005KT 10SM BKN003 OVC026 25/18 A3003 RMK AO2 T02520179
KVES 301635Z AUTO 29005KT 10SM SCT023 BKN031 BKN048 26/22 A2998 RMK AO2
KVGT 301553Z 18005KT 4SM HZ OVC026 33/16 A2990 RMK AO2 SLP110 T03280156
KVIH 301553Z AUTO 29004KT 10SM CLR 26/19 A3002 RMK AO2 SLP154 T02610194
KVIS 301556Z AUTO 14005KT 10SM CLR 27/16 A2978 RMK AO2 SLP087 T02720161
KVJI 301635Z AUTO 26007KT 10SM BKN014 BKN023 OVC029 25/22 A3011 RMK AO2 T02500218
KVLD 301553Z VRB03KT 10SM FEW060 32/22 A3008 RMK AO2 SLP190 T03170222
KVLL 301634Z AUTO 03005KT 7SM -RA OVC020 22/18 A3003 RMK AO2 T02190176
KVNY 301551Z COR 00000KT 10SM BKN024 25/17 A2989 RMK AO2 SLP113 T02500167
KVOK 301558Z 12006KT 10SM FEW040 FEW075 BKN150 24/17 A3004 RMK AO2A SLP172
KVPC 301617Z AUTO 00000KT 10SM CLR 26/23 A3007 RMK AO2 LTG DSNT SE T02610233
KVPS 301555Z VRB02KT 10SM SCT034 SCT150 BKN250 33/23 A3006 RMK AO2A SLP185 T03270227 $
KVPZ 301642Z AUTO 13005KT 10SM SCT013 BKN022 BKN028 24/21 A2998 RMK AO2 T02440206
KVQQ 301650Z 36004KT 6SM -DZ BKN036 28/26 A3007
KVRB 301553Z 10008KT 10SM SCT029 BKN036 BKN060 31/24 A3008 RMK AO2 SLP183 T03110239
KVSF 301554Z AUTO 00000KT 10SM CLR 24/11 A3007 RMK AO2 SLP181 T02440111 TSNO $
KVTA 301554Z AUTO 24006KT 10SM OVC023 26/21 A2997 RMK AO2 SLP141 T02560211
KVTI 301635Z AUTO 32004KT 10SM SCT025 SCT031 SCT036 25/18 A3002 RMK AO2
KVTN 301552Z AUTO 19015KT 10SM CLR 23/16 A2998 RMK AO2 SLP136 T02330161
KVTP 301629Z AUTO 19009G17KT 170V240 10SM CLR 18/04 A3048 RMK AO2
KVUJ 301635Z AUTO 24007KT 10SM SCT120 30/24 A3005 RMK AO2 LTG DSNT E T03030235
KVUO 301553Z AUTO 31005KT 10SM SCT024 17/10 A3001 RMK AO2 SLP163 T01720100 $
KVVG 301635Z AUTO 00000KT 10SM 33/24 A2997 RMK A01
KVVV 301635Z AUTO 18007KT 10SM CLR 25/14 A3002 RMK AO2
KVWU 301634Z AUTO 23007KT 10SM SCT060 BKN070 24/17 A3002 RMK AO2
KVYS 301635Z AUTO 36004KT 10SM SCT018 BKN025 OVC055 25/21 A2998 RMK AO2 T02450208
KW13 301635Z AUTO 00000KT 10SM BKN032 BKN044 OVC055 29/22 A3002 RMK AO1 T02860216
KW22 301635Z AUTO 23007KT 10SM 25/21 A3003 RMK AO2 PWINO
KW29 301630Z AUTO 18006KT 7SM SCT027 SCT046 SCT120 31/25 A2998 RMK AO2
KW31 301635Z AUTO 07004KT 10SM BKN020 BKN029 OVC100 26/25 A3000 RMK AO1 T02630249
KW43 301635Z AUTO 25003KT 10SM CLR 27/09 A2998 RMK AO2
KW63 301635Z AUTO 20003KT 10SM BKN110 30/25 A2998 RMK AO1
KW75 301635Z AUTO 12007KT 090V160 10SM SCT030 30/25 A2999 RMK AO1 T02960249
KW78 301635Z AUTO 24005KT 10SM SCT024 SCT100 A2998 RMK AO1
KW96 301635Z AUTO 00000KT 10SM SCT024 SCT044 BKN060 29/24 A2998 RMK AO1 T02930237
KW99 301635Z AUTO 00000KT 10SM SCT090 31/21 A2996 RMK AO2 T03060210
KWAL 301554Z AUTO 15008KT 10SM CLR 29/23 A3002 RMK AO2 SLP164 T02940228
KWDG 301555Z 03008KT 10SM SCT130 SCT200 26/22 A2998
KWDR 301635Z AUTO 30008KT 10SM SCT033 BKN044 31/22 A3008 RMK AO1 LTG DSNT SE W AND NW
KWHP 301553Z 00000KT 10SM SKC 24/16 A2993
KWJF 301556Z 00000KT 10SM CLR 34/08 A2993 RMK AO2 SLP105 T03390078
KWLD 301554Z AUTO 13004KT 10SM -RA BKN110 23/21 A3003 RMK AO2 LTG DSNT S SLP159 P0006 T02280211
KWMC 301556Z AUTO 29005KT 10SM CLR 31/06 A2998 RMK AO2 SLP085 T03060061
KWRB 301645Z AUTO 28007KT 10SM -DZ SCT044 33/22 A3004 RMK AO2 DZB45
KWRI 301637Z AUTO 15005KT 10SM FEW024 29/23 A2997 RMK AO2 RAB27E31DZB31E37
KWRL 301553Z AUTO 12004KT 10SM CLR 28/07 A2991 RMK AO2 SLP074 T02830072
KWST 301553Z AUTO 14009KT 10SM CLR 27/19 A3004 RMK AO2 SLP172 T02670194
KWVI 301553Z AUTO 00000KT 10SM OVC006 13/12 A2987 RMK AO2 SLP113 T01330117
KWVL 301556Z AUTO 36005KT 10SM FEW043 24/14 A3000 RMK AO2 SLP191 T02390144
KWYS 301630Z AUTO 21009KT 150V210 10SM CLR 22/03 A3011 RMK AO2
KX60 301635Z AUTO 23012G20KT 10SM CLR 30/24 A3008 RMK AO1 TSNO
KXBP 301635Z AUTO 25008KT 10SM CLR 32/21 A3003 RMK AO2 T03240214
KXLL 301635Z AUTO 11003KT 10SM SCT027 SCT036 SCT047 28/22 A3001 RMK AO2
KXMR 301558Z AUTO 09006KT 10SM SCT027 30/24 A3007 RMK AO2 SLP186 T03040240 $
KXNA 301553Z COR VRB03KT 10SM FEW035 28/23 A3004 RMK AO2 SLP154 T02830233
KXSA 301635Z AUTO 00000KT 10SM DZ SCT043 SCT049 BKN070 29/23 A3000 RMK AO2 LTG DSNT SE T02890231
KXVG 301636Z AUTO 17004KT 10SM CLR 24/13 A3005 RMK AO2
KY19 301635Z AUTO 17012G17KT 10SM BKN075 23/18 A2991 RMK AO2
KY23 301635Z AUTO 00000KT 10SM CLR 24/13 A3007 RMK AO2 T02360133
KY49 301635Z AUTO 18006KT 10SM SCT044 SCT110 23/14 A3004 RMK AO2 T02300143
KY50 301556Z AUTO 07009KT 10SM CLR 22/17 RMK AO2 SLPNO T02220167 $
KY51 301635Z AUTO 06005KT 10SM OVC080 23/17 A3006 RMK AO1 T02330165
KY63 301637Z AUTO 17009KT 10SM BKN085 24/17 A3004 RMK AO2 T02370165
KY70 301633Z AUTO 03005KT 10SM -RA OVC012 19/17 A3002 RMK AO2 T01900170
KYIP 301617Z AUTO 05013KT 10SM SCT020 OVC070 23/18 A2999 RMK AO2 T02330178 TSNO
KYKM 301553Z 00000KT 10SM CLR 28/10 A2978 RMK AO2 SLP073 T02830100
KYKN 301635Z AUTO 15008KT 10SM FEW028 25/16 A2999 RMK AO1
KYNG 301642Z 10006KT 10SM BKN016 BKN047 BKN200 24/20 A2999 RMK AO2 T02440200
KZPH 301635Z AUTO 26013KT 4SM VCTSRA SCT021 BKN030 OVC039 20/18 A3008 RMK AO2 LTG DSNT S THRU N P0003 T02040181
KZZV 301609Z AUTO 24006KT 10SM FEW018 SCT024 BKN035 27/21 A2998 RMK AO2 T02720206